Provisional Data: Portage Creek near Emporium, PA


Please select a monitoring station.
Please select start date.
Please select start date.

Toggle Unit: C/F Toggle Unit: C/F
Sample Time Temperature (C) Temperature (F) Specific Conductivity (mS/cm) pH   Turbidity (NTU+) DO (mg/L)
10/17/2022 12:00:00 AM 9.47 49.046 0.087 7.19 32.66 10.7
10/17/2022 12:15:00 AM 9.41 48.938 0.087 7.19 32.77 10.73
10/17/2022 12:30:00 AM 9.35 48.83 0.085 7.18 32.62 10.75
10/17/2022 12:45:00 AM 9.3 48.74 0.086 7.18 33.4 10.77
10/17/2022 1:00:00 AM 9.26 48.668 0.092 7.18 33.25 10.77
10/17/2022 1:15:00 AM 9.21 48.578 0.086 7.18 33.48 10.79
10/17/2022 1:30:00 AM 9.16 48.488 0.089 7.18 33.48 10.8
10/17/2022 1:45:00 AM 9.11 48.398 0.094 7.17 33.4 10.8
10/17/2022 2:00:00 AM 9.06 48.308 0.091 7.17 30.18 10.81
10/17/2022 2:15:00 AM 9.02 48.236 0.092 7.18 30 10.84
10/17/2022 2:30:00 AM 8.97 48.146 0.091 7.17 30.52 10.85
10/17/2022 2:45:00 AM 8.91 48.038 0.089 7.17 30.86 10.87
10/17/2022 3:00:00 AM 8.86 47.948 0.054 7.16 27.66 10.87
10/17/2022 3:15:00 AM 8.8 47.84 0.082 7.16 28.87 10.9
10/17/2022 3:30:00 AM 8.74 47.732 0.087 7.17 31.36 10.93
10/17/2022 3:45:00 AM 8.69 47.642 0.082 7.16 28.78 10.93
10/17/2022 4:00:00 AM 8.64 47.552 0.082 7.16 29.17 10.95
10/17/2022 4:15:00 AM 8.6 47.48 0.087 7.16 31.12 10.96
10/17/2022 4:30:00 AM 8.55 47.39 0.088 7.16 31.04 10.98
10/17/2022 4:45:00 AM 8.5 47.3 0.086 7.17 30.94 10.98
10/17/2022 5:00:00 AM 8.46 47.228 0.09 7.17 22.52 11.01
10/17/2022 5:15:00 AM 8.42 47.156 0.089 7.17 23.08 11.02
10/17/2022 5:30:00 AM 8.38 47.084 0.092 7.17 22.55 11.04
10/17/2022 5:45:00 AM 8.35 47.03 0.089 7.17 23.35 11.06
10/17/2022 6:00:00 AM 8.31 46.958 0.091 7.17 24.05 11.07
10/17/2022 6:15:00 AM 8.27 46.886 0.08 7.16 23.97 11.08
10/17/2022 6:30:00 AM 8.24 46.832 0.088 7.17 29.3 11.07
10/17/2022 6:45:00 AM 8.2 46.76 0.087 7.17 40.79 11.1
10/17/2022 7:00:00 AM 8.17 46.706 0.089 7.17 37.65 11.12
10/17/2022 7:15:00 AM 8.14 46.652 0.087 7.17 36.42 11.11
10/17/2022 7:30:00 AM 8.12 46.616 0.089 7.17 35.25 11.13
10/17/2022 7:45:00 AM 8.11 46.598 0.089 7.18 33.97 11.13
10/17/2022 8:00:00 AM 8.09 46.562 0.081 7.18 30.2 11.18
10/17/2022 8:15:00 AM 8.08 46.544 0.085 7.2 35.82 11.25
10/17/2022 8:30:00 AM 8.08 46.544 0.084 7.22 35.28 11.33
10/17/2022 8:45:00 AM 8.08 46.544 0.08 7.23 31.61 11.39
10/17/2022 9:00:00 AM 8.09 46.562 0.087 7.26 34.85 11.49
10/17/2022 9:15:00 AM 8.11 46.598 0.089 7.28 35.05 11.55
10/17/2022 9:30:00 AM 8.11 46.598 0.089 7.29 35.23 11.57
10/17/2022 9:45:00 AM 8.14 46.652 0.085 7.3 32.44 11.58
10/17/2022 10:00:00 AM 8.17 46.706 0.087 7.33 34.9 11.66
10/17/2022 10:15:00 AM 8.25 46.85 0.087 7.37 34.85 11.79
10/17/2022 10:30:00 AM 8.34 47.012 0.089 7.42 30.86 11.9
10/17/2022 10:45:00 AM 8.42 47.156 0.088 7.45 25.78 11.94
10/17/2022 11:00:00 AM 8.43 47.174 0.086 7.47 30.95 11.88
10/17/2022 11:15:00 AM 8.45 47.21 0.087 7.46 26.63 11.79
10/17/2022 11:30:00 AM 8.46 47.228 0.086 7.45 22.92 11.74
10/17/2022 11:45:00 AM 8.49 47.282 0.085 7.45 24.35 11.78
10/17/2022 12:00:00 PM 8.54 47.372 0.085 7.5 24.15 11.87
10/17/2022 12:15:00 PM 8.71 47.678 0.078 7.54 23.18 11.94
10/17/2022 12:30:00 PM 8.98 48.164 0.087 7.6 31.04 12.02
10/17/2022 12:45:00 PM 9.08 48.344 0.084 7.64 57.21 12.02
10/17/2022 1:00:00 PM 9.15 48.47 0.086 7.67 23.13 12
10/17/2022 1:15:00 PM 9.31 48.758 0.085 7.7 23.48 11.97
10/17/2022 1:30:00 PM 9.52 49.136 0.084 7.7 24.74 11.96
10/17/2022 1:45:00 PM 9.74 49.532 0.054 7.72 645.91 11.94
10/17/2022 2:00:00 PM 9.92 49.856 0.051 7.76 85.3 11.86
10/17/2022 2:15:00 PM 9.98 49.964 0.085 7.78 60.23 11.82
10/17/2022 2:30:00 PM 10.05 50.09 0.079 7.8 46.82 11.79
10/17/2022 2:45:00 PM 10.23 50.414 0.09 7.8 30.2 11.75
10/17/2022 3:00:00 PM 10.45 50.81 0.086 7.85 21.98 11.74
10/17/2022 3:15:00 PM 10.59 51.062 0.084 7.86 22.01 11.71
10/17/2022 3:30:00 PM 10.59 51.062 0.059 7.85 61.33 11.62
10/17/2022 3:45:00 PM 10.5 50.9 0.086 7.81 35.74 11.52
10/17/2022 4:00:00 PM 10.42 50.756 0.087 7.77 208.08 11.45
10/17/2022 4:15:00 PM 10.35 50.63 0.091 7.76 21.76 11.45
10/17/2022 4:30:00 PM 10.32 50.576 0.085 7.75 21.75 11.44
10/17/2022 4:45:00 PM 10.28 50.504 0.085 7.73 43.82 11.4
10/17/2022 5:00:00 PM 10.27 50.486 0.085 7.72 24.57 11.38
10/17/2022 5:15:00 PM 10.26 50.468 0.087 7.69 21.63 11.33
10/17/2022 5:30:00 PM 10.2 50.36 0.087 7.66 21.66 11.24
10/17/2022 5:45:00 PM 10.13 50.234 0.089 7.61 21.64 11.16
10/17/2022 6:00:00 PM 10.03 50.054 0.084 7.57 21.13 11.1
10/17/2022 6:15:00 PM 9.91 49.838 0.083 7.52 33.77 11.03
10/17/2022 6:30:00 PM 9.83 49.694 0.086 7.48 20.8 10.94
10/17/2022 6:45:00 PM 9.72 49.496 0.087 7.41 5017.12 10.88
10/17/2022 7:00:00 PM 9.61 49.298 0.085 7.37 100.96 10.85
10/17/2022 7:15:00 PM 9.5 49.1 0.087 7.35 41.24 10.82
10/17/2022 7:30:00 PM 9.39 48.902 0.084 7.32 28.81 10.8
10/17/2022 7:45:00 PM 9.31 48.758 0.084 7.3 28.97 10.78
10/17/2022 8:00:00 PM 9.22 48.596 0.086 7.27 29.51 10.77
10/17/2022 8:15:00 PM 9.14 48.452 0.084 7.25 28.16 10.77
10/17/2022 8:30:00 PM 9.04 48.272 0.086 7.25 28.35 10.79
10/17/2022 8:45:00 PM 8.96 48.128 0.089 7.23 28.2 10.82
10/17/2022 9:00:00 PM 8.87 47.966 0.087 7.22 28.46 10.82
10/17/2022 9:15:00 PM 8.78 47.804 0.089 7.21 31.08 10.84
10/17/2022 9:30:00 PM 8.7 47.66 0.082 7.19 29.55 10.85
10/17/2022 9:45:00 PM 8.61 47.498 0.081 7.21 21.48 10.86
10/17/2022 10:00:00 PM 8.52 47.336 0.086 7.18 19.15 10.9
10/17/2022 10:15:00 PM 8.43 47.174 0.089 7.18 19.07 10.91
10/17/2022 10:30:00 PM 8.32 46.976 0.09 7.17 20.52 10.96
10/17/2022 10:45:00 PM 8.23 46.814 0.084 7.16 18.66 10.97
10/17/2022 11:00:00 PM 8.13 46.634 0.088 7.16 19.47 11.02
10/17/2022 11:15:00 PM 8.03 46.454 0.074 7.15 19.55 11.05
10/17/2022 11:30:00 PM 7.94 46.292 0.087 7.15 19.07 11.08
10/17/2022 11:45:00 PM 7.85 46.13 0.086 7.14 19.86 11.1
10/18/2022 12:00:00 AM 7.76 45.968 0.082 7.14 262.97 11.13
10/18/2022 12:15:00 AM 7.67 45.806 0.088 7.15 18.57 11.18
10/18/2022 12:30:00 AM 7.61 45.698 0.088 7.15 22.52 11.2
10/18/2022 12:45:00 AM 7.54 45.572 0.088 7.13 19.24 11.22
10/18/2022 1:00:00 AM 7.48 45.464 0.089 7.15 19.67 11.24
10/18/2022 1:15:00 AM 7.39 45.302 0.085 7.14 20.04 11.27
10/18/2022 1:30:00 AM 7.33 45.194 0.087 7.15 21.51 11.29
10/18/2022 1:45:00 AM 7.29 45.122 0.087 7.15 19.99 11.3
10/18/2022 2:00:00 AM 7.25 45.05 0.089 7.16 17.74 11.34
10/18/2022 2:15:00 AM 7.21 44.978 0.083 7.16 16.73 11.35
10/18/2022 2:30:00 AM 7.18 44.924 0.089 7.17 17.85 11.37
10/18/2022 2:45:00 AM 7.15 44.87 0.086 7.16 17.86 11.37
10/18/2022 3:00:00 AM 7.13 44.834 0.086 7.17 16.57 11.39
10/18/2022 3:15:00 AM 7.11 44.798 0.085 7.17 17.03 11.39
10/18/2022 3:30:00 AM 7.08 44.744 0.09 7.18 18.2 11.4
10/18/2022 3:45:00 AM 7.05 44.69 0.091 7.19 18.4 11.41
10/18/2022 4:00:00 AM 7.02 44.636 0.094 7.19 17.99 11.41
10/18/2022 4:15:00 AM 6.98 44.564 0.089 7.19 18.11 11.42
10/18/2022 4:30:00 AM 6.95 44.51 0.086 7.19 18.02 11.43
10/18/2022 4:45:00 AM 6.92 44.456 0.087 7.19 18 11.45
10/18/2022 5:00:00 AM 6.9 44.42 0.088 7.19 17.94 11.46
10/18/2022 5:15:00 AM 6.87 44.366 0.087 7.19 17.95 11.47
10/18/2022 5:30:00 AM 6.84 44.312 0.088 7.19 17.97 11.48
10/18/2022 5:45:00 AM 6.81 44.258 0.084 7.2 17.92 11.5
10/18/2022 6:00:00 AM 6.78 44.204 0.085 7.19 17.94 11.51
10/18/2022 6:15:00 AM 6.72 44.096 0.091 7.19 18.01 11.53
10/18/2022 6:30:00 AM 6.64 43.952 0.087 7.18 17.96 11.54
10/18/2022 6:45:00 AM 6.6 43.88 0.089 7.18 17.96 11.55
10/18/2022 7:00:00 AM 6.57 43.826 0.089 7.18 17.94 11.57
10/18/2022 7:15:00 AM 6.56 43.808 0.088 7.19 17.98 11.57
10/18/2022 7:30:00 AM 6.55 43.79 0.088 7.19 17.9 11.58
10/18/2022 7:45:00 AM 6.54 43.772 0.086 7.19 18.08 11.57
10/18/2022 8:00:00 AM 6.53 43.754 0.09 7.2 18.96 11.63
10/18/2022 8:15:00 AM 6.53 43.754 0.086 7.22 19.52 11.68
10/18/2022 8:30:00 AM 6.54 43.772 0.085 7.22 30.64 11.73
10/18/2022 8:45:00 AM 6.54 43.772 0.089 7.24 33.9 11.75
10/18/2022 9:00:00 AM 6.55 43.79 0.047 7.25 169.55 11.81
10/18/2022 9:15:00 AM 6.56 43.808 0.056 7.27 112.19 11.86
10/18/2022 9:30:00 AM 6.58 43.844 0.088 7.28 41.82 11.9
10/18/2022 9:45:00 AM 6.6 43.88 0.088 7.3 43.83 11.94
10/18/2022 10:00:00 AM 6.62 43.916 0.084 7.32 148.11 12
10/18/2022 10:15:00 AM 6.64 43.952 0.088 7.33 34.67 12.04
10/18/2022 10:30:00 AM 6.67 44.006 0.084 7.35 111.88 12.09
10/18/2022 10:45:00 AM 6.71 44.078 0.084 7.37 346.43 12.16
10/18/2022 11:00:00 AM 6.75 44.15 0.087 7.4 205.7 12.22
10/18/2022 11:15:00 AM 6.79 44.222 0.085 7.42 35.98 12.27
10/18/2022 11:30:00 AM 6.82 44.276 0.085 7.44 54.46 12.28
10/18/2022 11:45:00 AM 6.86 44.348 0.077 7.46 33.45 12.31
10/18/2022 12:00:00 PM 6.89 44.402 0.058 7.48 33.31 12.33
10/18/2022 12:15:00 PM 6.94 44.492 0.085 7.5 32.12 12.34
10/18/2022 12:30:00 PM 6.99 44.582 0.086 7.52 32.06 12.37
10/18/2022 12:45:00 PM 7.05 44.69 0.087 7.54 32.05 12.41
10/18/2022 1:00:00 PM 7.13 44.834 0.087 7.56 32.15 12.44
10/18/2022 1:15:00 PM 7.18 44.924 0.085 7.57 32 12.4
10/18/2022 1:30:00 PM 7.24 45.032 0.075 7.58 29.5 12.38
10/18/2022 1:45:00 PM 7.29 45.122 0.076 7.59 28.16 12.36
10/18/2022 2:00:00 PM 7.47 45.446 0.083 7.62 31.8 12.4
10/18/2022 2:15:00 PM 7.66 45.788 0.077 7.64 29.37 12.37
10/18/2022 2:30:00 PM 7.77 45.986 0.088 7.67 31.82 12.33
10/18/2022 2:45:00 PM 7.83 46.094 0.082 7.67 31.79 12.27
10/18/2022 3:00:00 PM 7.85 46.13 0.086 7.65 31.78 12.19
10/18/2022 3:15:00 PM 7.91 46.238 0.101 7.65 29.5 12.18
10/18/2022 3:30:00 PM 7.97 46.346 0.088 7.66 31.89 12.15
10/18/2022 3:45:00 PM 8.03 46.454 0.082 7.67 69.94 12.13
10/18/2022 4:00:00 PM 8.08 46.544 0.082 7.68 19.79 12.11
10/18/2022 4:15:00 PM 8.09 46.562 0.086 7.68 95.31 12.04
10/18/2022 4:30:00 PM 8.1 46.58 0.085 7.62 17.25 11.93
10/18/2022 4:45:00 PM 8.11 46.598 0.084 7.65 111.7 11.93
10/18/2022 5:00:00 PM 8.11 46.598 0.082 7.66 107.66 11.9
10/18/2022 5:15:00 PM 8.09 46.562 0.08 7.61 117.78 11.78
10/18/2022 5:30:00 PM 8.07 46.526 0.079 7.14 117.74 11.69
10/18/2022 5:45:00 PM 8.05 46.49 0.078 7.57 125.15 11.64
10/18/2022 6:00:00 PM 8.03 46.454 0.077 7.49 390.92 11.61
10/18/2022 6:15:00 PM 8.01 46.418 0.086 7.47 27.72 11.56
10/18/2022 6:30:00 PM 7.98 46.364 0.084 7.45 26.86 11.5
10/18/2022 6:45:00 PM 7.94 46.292 0.087 7.42 29.54 11.44
10/18/2022 7:00:00 PM 7.92 46.256 0.079 7.41 94.25 11.33
10/18/2022 7:15:00 PM 7.88 46.184 0.084 7.37 32.94 11.3
10/18/2022 7:30:00 PM 7.85 46.13 0.085 7.35 28.28 11.3
10/18/2022 7:45:00 PM 7.81 46.058 0.087 7.34 72.76 11.26
10/18/2022 8:00:00 PM 7.77 45.986 0.086 7.32 78.84 11.26
10/18/2022 8:15:00 PM 7.73 45.914 0.087 7.31 16.57 11.27
10/18/2022 8:30:00 PM 7.68 45.824 0.086 7.29 17.4 11.29
10/18/2022 8:45:00 PM 7.64 45.752 0.087 7.29 15.59 11.3
10/18/2022 9:00:00 PM 7.61 45.698 0.082 7.27 36.29 11.29
10/18/2022 9:15:00 PM 7.58 45.644 0.082 7.27 21.67 11.26
10/18/2022 9:30:00 PM 7.53 45.554 0.088 7.27 16 11.31
10/18/2022 9:45:00 PM 7.49 45.482 0.082 7.25 18.38 11.31
10/18/2022 10:00:00 PM 7.45 45.41 0.085 7.25 17.66 11.34
10/18/2022 10:15:00 PM 7.42 45.356 0.084 7.25 16.55 11.34
10/18/2022 10:30:00 PM 7.39 45.302 0.087 7.25 17.77 11.35
10/18/2022 10:45:00 PM 7.37 45.266 0.087 7.24 16.26 11.35
10/18/2022 11:00:00 PM 7.34 45.212 0.079 7.23 29.48 11.35
10/18/2022 11:15:00 PM 7.3 45.14 0.083 7.24 19.69 11.38
10/18/2022 11:30:00 PM 7.28 45.104 0.085 7.23 16.73 11.36
10/18/2022 11:45:00 PM 7.25 45.05 0.091 7.23 17.61 11.38
10/19/2022 12:00:00 AM 7.23 45.014 0.081 7.23 19.42 11.39
10/19/2022 12:15:00 AM 7.2 44.96 0.079 7.23 37.75 11.39
10/19/2022 12:30:00 AM 7.18 44.924 0.081 7.22 18.72 11.4
10/19/2022 12:45:00 AM 7.15 44.87 0.087 7.23 22.69 11.42
10/19/2022 1:00:00 AM 7.13 44.834 0.084 7.22 24.14 11.42
10/19/2022 1:15:00 AM 7.1 44.78 0.089 7.22 40.69 11.43
10/19/2022 1:30:00 AM 7.08 44.744 0.085 7.22 26.23 11.44
10/19/2022 1:45:00 AM 7.05 44.69 0.088 7.22 23.26 11.46
10/19/2022 2:00:00 AM 7.03 44.654 0.087 7.22 30.38 11.47
10/19/2022 2:15:00 AM 7 44.6 0.09 7.22 18.88 11.48
10/19/2022 2:30:00 AM 6.97 44.546 0.087 7.22 18.65 11.48
10/19/2022 2:45:00 AM 6.94 44.492 0.088 7.22 17.03 11.49
10/19/2022 3:00:00 AM 6.92 44.456 0.085 7.22 16.59 11.51
10/19/2022 3:15:00 AM 6.89 44.402 0.088 7.22 16.7 11.52
10/19/2022 3:30:00 AM 6.87 44.366 0.081 7.22 16.66 11.53
10/19/2022 3:45:00 AM 6.85 44.33 0.083 7.21 17.06 11.52
10/19/2022 4:00:00 AM 6.83 44.294 0.09 7.22 16.92 11.54
10/19/2022 4:15:00 AM 6.81 44.258 0.086 7.22 38 11.55
10/19/2022 4:30:00 AM 6.79 44.222 0.086 7.22 40.22 11.56
10/19/2022 4:45:00 AM 6.77 44.186 0.087 7.22 21.29 11.56
10/19/2022 5:00:00 AM 6.74 44.132 0.086 7.22 18.87 11.56
10/19/2022 5:15:00 AM 6.72 44.096 0.084 7.22 18.04 11.56
10/19/2022 5:30:00 AM 6.69 44.042 0.087 7.22 18.96 11.57
10/19/2022 5:45:00 AM 6.67 44.006 0.084 7.22 18.67 11.58
10/19/2022 6:00:00 AM 6.63 43.934 0.089 7.21 17.44 11.6
10/19/2022 6:15:00 AM 6.61 43.898 0.089 7.21 17.72 11.59
10/19/2022 6:30:00 AM 6.58 43.844 0.081 7.21 18.12 11.6
10/19/2022 6:45:00 AM 6.56 43.808 0.087 7.21 18.1 11.6
10/19/2022 7:00:00 AM 6.53 43.754 0.087 7.21 17.41 11.61
10/19/2022 7:15:00 AM 6.5 43.7 0.085 7.21 18.31 11.62
10/19/2022 7:30:00 AM 6.48 43.664 0.086 7.21 31.21 11.63
10/19/2022 7:45:00 AM 6.45 43.61 0.078 7.21 19.67 11.65
10/19/2022 8:00:00 AM 6.43 43.574 0.087 7.22 17.62 11.68
10/19/2022 8:15:00 AM 6.42 43.556 0.088 7.22 16.91 11.7
10/19/2022 8:30:00 AM 6.39 43.502 0.09 7.23 26.91 11.75
10/19/2022 8:45:00 AM 6.38 43.484 0.086 7.23 17.69 11.8
10/19/2022 9:00:00 AM 6.35 43.43 0.089 7.24 16.48 11.85
10/19/2022 9:15:00 AM 6.35 43.43 0.085 7.26 18.72 11.93
10/19/2022 9:30:00 AM 6.36 43.448 0.087 7.28 16.46 12.02
10/19/2022 9:45:00 AM 6.38 43.484 0.087 7.3 38.74 12.07
10/19/2022 10:00:00 AM 6.39 43.502 0.089 7.31 45.19 12.14
10/19/2022 10:15:00 AM 6.42 43.556 0.091 7.35 20.89 12.24
10/19/2022 10:30:00 AM 6.46 43.628 0.086 7.37 26.45 12.32
10/19/2022 10:45:00 AM 6.5 43.7 0.088 7.39 68.68 12.39
10/19/2022 11:00:00 AM 6.57 43.826 0.083 7.41 15 12.47
10/19/2022 11:15:00 AM 6.63 43.934 0.084 7.46 14.76 12.51
10/19/2022 11:30:00 AM 6.67 44.006 0.077 7.47 15.14 12.52
10/19/2022 11:45:00 AM 6.69 44.042 0.085 7.48 14.97 12.51
10/19/2022 12:00:00 PM 6.72 44.096 0.085 7.51 15.01 12.51
10/19/2022 12:15:00 PM 6.77 44.186 0.081 7.52 23.28 12.55
10/19/2022 12:30:00 PM 6.83 44.294 0.084 7.56 20.73 12.57
10/19/2022 12:45:00 PM 6.9 44.42 0.084 7.57 18.51 12.58
10/19/2022 1:00:00 PM 6.95 44.51 0.085 7.6 18.99 12.58
10/19/2022 1:15:00 PM 7.02 44.636 0.086 7.62 16.79 12.59
10/19/2022 1:30:00 PM 7.12 44.816 0.08 7.62 17.59 12.59
10/19/2022 1:45:00 PM 7.24 45.032 0.076 7.64 17.29 12.59
10/19/2022 2:00:00 PM 7.34 45.212 0.075 7.67 17.74 12.58
10/19/2022 2:15:00 PM 7.4 45.32 0.084 7.68 17.99 12.56
10/19/2022 2:30:00 PM 7.47 45.446 0.082 7.71 18.72 12.54
10/19/2022 2:45:00 PM 7.59 45.662 0.078 7.73 16.57 12.53
10/19/2022 3:00:00 PM 7.65 45.77 0.08 7.74 16.89 12.46
10/19/2022 3:15:00 PM 7.71 45.878 0.085 7.73 16.28 12.42
10/19/2022 3:30:00 PM 7.76 45.968 0.081 7.73 16.08 12.39
10/19/2022 3:45:00 PM 7.83 46.094 0.082 7.75 16.16 12.41
10/19/2022 4:00:00 PM 7.87 46.166 0.084 7.75 16.03 12.36
10/19/2022 4:15:00 PM 7.9 46.22 0.083 7.74 15.17 12.3
10/19/2022 4:30:00 PM 7.93 46.274 0.083 7.73 15.46 12.27
10/19/2022 4:45:00 PM 7.95 46.31 0.084 7.72 15.45 12.25
10/19/2022 5:00:00 PM 7.97 46.346 0.082 7.72 15.92 12.21
10/19/2022 5:15:00 PM 7.96 46.328 0.084 7.69 14.59 12.12
10/19/2022 5:30:00 PM 7.95 46.31 0.087 7.65 16.05 12.02
10/19/2022 5:45:00 PM 7.93 46.274 0.092 7.61 16.54 11.92
10/19/2022 6:00:00 PM 7.9 46.22 0.084 7.57 15.19 11.82
10/19/2022 6:15:00 PM 7.87 46.166 0.088 7.53 17.35 11.71
10/19/2022 6:30:00 PM 7.85 46.13 0.082 7.48 16.25 11.62
10/19/2022 6:45:00 PM 7.81 46.058 0.083 7.46 16.96 11.56
10/19/2022 7:00:00 PM 7.77 45.986 0.087 7.43 16.25 11.5
10/19/2022 7:15:00 PM 7.74 45.932 0.087 7.4 16.37 11.45
10/19/2022 7:30:00 PM 7.71 45.878 0.086 7.38 17.58 11.43
10/19/2022 7:45:00 PM 7.68 45.824 0.085 7.36 17.27 11.39
10/19/2022 8:00:00 PM 7.63 45.734 0.075 7.34 17.27 11.38
10/19/2022 8:15:00 PM 7.59 45.662 0.081 7.33 17.12 11.38
10/19/2022 8:30:00 PM 7.55 45.59 0.078 7.32 17.1 11.39
10/19/2022 8:45:00 PM 7.51 45.518 0.079 7.3 17.09 11.4
10/19/2022 9:00:00 PM 7.47 45.446 0.088 7.29 17.57 11.4
10/19/2022 9:15:00 PM 7.45 45.41 0.086 7.28 17.58 11.4
10/19/2022 9:30:00 PM 7.42 45.356 0.085 7.27 17.65 11.42
10/19/2022 9:45:00 PM 7.39 45.302 0.081 7.27 17.62 11.43
10/19/2022 10:00:00 PM 7.36 45.248 0.082 7.26 17.59 11.44
10/19/2022 10:15:00 PM 7.33 45.194 0.086 7.26 17.66 11.44
10/19/2022 10:30:00 PM 7.3 45.14 0.085 7.25 17.62 11.45
10/19/2022 10:45:00 PM 7.28 45.104 0.078 7.24 17.4 11.44
10/19/2022 11:00:00 PM 7.26 45.068 0.078 7.24 21.31 11.48
10/19/2022 11:15:00 PM 7.24 45.032 0.086 7.24 22.23 11.48
10/19/2022 11:30:00 PM 7.22 44.996 0.08 7.24 21.63 11.47
10/19/2022 11:45:00 PM 7.2 44.96 0.081 7.24 21.78 11.49
10/20/2022 12:00:00 AM 7.18 44.924 0.082 7.23 21.4 11.48
10/20/2022 12:15:00 AM 7.17 44.906 0.087 7.23 22.05 11.48
10/20/2022 12:30:00 AM 7.14 44.852 0.084 7.23 21.96 11.5
10/20/2022 12:45:00 AM 7.12 44.816 0.082 7.23 21.42 11.51
10/20/2022 1:00:00 AM 7.1 44.78 0.089 7.23 22.01 11.52
10/20/2022 1:15:00 AM 7.07 44.726 0.085 7.23 21.94 11.53
10/20/2022 1:30:00 AM 7.04 44.672 0.085 7.22 20.95 11.52
10/20/2022 1:45:00 AM 7.01 44.618 0.083 7.22 21.06 11.53
10/20/2022 2:00:00 AM 6.96 44.528 0.088 7.22 21.97 11.55
10/20/2022 2:15:00 AM 6.91 44.438 0.082 7.22 21.92 11.57
10/20/2022 2:30:00 AM 6.85 44.33 0.083 7.21 21.81 11.58
10/20/2022 2:45:00 AM 6.8 44.24 0.081 7.2 21.91 11.6
10/20/2022 3:00:00 AM 6.75 44.15 0.086 7.2 21.85 11.62
10/20/2022 3:15:00 AM 6.7 44.06 0.083 7.2 21.87 11.62
10/20/2022 3:30:00 AM 6.64 43.952 0.079 7.2 21.81 11.65
10/20/2022 3:45:00 AM 6.59 43.862 0.078 7.19 21.48 11.66
10/20/2022 4:00:00 AM 6.53 43.754 0.086 7.19 21.92 11.68
10/20/2022 4:15:00 AM 6.47 43.646 0.082 7.19 21.83 11.7
10/20/2022 4:30:00 AM 6.42 43.556 0.084 7.18 22.32 11.71
10/20/2022 4:45:00 AM 6.35 43.43 0.089 7.18 21.97 11.73
10/20/2022 5:00:00 AM 6.29 43.322 0.085 7.18 21.84 11.76
10/20/2022 5:15:00 AM 6.23 43.214 0.081 7.18 22.27 11.77
10/20/2022 5:30:00 AM 6.17 43.106 0.085 7.18 22.37 11.78
10/20/2022 5:45:00 AM 6.1 42.98 0.08 7.17 24.27 11.81
10/20/2022 6:00:00 AM 6.04 42.872 0.079 7.17 24.66 11.85
10/20/2022 6:15:00 AM 5.97 42.746 0.084 7.17 24.65 11.87
10/20/2022 6:30:00 AM 5.91 42.638 0.083 7.17 24.63 11.89
10/20/2022 6:45:00 AM 5.86 42.548 0.085 7.16 23.93 11.9
10/20/2022 7:00:00 AM 5.8 42.44 0.083 7.16 24.25 11.92
10/20/2022 7:15:00 AM 5.74 42.332 0.085 7.17 24.61 11.95
10/20/2022 7:30:00 AM 5.69 42.242 0.088 7.17 24.49 11.97
10/20/2022 7:45:00 AM 5.65 42.17 0.084 7.17 24.43 12
10/20/2022 8:00:00 AM 5.6 42.08 0.085 7.18 24.69 12.04
10/20/2022 8:15:00 AM 5.56 42.008 0.082 7.19 23.88 12.12
10/20/2022 8:30:00 AM 5.52 41.936 0.083 7.2 23.97 12.19
10/20/2022 8:45:00 AM 5.5 41.9 0.086 7.22 23.93 12.27
10/20/2022 9:00:00 AM 5.48 41.864 0.086 7.24 23.82 12.34
10/20/2022 9:15:00 AM 5.46 41.828 0.084 7.26 23.55 12.42
10/20/2022 9:30:00 AM 5.48 41.864 0.085 7.28 23.73 12.51
10/20/2022 9:45:00 AM 5.51 41.918 0.084 7.31 23.68 12.61
10/20/2022 10:00:00 AM 5.57 42.026 0.083 7.33 23.59 12.68
10/20/2022 10:15:00 AM 5.64 42.152 0.084 7.37 23.67 12.77
10/20/2022 10:30:00 AM 5.72 42.296 0.088 7.4 23.51 12.79
10/20/2022 10:45:00 AM 5.79 42.422 0.085 7.43 23.57 12.83
10/20/2022 11:00:00 AM 5.86 42.548 0.083 7.46 23.5 12.86
10/20/2022 11:15:00 AM 5.94 42.692 0.084 7.49 23.27 12.9
10/20/2022 11:30:00 AM 6.04 42.872 0.082 7.51 23.26 12.9
10/20/2022 11:45:00 AM 6.18 43.124 0.083 7.54 23.2 12.9
10/20/2022 12:00:00 PM 6.31 43.358 0.081 7.57 23.25 12.9
10/20/2022 12:15:00 PM 6.42 43.556 0.086 7.59 23.31 12.89
10/20/2022 12:30:00 PM 6.5 43.7 0.082 7.61 23.3 12.89
10/20/2022 12:45:00 PM 6.63 43.934 0.082 7.63 23.44 12.88
10/20/2022 1:00:00 PM 6.75 44.15 0.078 7.65 22.66 12.84
10/20/2022 1:15:00 PM 6.9 44.42 0.084 7.68 23.17 12.8
10/20/2022 1:30:00 PM 7.06 44.708 0.086 7.71 23.14 12.77
10/20/2022 1:45:00 PM 7.22 44.996 0.073 7.72 23.65 12.73
10/20/2022 2:00:00 PM 7.47 45.446 0.082 7.75 23.08 12.7
10/20/2022 2:15:00 PM 7.64 45.752 0.09 7.78 23.11 12.63
10/20/2022 2:30:00 PM 7.8 46.04 0.08 7.79 22.42 12.57
10/20/2022 2:45:00 PM 7.94 46.292 0.086 7.81 22.8 12.53
10/20/2022 3:00:00 PM 8.06 46.508 0.08 7.83 22.8 12.47
10/20/2022 3:15:00 PM 8.13 46.634 0.083 7.83 22.82 12.41
10/20/2022 3:30:00 PM 8.16 46.688 0.085 7.83 22.82 12.37
10/20/2022 3:45:00 PM 8.17 46.706 0.088 7.83 22.98 12.34
10/20/2022 4:00:00 PM 8.19 46.742 0.079 7.82 22.2 12.3
10/20/2022 4:15:00 PM 8.2 46.76 0.08 7.82 22.54 12.28
10/20/2022 4:30:00 PM 8.18 46.724 0.082 7.8 22.77 12.23
10/20/2022 4:45:00 PM 8.16 46.688 0.084 7.78 22.7 12.17
10/20/2022 5:00:00 PM 8.12 46.616 0.08 7.75 22.79 12.12
10/20/2022 5:15:00 PM 8.09 46.562 0.086 7.71 22.75 12.04
10/20/2022 5:30:00 PM 8.06 46.508 0.081 7.66 22.81 11.94
10/20/2022 5:45:00 PM 8.01 46.418 0.083 7.62 22.74 11.85
10/20/2022 6:00:00 PM 7.95 46.31 0.083 7.57 22.8 11.77
10/20/2022 6:15:00 PM 7.91 46.238 0.084 7.53 22.77 11.69
10/20/2022 6:30:00 PM 7.86 46.148 0.084 7.49 22.76 11.61
10/20/2022 6:45:00 PM 7.82 46.076 0.084 7.46 22.62 11.56
10/20/2022 7:00:00 PM 7.77 45.986 0.083 7.43 22.07 11.5
10/20/2022 7:15:00 PM 7.73 45.914 0.082 7.4 22.02 11.46
10/20/2022 7:30:00 PM 7.67 45.806 0.089 7.39 22.96 11.46
10/20/2022 7:45:00 PM 7.61 45.698 0.083 7.37 25.13 11.45
10/20/2022 8:00:00 PM 7.56 45.608 0.085 7.36 25.09 11.45
10/20/2022 8:15:00 PM 7.52 45.536 0.086 7.34 24.91 11.44
10/20/2022 8:30:00 PM 7.48 45.464 0.087 7.33 24.5 11.44
10/20/2022 8:45:00 PM 7.45 45.41 0.086 7.31 36.5 11.43
10/20/2022 9:00:00 PM 7.42 45.356 0.083 7.3 24.93 11.43
10/20/2022 9:15:00 PM 7.4 45.32 0.09 7.29 20.89 11.43
10/20/2022 9:30:00 PM 7.36 45.248 0.087 7.28 18.36 11.44
10/20/2022 9:45:00 PM 7.34 45.212 0.087 7.27 16.07 11.42
10/20/2022 10:00:00 PM 7.31 45.158 0.081 7.26 37.02 11.43
10/20/2022 10:15:00 PM 7.29 45.122 0.089 7.26 60.63 11.45
10/20/2022 10:30:00 PM 7.26 45.068 0.093 7.26 20.43 11.47
10/20/2022 10:45:00 PM 7.24 45.032 0.09 7.25 20.86 11.47
10/20/2022 11:00:00 PM 7.21 44.978 0.08 7.24 21.56 11.47
10/20/2022 11:15:00 PM 7.19 44.942 0.086 7.24 24.28 11.5
10/20/2022 11:30:00 PM 7.15 44.87 0.085 7.23 22.02 11.5
10/20/2022 11:45:00 PM 7.1 44.78 0.081 7.23 72.39 11.5
10/21/2022 12:00:00 AM 7.04 44.672 0.088 7.22 18.87 11.52
10/21/2022 12:15:00 AM 6.97 44.546 0.091 7.22 16.54 11.56
10/21/2022 12:30:00 AM 6.9 44.42 0.09 7.22 16.62 11.57
10/21/2022 12:45:00 AM 6.83 44.294 0.09 7.21 16.96 11.59
10/21/2022 1:00:00 AM 6.77 44.186 0.088 7.21 17.01 11.6
10/21/2022 1:15:00 AM 6.7 44.06 0.089 7.2 17.2 11.63
10/21/2022 1:30:00 AM 6.62 43.916 0.089 7.19 17.14 11.65
10/21/2022 1:45:00 AM 6.55 43.79 0.086 7.18 17.14 11.68
10/21/2022 2:00:00 AM 6.47 43.646 0.087 7.18 18.1 11.71
10/21/2022 2:15:00 AM 6.4 43.52 0.081 7.17 17.05 11.72
10/21/2022 2:30:00 AM 6.32 43.376 0.087 7.17 14.44 11.76
10/21/2022 2:45:00 AM 6.23 43.214 0.084 7.16 15.33 11.78
10/21/2022 3:00:00 AM 6.15 43.07 0.089 7.16 16.4 11.82
10/21/2022 3:15:00 AM 6.07 42.926 0.089 7.15 15.8 11.84
10/21/2022 3:30:00 AM 5.98 42.764 0.085 7.15 17.51 11.88
10/21/2022 3:45:00 AM 5.89 42.602 0.091 7.15 23.13 11.91
10/21/2022 4:00:00 AM 5.81 42.458 0.089 7.14 13.37 11.94
10/21/2022 4:15:00 AM 5.73 42.314 0.085 7.14 16.55 11.97
10/21/2022 4:30:00 AM 5.65 42.17 0.088 7.14 17.37 12
10/21/2022 4:45:00 AM 5.57 42.026 0.088 7.14 15.72 12.03
10/21/2022 5:00:00 AM 5.5 41.9 0.086 7.14 13.72 12.05
10/21/2022 5:15:00 AM 5.42 41.756 0.087 7.14 15.41 12.07
10/21/2022 5:30:00 AM 5.35 41.63 0.087 7.14 13.72 12.11
10/21/2022 5:45:00 AM 5.27 41.486 0.073 7.14 14.06 12.14
10/21/2022 6:00:00 AM 5.2 41.36 0.089 7.14 15.81 12.16
10/21/2022 6:15:00 AM 5.13 41.234 0.087 7.14 14.55 12.2
10/21/2022 6:30:00 AM 5.06 41.108 0.085 7.13 14.98 12.22
10/21/2022 6:45:00 AM 4.99 40.982 0.09 7.13 13.88 12.24
10/21/2022 7:00:00 AM 4.92 40.856 0.087 7.13 12.44 12.27
10/21/2022 7:15:00 AM 4.86 40.748 0.087 7.14 12.41 12.3
10/21/2022 7:30:00 AM 4.79 40.622 0.088 7.13 28.58 12.33
10/21/2022 7:45:00 AM 4.73 40.514 0.083 7.14 18.66 12.37
10/21/2022 8:00:00 AM 4.67 40.406 0.084 7.14 12.49 12.42
10/21/2022 8:15:00 AM 4.62 40.316 0.088 7.15 12.59 12.5
10/21/2022 8:30:00 AM 4.56 40.208 0.091 7.16 12.46 12.58
10/21/2022 8:45:00 AM 4.52 40.136 0.087 7.18 12.53 12.66
10/21/2022 9:00:00 AM 4.49 40.082 0.088 7.2 12.57 12.74
10/21/2022 9:15:00 AM 4.47 40.046 0.089 7.22 12.56 12.83
10/21/2022 9:30:00 AM 4.47 40.046 0.091 7.24 12.88 12.9
10/21/2022 9:45:00 AM 4.49 40.082 0.092 7.26 13.16 13
10/21/2022 10:00:00 AM 4.55 40.19 0.088 7.29 13.14 13.06
10/21/2022 10:15:00 AM 4.64 40.352 0.089 7.33 13.21 13.11
10/21/2022 10:30:00 AM 4.74 40.532 0.085 7.36 13.16 13.15
10/21/2022 10:45:00 AM 4.86 40.748 0.085 7.39 38.13 13.17
10/21/2022 11:00:00 AM 5 41 0.087 7.41 20.05 13.16
10/21/2022 11:15:00 AM 5.16 41.288 0.089 7.43 20.93 13.16
10/21/2022 11:30:00 AM 5.35 41.63 0.086 7.45 22.13 13.15
10/21/2022 11:45:00 AM 5.55 41.99 0.086 7.47 26.11 13.13
10/21/2022 12:00:00 PM 5.7 42.26 0.087 7.5 14.23 13.06
10/21/2022 12:15:00 PM 5.92 42.656 0.087 7.51 16.95 13.04
10/21/2022 12:30:00 PM 6.14 43.052 0.084 7.52 15.28 13.01
10/21/2022 12:45:00 PM 6.38 43.484 0.087 7.54 16.48 12.95
10/21/2022 1:00:00 PM 6.62 43.916 0.082 7.56 21.77 12.87
10/21/2022 1:15:00 PM 6.88 44.384 0.085 7.57 15.03 12.82
10/21/2022 1:30:00 PM 7.18 44.924 0.087 7.59 15.17 12.77
10/21/2022 1:45:00 PM 7.53 45.554 0.086 7.6 15.9 12.69
10/21/2022 2:00:00 PM 7.89 46.202 0.085 7.63 14.83 12.6
10/21/2022 2:15:00 PM 8.27 46.886 0.08 7.63 18.03 12.42
10/21/2022 2:30:00 PM 8.67 47.606 0.09 7.65 16.24 12.38
10/21/2022 2:45:00 PM 9.05 48.29 0.09 7.67 14.66 12.25
10/21/2022 3:00:00 PM 9.36 48.848 0.088 7.67 24.67 12.1
10/21/2022 3:15:00 PM 9.61 49.298 0.089 7.68 19.91 12.05
10/21/2022 3:30:00 PM 9.78 49.604 0.087 7.68 34.49 11.9
10/21/2022 3:45:00 PM 9.88 49.784 0.085 7.69 52.53 11.82
10/21/2022 4:00:00 PM 9.9 49.82 0.084 7.68 16.87 11.75
10/21/2022 4:15:00 PM 9.86 49.748 0.084 7.67 17.87 11.7
10/21/2022 4:30:00 PM 9.8 49.64 0.088 7.65 19.68 11.63
10/21/2022 4:45:00 PM 9.73 49.514 0.089 7.63 21.16 11.57
10/21/2022 5:00:00 PM 9.66 49.388 0.087 7.6 14.96 11.49
10/21/2022 5:15:00 PM 9.58 49.244 0.088 7.58 18.12 11.41
10/21/2022 5:30:00 PM 9.49 49.082 0.087 7.55 47.31 11.33
10/21/2022 5:45:00 PM 9.41 48.938 0.086 7.51 24.87 11.28
10/21/2022 6:00:00 PM 9.32 48.776 0.089 7.49 29.96 11.24
10/21/2022 6:15:00 PM 9.22 48.596 0.085 7.45 30.97 11.18
10/21/2022 6:30:00 PM 9.11 48.398 0.088 7.43 16.85 11.14
10/21/2022 6:45:00 PM 9 48.2 0.091 7.4 14.72 11.09
10/21/2022 7:00:00 PM 8.89 48.002 0.093 7.37 16.55 11.05
10/21/2022 7:15:00 PM 8.77 47.786 0.083 7.35 19.01 11.05
10/21/2022 7:30:00 PM 8.66 47.588 0.085 7.33 17.99 11.04
10/21/2022 7:45:00 PM 8.55 47.39 0.088 7.32 15.79 11.05
10/21/2022 8:00:00 PM 8.44 47.192 0.089 7.3 16.02 11.07
10/21/2022 8:15:00 PM 8.34 47.012 0.092 7.28 26.52 11.09
10/21/2022 8:30:00 PM 8.25 46.85 0.087 7.27 14.88 11.1
10/21/2022 8:45:00 PM 8.16 46.688 0.092 7.25 16.17 11.12
10/21/2022 9:00:00 PM 8.08 46.544 0.089 7.24 16.96 11.12
10/21/2022 9:15:00 PM 8.02 46.436 0.085 7.22 16.68 11.11
10/21/2022 9:30:00 PM 7.94 46.292 0.09 7.22 17 11.14
10/21/2022 9:45:00 PM 7.88 46.184 0.09 7.2 16.73 11.16
10/21/2022 10:00:00 PM 7.83 46.094 0.09 7.19 17.36 11.15
10/21/2022 10:15:00 PM 7.77 45.986 0.093 7.19 15.12 11.18
10/21/2022 10:30:00 PM 7.71 45.878 0.097 7.18 14.35 11.19
10/21/2022 10:45:00 PM 7.65 45.77 0.049 7.18 17.08 11.22
10/21/2022 11:00:00 PM 7.6 45.68 0.094 7.18 33.99 11.24
10/21/2022 11:15:00 PM 7.53 45.554 0.085 7.16 16.18 11.25
10/21/2022 11:30:00 PM 7.47 45.446 0.091 7.16 14.07 11.26
10/21/2022 11:45:00 PM 7.41 45.338 0.086 7.16 15.8 11.28
10/22/2022 12:00:00 AM 7.34 45.212 0.088 7.16 15.55 11.31
10/22/2022 12:15:00 AM 7.27 45.086 0.092 7.16 15.34 11.34
10/22/2022 12:30:00 AM 7.21 44.978 0.086 7.15 17.43 11.35
10/22/2022 12:45:00 AM 7.14 44.852 0.081 7.15 21.03 11.39
10/22/2022 1:00:00 AM 7.08 44.744 0.086 7.14 21.68 11.4
10/22/2022 1:15:00 AM 7.01 44.618 0.093 7.15 19.05 11.45
10/22/2022 1:30:00 AM 6.94 44.492 0.092 7.14 57.58 11.46
10/22/2022 1:45:00 AM 6.87 44.366 0.089 7.14 15.17 11.48
10/22/2022 2:00:00 AM 6.8 44.24 0.091 7.14 15.78 11.5
10/22/2022 2:15:00 AM 6.73 44.114 0.089 7.13 13.43 11.53
10/22/2022 2:30:00 AM 6.66 43.988 0.054 7.13 17.46 11.56
10/22/2022 2:45:00 AM 6.59 43.862 0.085 7.14 34.98 11.6
10/22/2022 3:00:00 AM 6.52 43.736 0.06 7.13 18 11.64
10/22/2022 3:15:00 AM 6.44 43.592 0.093 7.12 23.85 11.66
10/22/2022 3:30:00 AM 6.37 43.466 0.091 7.13 15.4 11.67
10/22/2022 3:45:00 AM 6.29 43.322 0.087 7.11 27.21 11.71
10/22/2022 4:00:00 AM 6.22 43.196 0.089 7.12 33.26 11.74
10/22/2022 4:15:00 AM 6.15 43.07 0.09 7.12 15.97 11.76
10/22/2022 4:30:00 AM 6.07 42.926 0.093 7.11 16.63 11.79
10/22/2022 4:45:00 AM 6 42.8 0.093 7.12 21.33 11.81
10/22/2022 5:00:00 AM 5.92 42.656 0.089 7.11 21.21 11.86
10/22/2022 5:15:00 AM 5.85 42.53 0.089 7.11 24.72 11.88
10/22/2022 5:30:00 AM 5.77 42.386 0.092 7.11 25.63 11.91
10/22/2022 5:45:00 AM 5.7 42.26 0.091 7.11 22.06 11.94
10/22/2022 6:00:00 AM 5.62 42.116 0.085 7.11 45.59 11.95
10/22/2022 6:15:00 AM 5.55 41.99 0.09 7.11 18 12
10/22/2022 6:30:00 AM 5.48 41.864 0.089 7.11 22.57 12.02
10/22/2022 6:45:00 AM 5.41 41.738 0.09 7.1 20.22 12.05
10/22/2022 7:00:00 AM 5.34 41.612 0.09 7.11 21.05 12.08
10/22/2022 7:15:00 AM 5.27 41.486 0.086 7.1 21.32 12.12
10/22/2022 7:30:00 AM 5.2 41.36 0.092 7.11 26.21 12.14
10/22/2022 7:45:00 AM 5.14 41.252 0.094 7.11 21.94 12.18
10/22/2022 8:00:00 AM 5.08 41.144 0.089 7.11 21.42 12.23
10/22/2022 8:15:00 AM 5.02 41.036 0.095 7.13 21.27 12.32
10/22/2022 8:30:00 AM 4.97 40.946 0.092 7.14 35.41 12.4
10/22/2022 8:45:00 AM 4.93 40.874 0.097 7.15 14.14 12.49
10/22/2022 9:00:00 AM 4.9 40.82 0.092 7.17 14.13 12.57
10/22/2022 9:15:00 AM 4.88 40.784 0.087 7.2 14.02 12.65
10/22/2022 9:30:00 AM 4.89 40.802 0.091 7.21 14.06 12.72
10/22/2022 9:45:00 AM 4.93 40.874 0.091 7.23 40.19 12.8
10/22/2022 10:00:00 AM 4.99 40.982 0.09 7.25 69.04 12.89
10/22/2022 10:15:00 AM 5.09 41.162 0.091 7.28 18.85 12.94
10/22/2022 10:30:00 AM 5.22 41.396 0.093 7.31 15.54 12.95
10/22/2022 10:45:00 AM 5.36 41.648 0.087 7.34 21.95 12.97
10/22/2022 11:00:00 AM 5.52 41.936 0.09 7.37 22.09 12.99
10/22/2022 11:15:00 AM 5.71 42.278 0.089 7.39 25.5 12.99
10/22/2022 11:30:00 AM 5.91 42.638 0.088 7.41 41.26 12.99
10/22/2022 11:45:00 AM 6.13 43.034 0.086 7.44 40.14 12.98
10/22/2022 12:00:00 PM 6.35 43.43 0.089 7.46 49.75 12.94
10/22/2022 12:15:00 PM 6.59 43.862 0.09 7.48 22.58 12.91
10/22/2022 12:30:00 PM 6.85 44.33 0.09 7.51 22.68 12.88
10/22/2022 12:45:00 PM 7.11 44.798 0.083 7.52 25.09 12.81
10/22/2022 1:00:00 PM 7.37 45.266 0.081 7.54 27.22 12.76
10/22/2022 1:15:00 PM 7.67 45.806 0.085 7.57 18.28 12.67
10/22/2022 1:30:00 PM 8 46.4 0.087 7.59 19.43 12.61
10/22/2022 1:45:00 PM 8.37 47.066 0.086 7.6 20.82 12.53
10/22/2022 2:00:00 PM 8.75 47.75 0.084 7.63 18.59 12.42
10/22/2022 2:15:00 PM 9.17 48.506 0.089 7.65 20.59 12.32
10/22/2022 2:30:00 PM 9.6 49.28 0.087 7.67 24.42 12.21
10/22/2022 2:45:00 PM 10.02 50.036 0.087 7.69 24.75 12.1
10/22/2022 3:00:00 PM 10.37 50.666 0.089 7.71 21.64 11.99
10/22/2022 3:15:00 PM 10.64 51.152 0.084 7.72 21.23 11.87
10/22/2022 3:30:00 PM 10.83 51.494 0.087 7.73 20.9 11.77
10/22/2022 3:45:00 PM 10.95 51.71 0.086 7.73 22.9 11.66
10/22/2022 4:00:00 PM 11 51.8 0.087 7.71 21.83 11.56
10/22/2022 4:15:00 PM 10.97 51.746 0.088 7.7 21.85 11.47
10/22/2022 4:30:00 PM 10.92 51.656 0.09 7.67 22.32 11.38
10/22/2022 4:45:00 PM 10.87 51.566 0.09 7.65 22.11 11.33
10/22/2022 5:00:00 PM 10.81 51.458 0.089 7.61 25.43 11.23
10/22/2022 5:15:00 PM 10.73 51.314 0.091 7.58 24.09 11.13
10/22/2022 5:30:00 PM 10.64 51.152 0.089 7.54 23.12 11.06
10/22/2022 5:45:00 PM 10.56 51.008 0.087 7.51 23.3 10.98
10/22/2022 6:00:00 PM 10.48 50.864 0.084 7.48 24.55 10.94
10/22/2022 6:15:00 PM 10.38 50.684 0.09 7.44 23.93 10.88
10/22/2022 6:30:00 PM 10.27 50.486 0.091 7.41 22.97 10.83
10/22/2022 6:45:00 PM 10.15 50.27 0.092 7.39 26.41 10.8
10/22/2022 7:00:00 PM 10.02 50.036 0.087 7.37 24.92 10.77
10/22/2022 7:15:00 PM 9.89 49.802 0.087 7.35 26.13 10.76
10/22/2022 7:30:00 PM 9.77 49.586 0.087 7.33 24.95 10.77
10/22/2022 7:45:00 PM 9.64 49.352 0.093 7.31 23.86 10.77
10/22/2022 8:00:00 PM 9.53 49.154 0.096 7.3 33.69 10.77
10/22/2022 8:15:00 PM 9.42 48.956 0.093 7.29 35.43 10.81
10/22/2022 8:30:00 PM 9.31 48.758 0.097 7.28 26.55 10.82
10/22/2022 8:45:00 PM 9.2 48.56 0.096 7.27 28.04 10.86
10/22/2022 9:00:00 PM 9.11 48.398 0.093 7.26 69.61 10.88
10/22/2022 9:15:00 PM 9.02 48.236 0.095 7.26 63.43 10.88
10/22/2022 9:30:00 PM 8.94 48.092 0.072 7.24 931.08 10.9
10/22/2022 9:45:00 PM 8.87 47.966 0.089 7.24 30.45 10.93
10/22/2022 10:00:00 PM 8.81 47.858 0.092 7.24 20.93 10.93
10/22/2022 10:15:00 PM 8.75 47.75 0.073 7.22 259.32 10.94
10/22/2022 10:30:00 PM 8.69 47.642 0.088 7.21 18.58 10.96
10/22/2022 10:45:00 PM 8.63 47.534 0.085 6.83 19.2 10.99
10/22/2022 11:00:00 PM 8.57 47.426 0.087 6.84 18.77 11.02
10/22/2022 11:15:00 PM 8.5 47.3 0.093 6.86 19.34 11.04
10/22/2022 11:30:00 PM 8.44 47.192 0.09 6.86 18.4 11.05
10/22/2022 11:45:00 PM 8.37 47.066 0.092 7.33 19.24 11.08
10/23/2022 12:00:00 AM 8.31 46.958 0.092 6.8 81 11.09
10/23/2022 12:15:00 AM 8.24 46.832 0.09 7.25 94.19 11.12
10/23/2022 12:30:00 AM 8.17 46.706 0.089 7.22 103.41 11.14
10/23/2022 12:45:00 AM 8.11 46.598 0.089 6.68 105.36 11.17
10/23/2022 1:00:00 AM 8.04 46.472 0.088 7.2 110.78 11.2
10/23/2022 1:15:00 AM 7.96 46.328 0.086 6.59 149.23 11.22
10/23/2022 1:30:00 AM 7.9 46.22 0.09 7.02 170.64 11.24
10/23/2022 1:45:00 AM 7.82 46.076 0.093 7.07 175.33 11.25
10/23/2022 2:00:00 AM 7.75 45.95 0.093 7.13 183.97 11.28
10/23/2022 2:15:00 AM 7.68 45.824 0.092 6.74 169.19 11.31
10/23/2022 2:30:00 AM 7.6 45.68 0.09 7.23 171.45 11.34
10/23/2022 2:45:00 AM 7.53 45.554 0.088 7.1 174 11.37
10/23/2022 3:00:00 AM 7.45 45.41 0.09 7.26 174.92 11.4
10/23/2022 3:15:00 AM 7.38 45.284 0.086 7.14 171.04 11.42
10/23/2022 3:30:00 AM 7.3 45.14 0.089 6.77 168.77 11.44
10/23/2022 3:45:00 AM 7.22 44.996 0.087 6.78 169.51 11.47
10/23/2022 4:00:00 AM 7.14 44.852 0.093 6.77 178.21 11.49
10/23/2022 4:15:00 AM 7.06 44.708 0.089 7.23 185.16 11.53
10/23/2022 4:30:00 AM 6.98 44.564 0.09 7.15 187.32 11.56
10/23/2022 4:45:00 AM 6.9 44.42 0.091 6.87 198.58 11.59
10/23/2022 5:00:00 AM 6.83 44.294 0.089 6.88 189.25 11.62
10/23/2022 5:15:00 AM 6.75 44.15 0.09 7.14 191.07 11.64
10/23/2022 5:30:00 AM 6.67 44.006 0.088 6.96 190.31 11.67
10/23/2022 5:45:00 AM 6.58 43.844 0.091 7.12 53.75 11.7
10/23/2022 6:00:00 AM 6.5 43.7 0.091 7.08 53.03 11.73
10/23/2022 6:15:00 AM 6.42 43.556 0.092 7.14 49.98 11.76
10/23/2022 6:30:00 AM 6.34 43.412 0.093 6.94 47.53 11.79
10/23/2022 6:45:00 AM 6.27 43.286 0.09 7.14 47.39 11.82
10/23/2022 7:00:00 AM 6.2 43.16 0.089 7.23 46.78 11.85
10/23/2022 7:15:00 AM 6.13 43.034 0.089 7.11 46.45 11.88
10/23/2022 7:30:00 AM 6.07 42.926 0.087 7.1 48.32 11.87
10/23/2022 7:45:00 AM 6.02 42.836 0.091 7.19 47.7 11.94
10/23/2022 8:00:00 AM 5.96 42.728 0.09 6.79 46.27 11.99
10/23/2022 8:15:00 AM 5.91 42.638 0.088 6.93 46.42 12.04
10/23/2022 8:30:00 AM 5.86 42.548 0.092 6.82 46.94 12.14
10/23/2022 8:45:00 AM 5.83 42.494 0.092 6.84 46.41 12.25
10/23/2022 9:00:00 AM 5.81 42.458 0.088 6.91 47.1 12.39
10/23/2022 9:15:00 AM 5.79 42.422 0.095 6.94 36.1 12.49
10/23/2022 9:30:00 AM 5.77 42.386 0.089 7.26 36.58 12.62
10/23/2022 9:45:00 AM 5.77 42.386 0.09 7.24 36.42 12.7
10/23/2022 10:00:00 AM 5.81 42.458 0.089 6.93 36.41 12.78
10/23/2022 10:15:00 AM 5.87 42.566 0.088 7.22 50.97 12.85
10/23/2022 10:30:00 AM 5.95 42.71 0.09 7.18 72.4 12.9
10/23/2022 10:45:00 AM 6.06 42.908 0.088 7.39 52.92 12.95
10/23/2022 11:00:00 AM 6.19 43.142 0.084 7.47 58.88 12.98
10/23/2022 11:15:00 AM 6.33 43.394 0.089 7.36 61.39 12.97
10/23/2022 11:30:00 AM 6.51 43.718 0.09 7.28 59.13 12.96
10/23/2022 11:45:00 AM 6.72 44.096 0.088 7.12 55.72 12.95
10/23/2022 12:00:00 PM 6.91 44.438 0.09 7.51 54.03 12.93
10/23/2022 12:15:00 PM 7.14 44.852 0.088 7.53 55.02 12.89
10/23/2022 12:30:00 PM 7.39 45.302 0.085 7.56 52.53 12.85
10/23/2022 12:45:00 PM 7.61 45.698 0.085 7.28 49.84 12.82
10/23/2022 1:00:00 PM 7.82 46.076 0.09 7.6 49.11 12.75
10/23/2022 1:15:00 PM 8.11 46.598 0.085 7.67 48.5 12.71
10/23/2022 1:30:00 PM 8.44 47.192 0.086 7.68 48.38 12.63
10/23/2022 1:45:00 PM 8.83 47.894 0.085 7.37 47.7 12.55
10/23/2022 2:00:00 PM 9.21 48.578 0.088 7.48 47.69 12.46
10/23/2022 2:15:00 PM 9.6 49.28 0.086 7.38 46.88 12.35
10/23/2022 2:30:00 PM 9.99 49.982 0.087 7.55 48.29 12.24
10/23/2022 2:45:00 PM 10.38 50.684 0.089 7.43 45.87 12.15
10/23/2022 3:00:00 PM 10.73 51.314 0.088 7.79 49.09 12.04
10/23/2022 3:15:00 PM 11 51.8 0.087 7.58 47.79 11.93
10/23/2022 3:30:00 PM 11.19 52.142 0.084 7.46 47.54 11.83
10/23/2022 3:45:00 PM 11.32 52.376 0.084 7.69 47.24 11.76
10/23/2022 4:00:00 PM 11.39 52.502 0.089 7.49 47.47 11.7
10/23/2022 4:15:00 PM 11.39 52.502 0.087 7.53 30.76 11.65
10/23/2022 4:30:00 PM 11.34 52.412 0.089 7.87 33.36 11.58
10/23/2022 4:45:00 PM 11.27 52.286 0.089 7.39 34.34 11.5
10/23/2022 5:00:00 PM 11.2 52.16 0.085 7.8 35.24 11.38
10/23/2022 5:15:00 PM 11.13 52.034 0.083 7.73 34.22 11.28
10/23/2022 5:30:00 PM 11.08 51.944 0.085 7.28 34.05 11.2
10/23/2022 5:45:00 PM 11.03 51.854 0.087 7.59 34.98 11.09
10/23/2022 6:00:00 PM 10.97 51.746 0.091 7.54 35.37 10.97
10/23/2022 6:15:00 PM 10.9 51.62 0.087 7.51 35.96 10.87
10/23/2022 6:30:00 PM 10.81 51.458 0.088 7.51 34.5 10.8
10/23/2022 6:45:00 PM 10.71 51.278 0.092 7.45 34.57 10.74
10/23/2022 7:00:00 PM 10.6 51.08 0.087 7.51 32.34 10.69
10/23/2022 7:15:00 PM 10.47 50.846 0.086 7.38 32.73 10.66
10/23/2022 7:30:00 PM 10.34 50.612 0.089 7.38 32.06 10.66
10/23/2022 7:45:00 PM 10.21 50.378 0.09 7.38 32.44 10.67
10/23/2022 8:00:00 PM 10.09 50.162 0.091 7.33 32.16 10.66
10/23/2022 8:15:00 PM 9.97 49.946 0.091 7.24 31.06 10.69
10/23/2022 8:30:00 PM 9.86 49.748 0.091 6.9 31.07 10.71
10/23/2022 8:45:00 PM 9.75 49.55 0.091 6.87 38.17 10.73
10/23/2022 9:00:00 PM 9.66 49.388 0.096 6.81 37.43 10.74
10/23/2022 9:15:00 PM 9.6 49.28 0.095 6.93 37.21 10.76
10/23/2022 9:30:00 PM 9.55 49.19 0.093 7.15 37.32 10.76
10/23/2022 9:45:00 PM 9.49 49.082 0.094 7.26 37.05 10.77
10/23/2022 10:00:00 PM 9.44 48.992 0.094 7.26 37.54 10.78
10/23/2022 10:15:00 PM 9.38 48.884 0.09 6.86 37.12 10.8
10/23/2022 10:30:00 PM 9.33 48.794 0.09 7.25 37 10.8
10/23/2022 10:45:00 PM 9.28 48.704 0.087 7.2 37.31 10.82
10/23/2022 11:00:00 PM 9.24 48.632 0.086 7.22 40.12 10.83
10/23/2022 11:15:00 PM 9.2 48.56 0.09 7.28 43.93 10.84
10/23/2022 11:30:00 PM 9.16 48.488 0.087 7.23 45.33 10.85
10/23/2022 11:45:00 PM 9.11 48.398 0.089 7.32 45.05 10.86
10/24/2022 12:00:00 AM 9.06 48.308 0.092 7.22 44.8 10.87
10/24/2022 12:15:00 AM 9.01 48.218 0.095 7.21 44.89 10.89
10/24/2022 12:30:00 AM 8.96 48.128 0.089 7.21 44.7 10.89
10/24/2022 12:45:00 AM 8.91 48.038 0.087 7.07 45.13 10.93
10/24/2022 1:00:00 AM 8.86 47.948 0.095 7.2 45.05 10.93
10/24/2022 1:15:00 AM 8.81 47.858 0.089 7.23 44.85 10.93
10/24/2022 1:30:00 AM 8.76 47.768 0.086 6.98 44.86 10.95
10/24/2022 1:45:00 AM 8.71 47.678 0.089 7.04 45.12 10.97
10/24/2022 2:00:00 AM 8.66 47.588 0.096 7 45.91 10.99
10/24/2022 2:15:00 AM 8.61 47.498 0.097 7.01 45.55 11.01
10/24/2022 2:30:00 AM 8.56 47.408 0.089 7.01 45.38 11.02
10/24/2022 2:45:00 AM 8.51 47.318 0.088 7.01 46.46 11.05
10/24/2022 3:00:00 AM 8.46 47.228 0.092 7.02 46.55 11.07
10/24/2022 3:15:00 AM 8.4 47.12 0.089 7.2 46.64 11.1
10/24/2022 3:30:00 AM 8.35 47.03 0.095 6.94 46.28 11.12
10/24/2022 3:45:00 AM 8.31 46.958 0.094 7 46.34 11.13
10/24/2022 4:00:00 AM 8.26 46.868 0.091 6.98 49.05 11.15
10/24/2022 4:15:00 AM 8.21 46.778 0.097 7.1 48.38 11.17
10/24/2022 4:30:00 AM 8.16 46.688 0.091 7.17 48.17 11.17
10/24/2022 4:45:00 AM 8.1 46.58 0.088 6.92 48.27 11.2
10/24/2022 5:00:00 AM 8.05 46.49 0.091 6.97 48.37 11.21
10/24/2022 5:15:00 AM 8.01 46.418 0.088 7.16 48.39 11.23
10/24/2022 5:30:00 AM 7.97 46.346 0.094 7.11 47.98 11.25
10/24/2022 5:45:00 AM 7.93 46.274 0.092 7.2 48 11.27
10/24/2022 6:00:00 AM 7.9 46.22 0.09 7.18 47.4 11.28
10/24/2022 6:15:00 AM 7.85 46.13 0.093 6.98 46.7 11.3
10/24/2022 6:30:00 AM 7.8 46.04 0.089 6.99 46.19 11.32
10/24/2022 6:45:00 AM 7.75 45.95 0.093 7 46.73 11.34
10/24/2022 7:00:00 AM 7.69 45.842 0.09 6.99 46.62 11.35
10/24/2022 7:15:00 AM 7.63 45.734 0.092 6.87 52.6 11.37
10/24/2022 7:30:00 AM 7.59 45.662 0.092 7.01 50.91 11.37
10/24/2022 7:45:00 AM 7.53 45.554 0.091 7.02 55.49 11.42
10/24/2022 8:00:00 AM 7.49 45.482 0.081 7.18 57.29 11.47
10/24/2022 8:15:00 AM 7.45 45.41 0.09 7.17 57.16 11.54
10/24/2022 8:30:00 AM 7.42 45.356 0.084 7.04 64.07 11.63
10/24/2022 8:45:00 AM 7.4 45.32 0.09 7.22 64.21 11.72
10/24/2022 9:00:00 AM 7.4 45.32 0.091 7.26 63.38 11.84
10/24/2022 9:15:00 AM 7.44 45.392 0.102 7.26 62.07 11.98
10/24/2022 9:30:00 AM 7.48 45.464 0.088 7.31 61.6 12.08
10/24/2022 9:45:00 AM 7.53 45.554 0.084 7.31 61.96 12.14
10/24/2022 10:00:00 AM 7.58 45.644 0.094 7.3 60.44 12.18
10/24/2022 10:15:00 AM 7.68 45.824 0.087 7.22 60.47 12.23
10/24/2022 10:30:00 AM 7.81 46.058 0.086 7.02 59.15 12.28
10/24/2022 10:45:00 AM 7.96 46.328 0.09 7.28 59.15 12.31
10/24/2022 11:00:00 AM 8.14 46.652 0.092 7.4 62.4 12.33
10/24/2022 11:15:00 AM 8.35 47.03 0.086 7.49 61.71 12.32
10/24/2022 11:30:00 AM 8.56 47.408 0.087 7.51 64.37 12.32
10/24/2022 11:45:00 AM 8.8 47.84 0.081 7.56 64.25 12.3
10/24/2022 12:00:00 PM 9.05 48.29 0.087 7.62 65.93 12.29
10/24/2022 12:15:00 PM 9.31 48.758 0.086 7.56 64.61 12.24
10/24/2022 12:30:00 PM 9.56 49.208 0.081 7.45 65.08 12.21
10/24/2022 12:45:00 PM 9.81 49.658 0.084 7.73 64.14 12.18
10/24/2022 1:00:00 PM 10.04 50.072 0.091 7.66 66.28 12.12
10/24/2022 1:15:00 PM 10.29 50.522 0.086 7.68 65.98 12.07
10/24/2022 1:30:00 PM 10.58 51.044 0.085 7.75 67.29 12
10/24/2022 1:45:00 PM 10.9 51.62 0.09 7.48 65.62 11.94
10/24/2022 2:00:00 PM 11.24 52.232 0.085 7.45 65.3 11.85
10/24/2022 2:15:00 PM 11.6 52.88 0.088 7.84 64.33 11.78
10/24/2022 2:30:00 PM 12.01 53.618 0.08 7.63 64.88 11.69
10/24/2022 2:45:00 PM 12.42 54.356 0.085 7.46 64.37 11.59
10/24/2022 3:00:00 PM 12.78 55.004 0.084 7.92 67.66 11.48
10/24/2022 3:15:00 PM 13.05 55.49 0.092 7.46 66.97 11.35
10/24/2022 3:30:00 PM 13.27 55.886 0.089 7.92 66.85 11.25
10/24/2022 3:45:00 PM 13.43 56.174 0.088 7.36 67.12 11.14
10/24/2022 4:00:00 PM 13.5 56.3 0.086 7.4 67.7 11.03
10/24/2022 4:15:00 PM 13.48 56.264 0.087 7.8 68.83 10.91
10/24/2022 4:30:00 PM 13.42 56.156 0.086 7.85 67.41 10.82
10/24/2022 4:45:00 PM 13.37 56.066 0.07 7.82 67.18 10.74
10/24/2022 5:00:00 PM 13.34 56.012 0.092 7.26 67.9 10.65
10/24/2022 5:15:00 PM 13.28 55.904 0.093 7.21 68.14 10.52
10/24/2022 5:30:00 PM 13.2 55.76 0.089 7.65 67.36 10.39
10/24/2022 5:45:00 PM 13.12 55.616 0.089 7.58 67.16 10.29
10/24/2022 6:00:00 PM 13.06 55.508 0.091 6.95 67.21 10.16
10/24/2022 6:15:00 PM 13 55.4 0.092 7.51 66.81 10.11
10/24/2022 6:30:00 PM 12.93 55.274 0.069 7.46 65.55 10.05
10/24/2022 6:45:00 PM 12.85 55.13 0.086 7.48 67.82 9.98
10/24/2022 7:00:00 PM 12.75 54.95 0.091 7.36 69.76 9.95
10/24/2022 7:15:00 PM 12.65 54.77 0.087 7.35 68.35 9.93
10/24/2022 7:30:00 PM 12.54 54.572 0.085 7.37 65.32 9.94
10/24/2022 7:45:00 PM 12.43 54.374 0.084 7.37 65.93 9.94
10/24/2022 8:00:00 PM 12.31 54.158 0.073 6.99 66.03 9.94
10/24/2022 8:15:00 PM 12.2 53.96 0.079 6.81 62.76 9.97
10/24/2022 8:30:00 PM 12.08 53.744 0.091 7.3 63.99 9.98
10/24/2022 8:45:00 PM 11.98 53.564 0.093 7.28 63.3 9.99
10/24/2022 9:00:00 PM 11.87 53.366 0.088 7.35 62.74 10.02
10/24/2022 9:15:00 PM 11.78 53.204 0.089 6.87 63.98 10.03
10/24/2022 9:30:00 PM 11.7 53.06 0.085 6.78 64.86 10.05
10/24/2022 9:45:00 PM 11.62 52.916 0.086 7.25 64.06 10.07
10/24/2022 10:00:00 PM 11.56 52.808 0.072 6.98 64.61 10.08
10/24/2022 10:15:00 PM 11.49 52.682 0.082 7.27 64.8 10.08
10/24/2022 10:30:00 PM 11.42 52.556 0.086 7.31 61.98 10.11
10/24/2022 10:45:00 PM 11.37 52.466 0.089 7.15 62.78 10.12
10/24/2022 11:00:00 PM 11.31 52.358 0.087 7.22 62.39 10.16
10/24/2022 11:15:00 PM 11.26 52.268 0.091 7.19 69.99 10.16
10/24/2022 11:30:00 PM 11.21 52.178 0.086 7.22 67.77 10.19
10/24/2022 11:45:00 PM 11.15 52.07 0.091 7.21 66.15 10.2
10/25/2022 12:00:00 AM 11.09 51.962 0.095 7.27 65.48 10.21
10/25/2022 12:15:00 AM 11.04 51.872 0.087 6.49 65.52 10.22
10/25/2022 12:30:00 AM 11 51.8 0.09 7.25 65.33 10.24
10/25/2022 12:45:00 AM 10.97 51.746 0.091 7.28 64.87 10.25
10/25/2022 1:00:00 AM 10.95 51.71 0.089 7.19 65.08 10.27
10/25/2022 1:15:00 AM 10.93 51.674 0.09 6.48 65.57 10.28
10/25/2022 1:30:00 AM 10.92 51.656 0.09 7.04 60.07 10.29
10/25/2022 1:45:00 AM 10.9 51.62 0.089 7.19 59.54 10.3
10/25/2022 2:00:00 AM 10.88 51.584 0.088 7 58.93 10.31
10/25/2022 2:15:00 AM 10.87 51.566 0.093 6.63 58.53 10.31
10/25/2022 2:30:00 AM 10.86 51.548 0.084 7.18 59.96 10.31
10/25/2022 2:45:00 AM 10.84 51.512 0.092 6.75 58.54 10.33
10/25/2022 3:00:00 AM 10.83 51.494 0.092 6.81 58.69 10.33
10/25/2022 3:15:00 AM 10.82 51.476 0.094 7.31 58.62 10.33
10/25/2022 3:30:00 AM 10.81 51.458 0.097 7.24 58.41 10.34
10/25/2022 3:45:00 AM 10.8 51.44 0.091 7.29 57.86 10.34
10/25/2022 4:00:00 AM 10.79 51.422 0.09 7.23 57.23 10.35
10/25/2022 4:15:00 AM 10.79 51.422 0.091 7.22 57.32 10.35
10/25/2022 4:30:00 AM 10.78 51.404 0.097 7.26 57.63 10.35
10/25/2022 4:45:00 AM 10.77 51.386 0.091 7.04 61.76 10.35
10/25/2022 5:00:00 AM 10.77 51.386 0.095 6.82 61.9 10.35
10/25/2022 5:15:00 AM 10.76 51.368 0.092 7.17 65.01 10.35
10/25/2022 5:30:00 AM 10.75 51.35 0.09 7.21 63.73 10.35
10/25/2022 5:45:00 AM 10.74 51.332 0.09 7.14 63.37 10.36
10/25/2022 6:00:00 AM 10.74 51.332 0.09 7.2 63.05 10.37
10/25/2022 6:15:00 AM 10.73 51.314 0.099 7.27 63.27 10.37
10/25/2022 6:30:00 AM 10.72 51.296 0.089 7.02 71.95 10.37
10/25/2022 6:45:00 AM 10.71 51.278 0.09 7.17 72.23 10.38
10/25/2022 7:00:00 AM 10.7 51.26 0.093 6.96 73.27 10.38
10/25/2022 7:15:00 AM 10.69 51.242 0.085 7.13 73.66 10.38
10/25/2022 7:30:00 AM 10.68 51.224 0.089 7.1 75.28 10.39
10/25/2022 7:45:00 AM 10.67 51.206 0.094 7.21 74.83 10.39
10/25/2022 8:00:00 AM 10.66 51.188 0.095 7.17 74.61 10.42
10/25/2022 8:15:00 AM 10.66 51.188 0.093 7.17 74.82 10.46
10/25/2022 8:30:00 AM 10.66 51.188 0.087 7.25 190.68 10.54
10/25/2022 8:45:00 AM 10.68 51.224 0.086 7.18 184 10.66
10/25/2022 9:00:00 AM 10.71 51.278 0.091 6.89 183.95 10.8
10/25/2022 9:15:00 AM 10.75 51.35 0.088 7.06 195.83 10.93
10/25/2022 9:30:00 AM 10.8 51.44 0.09 7.39 192.7 11.06
10/25/2022 9:45:00 AM 10.86 51.548 0.095 6.95 193.5 11.18
10/25/2022 10:00:00 AM 10.93 51.674 0.093 7.01 195.2 11.28
10/25/2022 10:15:00 AM 11.01 51.818 0.097 7.26 160.83 11.36
10/25/2022 10:30:00 AM 11.1 51.98 0.087 7.05 120.74 11.44
10/25/2022 10:45:00 AM 11.2 52.16 0.084 7.48 118.9 11.51
10/25/2022 11:00:00 AM 11.33 52.394 0.087 7.55 121.67 11.56
10/25/2022 11:15:00 AM 11.46 52.628 0.096 7.3 117.11 11.61
10/25/2022 11:30:00 AM 11.62 52.916 0.087 7.33 185.93 11.62
10/25/2022 11:45:00 AM 11.77 53.186 0.091 7.28 195.37 11.59
10/25/2022 12:00:00 PM 12.01 53.618 0.09 7.83 189.28 11.57
10/25/2022 12:15:00 PM 12.28 54.104 0.09 7.85 193.58 11.54
10/25/2022 12:30:00 PM 12.51 54.518 0.086 7.49 214.76 11.48
10/25/2022 12:45:00 PM 12.74 54.932 0.089 7.89 201.89 11.45
10/25/2022 1:00:00 PM 12.96 55.328 0.088 7.51 215.31 11.41
10/25/2022 1:15:00 PM 13.19 55.742 0.087 7.47 206.85 11.34
10/25/2022 1:30:00 PM 13.48 56.264 0.088 7.91 2108.5 11.27
10/25/2022 1:45:00 PM 13.8 56.84 0.091 7.87 16.2 11.2
10/25/2022 2:00:00 PM 14.18 57.524 0.087 7.96 16.57 11.14
10/25/2022 2:15:00 PM 14.51 58.118 0.086 7.98 18.76 11.06
10/25/2022 2:30:00 PM 14.87 58.766 0.089 8.03 75.5 11
10/25/2022 2:45:00 PM 15.2 59.36 0.085 7.54 44.73 10.88
10/25/2022 3:00:00 PM 15.48 59.864 0.087 8.13 115 10.81
10/25/2022 3:15:00 PM 15.7 60.26 0.088 8.19 116.28 10.71
10/25/2022 3:30:00 PM 15.83 60.494 0.088 7.79 118.35 10.63
10/25/2022 3:45:00 PM 15.9 60.62 0.086 8.15 114.75 10.5
10/25/2022 4:00:00 PM 15.9 60.62 0.085 7.62 112.98 10.39
10/25/2022 4:15:00 PM 15.83 60.494 0.085 7.57 108.81 10.27
10/25/2022 4:30:00 PM 15.72 60.296 0.09 7.41 103.84 10.11
10/25/2022 4:45:00 PM 15.59 60.062 0.069 7.34 98.87 10.03
10/25/2022 5:00:00 PM 15.48 59.864 0.083 7.77 90.29 9.96
10/25/2022 5:15:00 PM 15.36 59.648 0.092 7.27 89.09 9.85
10/25/2022 5:30:00 PM 15.25 59.45 0.084 7.62 81.45 9.73
10/25/2022 5:45:00 PM 15.16 59.288 0.089 7.51 76.2 9.61
10/25/2022 6:00:00 PM 15.07 59.126 0.09 6.97 68.88 9.53
10/25/2022 6:15:00 PM 14.99 58.982 0.088 7.4 71.73 9.44
10/25/2022 6:30:00 PM 14.89 58.802 0.089 7.4 67.78 9.38
10/25/2022 6:45:00 PM 14.78 58.604 0.092 7.4 71.02 9.34
10/25/2022 7:00:00 PM 14.67 58.406 0.087 7.35 69.07 9.29
10/25/2022 7:15:00 PM 14.54 58.172 0.096 6.94 69.84 9.28
10/25/2022 7:30:00 PM 14.41 57.938 0.092 7.32 68.93 9.29
10/25/2022 7:45:00 PM 14.27 57.686 0.086 7.29 67.14 9.3
10/25/2022 8:00:00 PM 14.14 57.452 0.088 7.28 66.65 9.32
10/25/2022 8:15:00 PM 14 57.2 0.087 7.3 67.53 9.34
10/25/2022 8:30:00 PM 13.87 56.966 0.089 7.28 67.83 9.35
10/25/2022 8:45:00 PM 13.74 56.732 0.09 7.33 68.51 9.39
10/25/2022 9:00:00 PM 13.61 56.498 0.087 7.06 69.14 9.42
10/25/2022 9:15:00 PM 13.51 56.318 0.09 7.28 68.07 9.44
10/25/2022 9:30:00 PM 13.42 56.156 0.091 7.28 67.61 9.47
10/25/2022 9:45:00 PM 13.36 56.048 0.089 7.23 67.66 9.48
10/25/2022 10:00:00 PM 13.3 55.94 0.088 7.25 68.26 9.5
10/25/2022 10:15:00 PM 13.26 55.868 0.084 7.2 63.75 9.52
10/25/2022 10:30:00 PM 13.22 55.796 0.088 7.21 63.34 9.53
10/25/2022 10:45:00 PM 13.18 55.724 0.085 7.2 61.82 9.54
10/25/2022 11:00:00 PM 13.13 55.634 0.091 7.19 61.35 9.54
10/25/2022 11:15:00 PM 13.09 55.562 0.092 7.21 62.2 9.57
10/25/2022 11:30:00 PM 13.04 55.472 0.088 7.2 62.01 9.57
10/25/2022 11:45:00 PM 12.99 55.382 0.088 7.27 64.44 9.58
10/26/2022 12:00:00 AM 12.94 55.292 0.088 7.2 60.22 9.59
10/26/2022 12:15:00 AM 12.89 55.202 0.093 7.2 60.61 9.61
10/26/2022 12:30:00 AM 12.84 55.112 0.088 7.2 61.42 9.62
10/26/2022 12:45:00 AM 12.8 55.04 0.089 7.21 63.04 9.64
10/26/2022 1:00:00 AM 12.75 54.95 0.087 7.21 64.44 9.65
10/26/2022 1:15:00 AM 12.69 54.842 0.091 7.15 66.05 9.66
10/26/2022 1:30:00 AM 12.64 54.752 0.093 6.58 65.79 9.66
10/26/2022 1:45:00 AM 12.58 54.644 0.085 7.21 66.73 9.69
10/26/2022 2:00:00 AM 12.53 54.554 0.087 7.2 68.33 9.7
10/26/2022 2:15:00 AM 12.47 54.446 0.092 7.23 69.74 9.72
10/26/2022 2:30:00 AM 12.41 54.338 0.094 7.18 67.54 9.73
10/26/2022 2:45:00 AM 12.33 54.194 0.089 7.19 68.59 9.75
10/26/2022 3:00:00 AM 12.24 54.032 0.088 7.1 67.54 9.77
10/26/2022 3:15:00 AM 12.15 53.87 0.094 7.22 65.82 9.78
10/26/2022 3:30:00 AM 12.05 53.69 0.09 6.71 67.43 9.81
10/26/2022 3:45:00 AM 11.95 53.51 0.087 7.14 62.88 9.85
10/26/2022 4:00:00 AM 11.87 53.366 0.085 7.15 61.71 9.84
10/26/2022 4:15:00 AM 11.8 53.24 0.091 7.04 63.18 9.86
10/26/2022 4:30:00 AM 11.72 53.096 0.092 7.1 61.38 9.9
10/26/2022 4:45:00 AM 11.65 52.97 0.093 7.12 62.79 9.93
10/26/2022 5:00:00 AM 11.58 52.844 0.089 6.62 62.53 9.94
10/26/2022 5:15:00 AM 11.5 52.7 0.089 7.11 63.14 9.95
10/26/2022 5:30:00 AM 11.44 52.592 0.091 6.81 62.41 9.98
10/26/2022 5:45:00 AM 11.39 52.502 0.089 7.11 61.47 10.01
10/26/2022 6:00:00 AM 11.35 52.43 0.094 7.13 61.95 10.01
10/26/2022 6:15:00 AM 11.31 52.358 0.093 7.13 61.5 10.03
10/26/2022 6:30:00 AM 11.26 52.268 0.092 6.82 61.38 10.05
10/26/2022 6:45:00 AM 11.22 52.196 0.086 6.79 61.09 10.06
10/26/2022 7:00:00 AM 11.2 52.16 0.087 6.82 61.54 9.99
10/26/2022 7:15:00 AM 11.13 52.034 0.089 7.11 56.37 10.08
10/26/2022 7:30:00 AM 11.09 51.962 0.086 7.22 59.68 10.09
10/26/2022 7:45:00 AM 11.03 51.854 0.09 7.21 69.37 10.12
10/26/2022 8:00:00 AM 10.98 51.764 0.078 6.89 66.75 10.19
10/26/2022 8:15:00 AM 10.96 51.728 0.092 7.24 61.03 10.27
10/26/2022 8:30:00 AM 10.94 51.692 0.099 7.18 59.44 10.38
10/26/2022 8:45:00 AM 10.93 51.674 0.092 7.18 52.11 10.48
10/26/2022 9:00:00 AM 10.94 51.692 0.09 7.22 52.03 10.68
10/26/2022 9:15:00 AM 11.01 51.818 0.092 7.27 52.39 10.84
10/26/2022 9:30:00 AM 11.08 51.944 0.089 7.36 53.42 11.03
10/26/2022 9:45:00 AM 11.15 52.07 0.09 7.37 53.38 11.1
10/26/2022 10:00:00 AM 11.25 52.25 0.086 7.49 53.19 11.24
10/26/2022 10:15:00 AM 11.32 52.376 0.083 7.06 53.73 11.26
10/26/2022 10:30:00 AM 11.36 52.448 0.095 7.31 52.87 11.25
10/26/2022 10:45:00 AM 11.4 52.52 0.091 7.56 52.65 11.23
10/26/2022 11:00:00 AM 11.45 52.61 0.088 7.6 52.48 11.25
10/26/2022 11:15:00 AM 11.68 53.024 0.086 7.5 52.74 11.35
10/26/2022 11:30:00 AM 11.86 53.348 0.085 7.41 53.12 11.39
10/26/2022 11:45:00 AM 12.1 53.78 0.087 7.5 52.71 11.43
10/26/2022 12:00:00 PM 12.25 54.05 0.086 7.71 50.55 11.43
10/26/2022 12:15:00 PM 12.41 54.338 0.085 7.74 52.61 11.41
10/26/2022 12:30:00 PM 12.51 54.518 0.086 7.48 51.89 11.31
10/26/2022 12:45:00 PM 12.53 54.554 0.088 7.47 51.77 11.2
10/26/2022 1:00:00 PM 12.55 54.59 0.083 7.39 51.85 11.08
10/26/2022 1:15:00 PM 12.58 54.644 0.09 7.49 52.03 10.92
10/26/2022 1:30:00 PM 12.65 54.77 0.088 7.68 52.11 10.85
10/26/2022 1:45:00 PM 12.7 54.86 0.087 7.43 51.73 10.81
10/26/2022 2:00:00 PM 12.74 54.932 0.09 7.74 51.41 10.75
10/26/2022 2:15:00 PM 12.77 54.986 0.084 7.35 51.65 10.65
10/26/2022 2:30:00 PM 12.77 54.986 0.089 7.69 51.02 10.56
10/26/2022 2:45:00 PM 12.78 55.004 0.097 7.51 48.88 10.49
10/26/2022 3:00:00 PM 12.8 55.04 0.092 7.53 48.85 10.43
10/26/2022 3:15:00 PM 12.81 55.058 0.114 7.51 49.54 10.38
10/26/2022 3:30:00 PM 12.83 55.094 0.095 7.46 51.13 10.29
10/26/2022 3:45:00 PM 12.85 55.13 0.093 7.3 51.26 10.26
10/26/2022 4:00:00 PM 12.86 55.148 0.095 7.54 51.66 10.25
10/26/2022 4:15:00 PM 12.88 55.184 0.092 7.51 50.91 10.3
10/26/2022 4:30:00 PM 12.88 55.184 0.095 7.5 51.53 10.29
10/26/2022 4:45:00 PM 12.87 55.166 0.089 7.54 51.62 10.27
10/26/2022 5:00:00 PM 12.84 55.112 0.094 7.52 51.52 10.18
10/26/2022 5:15:00 PM 12.82 55.076 0.091 7.5 51.76 10.12
10/26/2022 5:30:00 PM 12.79 55.022 0.092 7.13 52.42 10.05
10/26/2022 5:45:00 PM 12.76 54.968 0.087 6.94 51.23 10.06
10/26/2022 6:00:00 PM 12.71 54.878 0.086 7.39 51.74 10.05
10/26/2022 6:15:00 PM 12.67 54.806 0.087 7.15 45.24 10
10/26/2022 6:30:00 PM 12.61 54.698 0.086 7 45.11 9.97
10/26/2022 6:45:00 PM 12.57 54.626 0.092 7.36 42.61 9.87
10/26/2022 7:00:00 PM 12.53 54.554 0.091 7.37 41.57 9.85
10/26/2022 7:15:00 PM 12.49 54.482 0.089 6.99 60.02 9.84
10/26/2022 7:30:00 PM 12.44 54.392 0.092 7.26 37.51 9.82
10/26/2022 7:45:00 PM 12.4 54.32 0.094 7.07 38.88 9.83
10/26/2022 8:00:00 PM 12.36 54.248 0.091 6.82 38.78 9.82
10/26/2022 8:15:00 PM 12.33 54.194 0.091 6.94 45.11 9.81
10/26/2022 8:30:00 PM 12.3 54.14 0.088 7.02 45.1 9.83
10/26/2022 8:45:00 PM 12.27 54.086 0.093 7.33 44.35 9.8
10/26/2022 9:00:00 PM 12.24 54.032 0.088 7.35 42.46 9.83
10/26/2022 9:15:00 PM 12.22 53.996 0.076 6.93 42.19 9.8
10/26/2022 9:30:00 PM 12.19 53.942 0.086 7.04 42.38 9.8
10/26/2022 9:45:00 PM 12.16 53.888 0.085 7.2 41.77 9.8
10/26/2022 10:00:00 PM 12.12 53.816 0.092 7.11 41.77 9.79
10/26/2022 10:15:00 PM 12.09 53.762 0.092 7.19 39.63 9.81
10/26/2022 10:30:00 PM 12.05 53.69 0.09 7.2 40.54 9.78
10/26/2022 10:45:00 PM 12.03 53.654 0.091 7.21 41.01 9.83
10/26/2022 11:00:00 PM 11.99 53.582 0.09 7.1 41.58 9.85
10/26/2022 11:15:00 PM 11.96 53.528 0.086 7.2 42.2 9.89
10/26/2022 11:30:00 PM 11.92 53.456 0.085 7.22 41.07 9.88
10/26/2022 11:45:00 PM 11.87 53.366 0.093 7.21 40.81 9.88
10/27/2022 12:00:00 AM 11.83 53.294 0.088 7.28 40.39 9.93
10/27/2022 12:15:00 AM 11.8 53.24 0.089 7.21 40.17 9.93
10/27/2022 12:30:00 AM 11.76 53.168 0.092 7.19 40.39 9.93
10/27/2022 12:45:00 AM 11.72 53.096 0.091 7.22 40.75 9.95
10/27/2022 1:00:00 AM 11.68 53.024 0.09 7.21 41.03 9.96
10/27/2022 1:15:00 AM 11.64 52.952 0.089 7.26 41.03 9.97
10/27/2022 1:30:00 AM 11.59 52.862 0.087 7.28 41.25 9.93
10/27/2022 1:45:00 AM 11.55 52.79 0.087 7.25 41.2 9.99
10/27/2022 2:00:00 AM 11.51 52.718 0.09 6.89 41.19 9.97
10/27/2022 2:15:00 AM 11.47 52.646 0.09 7.21 40.04 10.08
10/27/2022 2:30:00 AM 11.43 52.574 0.087 6.98 40.1 10.12
10/27/2022 2:45:00 AM 11.38 52.484 0.088 7.18 40.07 10.12
10/27/2022 3:00:00 AM 11.33 52.394 0.085 6.74 40.16 10.15
10/27/2022 3:15:00 AM 11.29 52.322 0.087 7.16 38.28 10.16
10/27/2022 3:30:00 AM 11.24 52.232 0.09 7.18 38.78 10.18
10/27/2022 3:45:00 AM 11.2 52.16 0.082 7.2 39.87 10.17
10/27/2022 4:00:00 AM 11.16 52.088 0.084 7.17 39.69 10.18
10/27/2022 4:15:00 AM 11.13 52.034 0.085 7.16 39.57 10.2
10/27/2022 4:30:00 AM 11.08 51.944 0.085 7.17 39.99 10.2
10/27/2022 4:45:00 AM 11.03 51.854 0.088 7.18 39.48 10.23
10/27/2022 5:00:00 AM 10.98 51.764 0.091 7.14 39.3 10.29
10/27/2022 5:15:00 AM 10.93 51.674 0.086 7.17 39.48 10.29
10/27/2022 5:30:00 AM 10.86 51.548 0.091 7.16 38.3 10.32
10/27/2022 5:45:00 AM 10.78 51.404 0.092 7.15 38.53 10.33
10/27/2022 6:00:00 AM 10.68 51.224 0.086 7.17 37.87 10.37
10/27/2022 6:15:00 AM 10.58 51.044 0.087 7.14 38.2 10.39
10/27/2022 6:30:00 AM 10.49 50.882 0.086 7.12 37.35 10.4
10/27/2022 6:45:00 AM 10.39 50.702 0.085 7.12 37.28 10.45
10/27/2022 7:00:00 AM 10.3 50.54 0.09 7.15 37.32 10.47
10/27/2022 7:15:00 AM 10.25 50.45 0.092 7.11 37.2 10.49
10/27/2022 7:30:00 AM 10.2 50.36 0.09 7.13 37.52 10.53
10/27/2022 7:45:00 AM 10.17 50.306 0.089 7.13 37.48 10.56
10/27/2022 8:00:00 AM 10.12 50.216 0.086 7.16 37.58 10.61
10/27/2022 8:15:00 AM 10.09 50.162 0.088 7.16 37.68 10.66
10/27/2022 8:30:00 AM 10.04 50.072 0.093 7.17 37.05 10.72
10/27/2022 8:45:00 AM 9.99 49.982 0.088 7.17 35.48 10.87
10/27/2022 9:00:00 AM 9.94 49.892 0.091 7.2 35.66 11.04
10/27/2022 9:15:00 AM 9.9 49.82 0.087 7.22 35.93 11.15
10/27/2022 9:30:00 AM 9.87 49.766 0.086 7.26 36.35 11.29
10/27/2022 9:45:00 AM 9.86 49.748 0.089 7.29 36.99 11.39
10/27/2022 10:00:00 AM 9.87 49.766 0.084 6.8 37.31 11.48
10/27/2022 10:15:00 AM 9.89 49.802 0.087 7.34 37.2 11.5
10/27/2022 10:30:00 AM 9.92 49.856 0.088 7.43 41.88 11.53
10/27/2022 10:45:00 AM 9.99 49.982 0.082 7.44 41.53 11.67
10/27/2022 11:00:00 AM 10.07 50.126 0.081 7.44 40.91 11.72
10/27/2022 11:15:00 AM 10.16 50.288 0.085 7.64 40.64 11.73
10/27/2022 11:30:00 AM 10.3 50.54 0.088 7.51 38.83 11.77
10/27/2022 11:45:00 AM 10.44 50.792 0.087 7.53 38.33 11.79
10/27/2022 12:00:00 PM 10.6 51.08 0.086 7.66 38.42 11.8
10/27/2022 12:15:00 PM 10.76 51.368 0.085 7.59 36.2 11.79
10/27/2022 12:30:00 PM 10.94 51.692 0.083 7.64 36.96 11.77
10/27/2022 12:45:00 PM 11.1 51.98 0.082 7.62 36.95 11.76
10/27/2022 1:00:00 PM 11.26 52.268 0.087 7.64 39.05 11.73
10/27/2022 1:15:00 PM 11.43 52.574 0.083 7.72 39.09 11.71
10/27/2022 1:30:00 PM 11.63 52.934 0.088 7.72 39.22 11.67
10/27/2022 1:45:00 PM 11.87 53.366 0.083 7.85 39.74 11.64
10/27/2022 2:00:00 PM 12.14 53.852 0.085 7.82 40.06 11.6
10/27/2022 2:15:00 PM 12.39 54.302 0.086 7.88 40.43 11.54
10/27/2022 2:30:00 PM 12.67 54.806 0.082 7.91 39.9 11.48
10/27/2022 2:45:00 PM 12.93 55.274 0.086 7.95 40.38 11.42
10/27/2022 3:00:00 PM 13.15 55.67 0.089 7.6 39.67 11.34
10/27/2022 3:15:00 PM 13.3 55.94 0.084 7.67 39.6 11.29
10/27/2022 3:30:00 PM 13.38 56.084 0.089 7.9 37.5 11.21
10/27/2022 3:45:00 PM 13.38 56.084 0.084 7.63 39.79 11.13
10/27/2022 4:00:00 PM 13.32 55.976 0.088 7.58 39.88 11.06
10/27/2022 4:15:00 PM 13.18 55.724 0.084 7.92 39.5 10.98
10/27/2022 4:30:00 PM 13.01 55.418 0.088 7.73 39.64 10.92
10/27/2022 4:45:00 PM 12.86 55.148 0.085 7.52 40.28 10.85
10/27/2022 5:00:00 PM 12.72 54.896 0.085 7.38 39.93 10.78
10/27/2022 5:15:00 PM 12.58 54.644 0.086 7.61 39.64 10.69
10/27/2022 5:30:00 PM 12.44 54.392 0.088 7.61 39.46 10.61
10/27/2022 5:45:00 PM 12.31 54.158 0.084 7.5 39.45 10.53
10/27/2022 6:00:00 PM 12.18 53.924 0.084 7.5 39.66 10.47
10/27/2022 6:15:00 PM 12.04 53.672 0.087 7.43 38.2 10.43
10/27/2022 6:30:00 PM 11.9 53.42 0.086 7.41 38.27 10.37
10/27/2022 6:45:00 PM 11.73 53.114 0.087 7.48 39.76 10.35
10/27/2022 7:00:00 PM 11.58 52.844 0.09 7.4 39.32 10.33
10/27/2022 7:15:00 PM 11.41 52.538 0.091 7.36 39.74 10.35
10/27/2022 7:30:00 PM 11.24 52.232 0.092 7.42 39.44 10.37
10/27/2022 7:45:00 PM 11.07 51.926 0.092 7.38 39.77 10.38
10/27/2022 8:00:00 PM 10.91 51.638 0.092 7.34 39.58 10.41
10/27/2022 8:15:00 PM 10.75 51.35 0.092 7.21 39.48 10.46
10/27/2022 8:30:00 PM 10.6 51.08 0.091 7.33 39.62 10.48
10/27/2022 8:45:00 PM 10.46 50.828 0.088 7.22 39.39 10.51
10/27/2022 9:00:00 PM 10.31 50.558 0.085 7.18 41.2 10.56
10/27/2022 9:15:00 PM 10.18 50.324 0.092 7.23 41.29 10.58
10/27/2022 9:30:00 PM 10.05 50.09 0.092 7.18 41.3 10.61
10/27/2022 9:45:00 PM 9.93 49.874 0.086 7.16 39.61 10.66
10/27/2022 10:00:00 PM 9.82 49.676 0.09 7.2 42.19 10.69
10/27/2022 10:15:00 PM 9.71 49.478 0.087 7.16 41.26 10.72
10/27/2022 10:30:00 PM 9.6 49.28 0.093 6.74 41.57 10.75
10/27/2022 10:45:00 PM 9.49 49.082 0.091 7.14 41.3 10.79
10/27/2022 11:00:00 PM 9.39 48.902 0.089 7.13 41.22 10.83
10/27/2022 11:15:00 PM 9.29 48.722 0.09 7.13 41.29 10.85
10/27/2022 11:30:00 PM 9.18 48.524 0.091 7.14 40.71 10.87
10/27/2022 11:45:00 PM 9.08 48.344 0.091 7.15 40.96 10.91
10/28/2022 12:00:00 AM 8.98 48.164 0.095 7.14 40.95 10.95
10/28/2022 12:15:00 AM 8.88 47.984 0.088 6.65 40.9 10.99
10/28/2022 12:30:00 AM 8.77 47.786 0.092 7.11 39.27 11.02
10/28/2022 12:45:00 AM 8.66 47.588 0.088 7.12 40.31 11.05
10/28/2022 1:00:00 AM 8.56 47.408 0.092 6.89 40.48 11.08
10/28/2022 1:15:00 AM 8.45 47.21 0.093 6.84 40.63 11.11
10/28/2022 1:30:00 AM 8.34 47.012 0.089 7.12 40.5 11.17
10/28/2022 1:45:00 AM 8.24 46.832 0.091 6.98 40.55 11.19
10/28/2022 2:00:00 AM 8.14 46.652 0.089 7.15 40.78 11.22
10/28/2022 2:15:00 AM 8.04 46.472 0.091 6.93 40.68 11.26
10/28/2022 2:30:00 AM 7.95 46.31 0.091 6.95 40.35 11.29
10/28/2022 2:45:00 AM 7.86 46.148 0.092 7.14 40.22 11.34
10/28/2022 3:00:00 AM 7.76 45.968 0.087 6.82 40.54 11.37
10/28/2022 3:15:00 AM 7.66 45.788 0.092 6.96 40.66 11.4
10/28/2022 3:30:00 AM 7.58 45.644 0.091 6.98 40.64 11.43
10/28/2022 3:45:00 AM 7.48 45.464 0.09 6.84 40.76 11.47
10/28/2022 4:00:00 AM 7.39 45.302 0.084 6.84 40.96 11.5
10/28/2022 4:15:00 AM 7.3 45.14 0.092 7.1 40.95 11.54
10/28/2022 4:30:00 AM 7.21 44.978 0.092 6.89 41.05 11.57
10/28/2022 4:45:00 AM 7.12 44.816 0.095 7.21 40.56 11.6
10/28/2022 5:00:00 AM 7.03 44.654 0.092 7.23 40.56 11.62
10/28/2022 5:15:00 AM 6.95 44.51 0.091 6.81 40.62 11.65
10/28/2022 5:30:00 AM 6.86 44.348 0.091 7.11 38.8 11.69
10/28/2022 5:45:00 AM 6.77 44.186 0.088 6.88 40.73 11.72
10/28/2022 6:00:00 AM 6.69 44.042 0.085 7.22 40.82 11.76
10/28/2022 6:15:00 AM 6.6 43.88 0.091 6.91 40.75 11.79
10/28/2022 6:30:00 AM 6.52 43.736 0.093 7.19 41.01 11.79
10/28/2022 6:45:00 AM 6.44 43.592 0.1 7.08 40.95 11.83
10/28/2022 7:00:00 AM 6.35 43.43 0.085 6.82 40.89 11.88
10/28/2022 7:15:00 AM 6.27 43.286 0.089 7.03 41.46 11.92
10/28/2022 7:30:00 AM 6.18 43.124 0.089 7.11 120 11.96
10/28/2022 7:45:00 AM 6.11 42.998 0.087 7.21 121.02 11.98
10/28/2022 8:00:00 AM 6.02 42.836 0.082 7.23 89.06 12.05
10/28/2022 8:15:00 AM 5.96 42.728 0.087 6.98 99.44 12.15
10/28/2022 8:30:00 AM 5.91 42.638 0.087 6.89 99.84 12.26
10/28/2022 8:45:00 AM 5.88 42.584 0.09 6.99 100.03 12.38
10/28/2022 9:00:00 AM 5.85 42.53 0.093 7.24 99.85 12.52
10/28/2022 9:15:00 AM 5.85 42.53 0.089 7.03 100.02 12.64
10/28/2022 9:30:00 AM 5.86 42.548 0.091 7.02 100.11 12.76
10/28/2022 9:45:00 AM 5.89 42.602 0.093 7.2 100.18 12.83
10/28/2022 10:00:00 AM 5.94 42.692 0.09 7.15 100.39 12.91
10/28/2022 10:15:00 AM 6.01 42.818 0.086 7.18 103.26 12.97
10/28/2022 10:30:00 AM 6.1 42.98 0.082 7.39 103.21 13.01
10/28/2022 10:45:00 AM 6.2 43.16 0.087 7.44 104.45 13.03
10/28/2022 11:00:00 AM 6.31 43.358 0.088 7.49 103.78 13.04
10/28/2022 11:15:00 AM 6.46 43.628 0.091 7.24 103.49 13.04
10/28/2022 11:30:00 AM 6.65 43.97 0.093 7.17 103.74 13.02
10/28/2022 11:45:00 AM 6.85 44.33 0.089 7.3 107.55 13
10/28/2022 12:00:00 PM 7.05 44.69 0.089 7.62 107.24 12.96
10/28/2022 12:15:00 PM 7.27 45.086 0.087 7.39 106.89 12.9
10/28/2022 12:30:00 PM 7.5 45.5 0.078 7.46 106.3 12.87
10/28/2022 12:45:00 PM 7.73 45.914 0.092 7.39 108.55 12.79
10/28/2022 1:00:00 PM 7.95 46.31 0.085 7.46 108.32 12.74
10/28/2022 1:15:00 PM 8.19 46.742 0.085 7.43 108.32 12.7
10/28/2022 1:30:00 PM 8.45 47.21 0.09 7.38 108.21 12.62
10/28/2022 1:45:00 PM 8.71 47.678 0.086 7.79 108.22 12.55
10/28/2022 2:00:00 PM 9 48.2 0.084 7.84 108.16 12.48
10/28/2022 2:15:00 PM 9.26 48.668 0.09 7.68 107.99 12.42
10/28/2022 2:30:00 PM 9.47 49.046 0.086 7.77 108.27 12.26
10/28/2022 2:45:00 PM 9.64 49.352 0.091 7.59 107.97 12.22
10/28/2022 3:00:00 PM 9.77 49.586 0.085 7.57 107.93 12.12
10/28/2022 3:15:00 PM 9.89 49.802 0.088 7.85 107.87 12.01
10/28/2022 3:30:00 PM 9.97 49.946 0.088 7.84 107.89 11.93
10/28/2022 3:45:00 PM 10.05 50.09 0.088 7.88 105.32 12.06
10/28/2022 4:00:00 PM 10.11 50.198 0.084 7.86 101.79 12.03
10/28/2022 4:15:00 PM 10.15 50.27 0.093 7.84 101.72 11.96
10/28/2022 4:30:00 PM 10.19 50.342 0.087 7.83 101.89 11.85
10/28/2022 4:45:00 PM 10.22 50.396 0.09 7.79 102.33 11.76
10/28/2022 5:00:00 PM 10.25 50.45 0.087 7.78 102.38 11.68
10/28/2022 5:15:00 PM 10.26 50.468 0.086 7.76 102.42 11.57
10/28/2022 5:30:00 PM 10.25 50.45 0.089 7.56 102.5 11.49
10/28/2022 5:45:00 PM 10.23 50.414 0.087 7.42 102.6 11.47
10/28/2022 6:00:00 PM 10.15 50.27 0.089 7.64 102.67 11.32
10/28/2022 6:15:00 PM 10.05 50.09 0.089 7.59 102.71 11.25
10/28/2022 6:30:00 PM 9.93 49.874 0.09 7.55 102.48 11.12
10/28/2022 6:45:00 PM 9.8 49.64 0.086 7.49 102.95 10.98
10/28/2022 7:00:00 PM 9.66 49.388 0.09 7.46 102.11 10.94
10/28/2022 7:15:00 PM 9.52 49.136 0.092 7.43 102.44 10.93
10/28/2022 7:30:00 PM 9.4 48.92 0.09 7.39 173.64 10.99
10/28/2022 7:45:00 PM 9.24 48.632 0.096 7.36 169.72 11.03
10/28/2022 8:00:00 PM 9.1 48.38 0.092 7.36 141.56 11.06
10/28/2022 8:15:00 PM 8.96 48.128 0.092 7.16 219.55 11
10/28/2022 8:30:00 PM 8.81 47.858 0.096 7.34 183.52 10.95
10/28/2022 8:45:00 PM 8.67 47.606 0.097 7.34 401.98 11.02
10/28/2022 9:00:00 PM 8.55 47.39 0.091 7.29 66.87 11.06
10/28/2022 9:15:00 PM 8.42 47.156 0.097 7.34 54.79 11.1
10/28/2022 9:30:00 PM 8.3 46.94 0.093 7.28 58.05 11.12
10/28/2022 9:45:00 PM 8.19 46.742 0.091 7.29 54.99 11.11
10/28/2022 10:00:00 PM 8.07 46.526 0.094 7.28 55.26 11.15
10/28/2022 10:15:00 PM 7.95 46.31 0.092 7.35 52.86 11.24
10/28/2022 10:30:00 PM 7.84 46.112 0.092 7.21 57.44 11.26
10/28/2022 10:45:00 PM 7.73 45.914 0.092 7.13 55.32 11.3
10/28/2022 11:00:00 PM 7.63 45.734 0.09 7.29 83.13 11.39
10/28/2022 11:15:00 PM 7.52 45.536 0.088 7.22 47.88 11.44
10/28/2022 11:30:00 PM 7.43 45.374 0.083 7.14 48.27 11.49
10/28/2022 11:45:00 PM 7.34 45.212 0.091 6.93 48.03 11.51
10/29/2022 12:00:00 AM 7.24 45.032 0.09 6.52 47.79 11.53
10/29/2022 12:15:00 AM 7.14 44.852 0.093 7.13 46.91 11.57
10/29/2022 12:30:00 AM 7.06 44.708 0.094 6.7 46.6 11.57
10/29/2022 12:45:00 AM 6.96 44.528 0.093 7.12 46.05 11.63
10/29/2022 1:00:00 AM 6.87 44.366 0.091 6.98 42.66 11.66
10/29/2022 1:15:00 AM 6.77 44.186 0.082 7.12 42.6 11.65
10/29/2022 1:30:00 AM 6.69 44.042 0.089 6.7 42.88 11.73
10/29/2022 1:45:00 AM 6.6 43.88 0.093 6.65 42.55 11.74
10/29/2022 2:00:00 AM 6.51 43.718 0.094 6.59 41.95 11.8
10/29/2022 2:15:00 AM 6.42 43.556 0.089 7.2 42.08 11.82
10/29/2022 2:30:00 AM 6.33 43.394 0.092 7.09 42.2 11.84
10/29/2022 2:45:00 AM 6.25 43.25 0.088 7.11 42.41 11.87
10/29/2022 3:00:00 AM 6.16 43.088 0.089 7.21 42.22 11.88
10/29/2022 3:15:00 AM 6.09 42.962 0.091 7.11 42.33 11.94
10/29/2022 3:30:00 AM 6.01 42.818 0.088 6.79 42.55 11.96
10/29/2022 3:45:00 AM 5.92 42.656 0.088 7.19 42.55 11.98
10/29/2022 4:00:00 AM 5.84 42.512 0.09 7.14 42.72 11.98
10/29/2022 4:15:00 AM 5.75 42.35 0.095 7.09 42.48 12.07
10/29/2022 4:30:00 AM 5.68 42.224 0.094 7.04 42.57 12.09
10/29/2022 4:45:00 AM 5.6 42.08 0.09 6.87 42.13 12.14
10/29/2022 5:00:00 AM 5.52 41.936 0.087 7.11 41 12.16
10/29/2022 5:15:00 AM 5.44 41.792 0.09 7.15 41.41 12.18
10/29/2022 5:30:00 AM 5.36 41.648 0.091 7.17 42.08 12.22
10/29/2022 5:45:00 AM 5.28 41.504 0.09 6.8 41.88 12.24
10/29/2022 6:00:00 AM 5.21 41.378 0.092 7.15 41.87 12.27
10/29/2022 6:15:00 AM 5.14 41.252 0.091 6.74 41.84 12.3
10/29/2022 6:30:00 AM 5.06 41.108 0.094 6.73 41.91 12.33
10/29/2022 6:45:00 AM 4.98 40.964 0.094 7.23 41.8 12.37
10/29/2022 7:00:00 AM 4.91 40.838 0.087 6.81 41.75 12.4
10/29/2022 7:15:00 AM 4.84 40.712 0.095 7.07 41.8 12.42
10/29/2022 7:30:00 AM 4.76 40.568 0.091 7.16 41.87 12.46
10/29/2022 7:45:00 AM 4.69 40.442 0.088 6.95 42.16 12.48
10/29/2022 8:00:00 AM 4.62 40.316 0.095 6.78 41.93 12.52
10/29/2022 8:15:00 AM 4.56 40.208 0.093 7.12 41.22 12.6
10/29/2022 8:30:00 AM 4.5 40.1 0.088 6.9 41.99 12.7
10/29/2022 8:45:00 AM 4.44 39.992 0.098 6.84 41.97 12.81
10/29/2022 9:00:00 AM 4.4 39.92 0.096 7.06 41.99 12.92
10/29/2022 9:15:00 AM 4.37 39.866 0.094 7.25 42.05 13
10/29/2022 9:30:00 AM 4.36 39.848 0.093 6.96 42.13 13.09
10/29/2022 9:45:00 AM 4.38 39.884 0.097 6.92 42.12 13.16
10/29/2022 10:00:00 AM 4.42 39.956 0.097 7.22 42.19 13.24
10/29/2022 10:15:00 AM 4.49 40.082 0.094 7.04 42.07 13.29
10/29/2022 10:30:00 AM 4.6 40.28 0.09 7.28 42.17 13.29
10/29/2022 10:45:00 AM 4.72 40.496 0.09 7.06 42.18 13.37
10/29/2022 11:00:00 AM 4.87 40.766 0.096 7.37 41.31 13.37
10/29/2022 11:15:00 AM 5.06 41.108 0.085 7.42 41.98 13.38
10/29/2022 11:30:00 AM 5.27 41.486 0.091 7.4 42.01 13.35
10/29/2022 11:45:00 AM 5.51 41.918 0.086 7.49 41.88 13.33
10/29/2022 12:00:00 PM 5.75 42.35 0.091 7.4 42.13 13.29
10/29/2022 12:15:00 PM 6 42.8 0.093 7.57 42.34 13.25
10/29/2022 12:30:00 PM 6.27 43.286 0.086 7.47 42.09 13.19
10/29/2022 12:45:00 PM 6.52 43.736 0.087 7.59 41.26 13.12
10/29/2022 1:00:00 PM 6.79 44.222 0.091 7.42 41.04 13.08
10/29/2022 1:15:00 PM 7.05 44.69 0.086 7.41 41.61 13.02
10/29/2022 1:30:00 PM 7.32 45.176 0.09 7.46 40.95 12.93
10/29/2022 1:45:00 PM 7.65 45.77 0.091 7.66 41.21 12.85
10/29/2022 2:00:00 PM 7.98 46.364 0.088 7.58 40.98 12.77
10/29/2022 2:15:00 PM 8.32 46.976 0.091 7.6 41.02 12.69
10/29/2022 2:30:00 PM 8.66 47.588 0.087 7.6 40.29 12.57
10/29/2022 2:45:00 PM 9.08 48.344 0.093 7.49 41.06 12.46
10/29/2022 3:00:00 PM 9.41 48.938 0.093 7.71 41.06 12.38
10/29/2022 3:15:00 PM 9.68 49.424 0.09 7.68 40.81 12.27
10/29/2022 3:30:00 PM 9.88 49.784 0.093 7.73 40.58 12.16
10/29/2022 3:45:00 PM 10 50 0.086 7.41 40.86 12.04
10/29/2022 4:00:00 PM 10.05 50.09 0.091 7.69 40.74 11.97
10/29/2022 4:15:00 PM 10.02 50.036 0.089 7.51 41.06 11.9
10/29/2022 4:30:00 PM 9.95 49.91 0.092 7.68 40.89 11.81
10/29/2022 4:45:00 PM 9.85 49.73 0.088 7.66 40.77 11.75
10/29/2022 5:00:00 PM 9.76 49.568 0.088 7 40.88 11.69
10/29/2022 5:15:00 PM 9.65 49.37 0.093 7.57 40.13 11.62
10/29/2022 5:30:00 PM 9.53 49.154 0.09 7.55 40.44 11.51
10/29/2022 5:45:00 PM 9.43 48.974 0.087 7.51 40.82 11.42
10/29/2022 6:00:00 PM 9.33 48.794 0.094 7.39 41.59 11.35
10/29/2022 6:15:00 PM 9.23 48.614 0.094 7.48 41.11 11.28
10/29/2022 6:30:00 PM 9.15 48.47 0.09 7.42 38.7 11.2
10/29/2022 6:45:00 PM 9.05 48.29 0.092 7.38 42.74 11.16
10/29/2022 7:00:00 PM 8.95 48.11 0.091 7.37 42.56 11.14
10/29/2022 7:15:00 PM 8.83 47.894 0.094 7.08 42.27 11.11
10/29/2022 7:30:00 PM 8.7 47.66 0.085 6.99 42.14 11.12
10/29/2022 7:45:00 PM 8.57 47.426 0.09 6.88 41.9 11.17
10/29/2022 8:00:00 PM 8.44 47.192 0.092 7.33 41.85 11.19
10/29/2022 8:15:00 PM 8.3 46.94 0.091 7.33 41.56 11.21
10/29/2022 8:30:00 PM 8.15 46.67 0.09 7.39 41.86 11.26
10/29/2022 8:45:00 PM 8 46.4 0.091 7.31 41.27 11.28
10/29/2022 9:00:00 PM 7.85 46.13 0.093 6.81 41.44 11.32
10/29/2022 9:15:00 PM 7.71 45.878 0.094 7.22 41.36 11.34
10/29/2022 9:30:00 PM 7.57 45.626 0.09 7.31 42.58 11.4
10/29/2022 9:45:00 PM 7.43 45.374 0.088 6.91 42.33 11.45
10/29/2022 10:00:00 PM 7.32 45.176 0.092 7.11 43.01 11.47
10/29/2022 10:15:00 PM 7.21 44.978 0.094 7.12 43.05 11.51
10/29/2022 10:30:00 PM 7.1 44.78 0.092 7.17 42.67 11.55
10/29/2022 10:45:00 PM 7.01 44.618 0.094 6.82 42.84 11.57
10/29/2022 11:00:00 PM 6.92 44.456 0.096 7.22 41.33 11.59
10/29/2022 11:15:00 PM 6.83 44.294 0.091 7.05 42.81 11.62
10/29/2022 11:30:00 PM 6.75 44.15 0.088 7.24 41.93 11.67
10/29/2022 11:45:00 PM 6.66 43.988 0.091 7.22 42.66 11.68
10/30/2022 12:00:00 AM 6.59 43.862 0.093 7.23 42.65 11.72
10/30/2022 12:15:00 AM 6.49 43.682 0.09 7.16 42.75 11.74
10/30/2022 12:30:00 AM 6.41 43.538 0.09 7.13 42.93 11.76
10/30/2022 12:45:00 AM 6.32 43.376 0.09 7.16 42.6 11.79
10/30/2022 1:00:00 AM 6.24 43.232 0.089 6.73 42.9 11.81
10/30/2022 1:15:00 AM 6.15 43.07 0.09 7.16 42.79 11.84
10/30/2022 1:30:00 AM 6.07 42.926 0.09 7.14 42.01 11.87
10/30/2022 1:45:00 AM 5.99 42.782 0.089 7.15 43.26 11.9
10/30/2022 2:00:00 AM 5.9 42.62 0.092 6.69 42.79 11.94
10/30/2022 2:15:00 AM 5.81 42.458 0.093 7.14 43.05 11.96
10/30/2022 2:30:00 AM 5.73 42.314 0.091 6.66 44.7 11.99
10/30/2022 2:45:00 AM 5.65 42.17 0.092 6.86 49.13 12.02
10/30/2022 3:00:00 AM 5.56 42.008 0.087 7.17 47.46 12.02
10/30/2022 3:15:00 AM 5.48 41.864 0.095 6.99 44.56 12.04
10/30/2022 3:30:00 AM 5.4 41.72 0.092 7.06 44.77 12.11
10/30/2022 3:45:00 AM 5.32 41.576 0.09 7.13 44.68 12.14
10/30/2022 4:00:00 AM 5.25 41.45 0.09 7.07 44.48 12.18
10/30/2022 4:15:00 AM 5.17 41.306 0.092 7.11 42.95 12.2
10/30/2022 4:30:00 AM 5.09 41.162 0.095 6.94 44.84 12.23
10/30/2022 4:45:00 AM 5.01 41.018 0.095 7.07 44.52 12.26
10/30/2022 5:00:00 AM 4.92 40.856 0.094 7.08 44.75 12.29
10/30/2022 5:15:00 AM 4.85 40.73 0.095 7.01 45.18 12.33
10/30/2022 5:30:00 AM 4.77 40.586 0.092 6.7 44.85 12.36
10/30/2022 5:45:00 AM 4.69 40.442 0.09 7.14 45.47 12.38
10/30/2022 6:00:00 AM 4.62 40.316 0.091 7.16 45.18 12.41
10/30/2022 6:15:00 AM 4.54 40.172 0.093 7.06 45.17 12.43
10/30/2022 6:30:00 AM 4.48 40.064 0.093 6.87 45.19 12.43
10/30/2022 6:45:00 AM 4.4 39.92 0.094 7.08 45.87 12.49
10/30/2022 7:00:00 AM 4.33 39.794 0.094 7.12 43.41 12.53
10/30/2022 7:15:00 AM 4.26 39.668 0.098 7.15 44.69 12.55
10/30/2022 7:30:00 AM 4.19 39.542 0.093 7.2 45.36 12.59
10/30/2022 7:45:00 AM 4.12 39.416 0.095 7.2 45.02 12.61
10/30/2022 8:00:00 AM 4.06 39.308 0.088 7.12 45.41 12.67
10/30/2022 8:15:00 AM 4 39.2 0.092 6.96 45.64 12.74
10/30/2022 8:30:00 AM 3.94 39.092 0.095 6.8 45.6 12.83
10/30/2022 8:45:00 AM 3.89 39.002 0.093 7.25 45.5 12.93
10/30/2022 9:00:00 AM 3.86 38.948 0.094 7.24 45.6 13.04
10/30/2022 9:15:00 AM 3.83 38.894 0.093 6.9 46.14 13.13
10/30/2022 9:30:00 AM 3.81 38.858 0.094 7.32 45.52 13.22
10/30/2022 9:45:00 AM 3.82 38.876 0.096 7.24 45.44 13.26
10/30/2022 10:00:00 AM 3.85 38.93 0.095 7.33 45.91 13.35
10/30/2022 10:15:00 AM 3.91 39.038 0.095 7.17 45.5 13.4
10/30/2022 10:30:00 AM 4.03 39.254 0.092 7.31 43.62 13.45
10/30/2022 10:45:00 AM 4.18 39.524 0.093 7.1 45.53 13.46
10/30/2022 11:00:00 AM 4.35 39.83 0.092 7.39 46.63 13.47
10/30/2022 11:15:00 AM 4.54 40.172 0.093 7.45 45.49 13.47
10/30/2022 11:30:00 AM 4.74 40.532 0.086 7.42 45.42 13.45
10/30/2022 11:45:00 AM 4.97 40.946 0.088 7.46 45.45 13.42
10/30/2022 12:00:00 PM 5.2 41.36 0.095 7.43 45.26 13.38
10/30/2022 12:15:00 PM 5.45 41.81 0.089 7.17 45.07 13.36
10/30/2022 12:30:00 PM 5.7 42.26 0.085 7.19 45.48 13.27
10/30/2022 12:45:00 PM 5.92 42.656 0.09 7.29 41.39 13.22
10/30/2022 1:00:00 PM 6.22 43.196 0.088 7.36 53.66 13.18
10/30/2022 1:15:00 PM 6.5 43.7 0.093 7.52 49.77 13.13
10/30/2022 1:30:00 PM 6.76 44.168 0.088 7.58 49.88 13.07
10/30/2022 1:45:00 PM 6.95 44.51 0.09 7.67 47.55 12.98
10/30/2022 2:00:00 PM 7.22 44.996 0.091 7.59 46.53 12.91
10/30/2022 2:15:00 PM 7.55 45.59 0.086 7.26 46.47 12.83
10/30/2022 2:30:00 PM 7.91 46.238 0.09 7.62 45.29 12.78
10/30/2022 2:45:00 PM 8.21 46.778 0.086 7.65 44.72 12.64
10/30/2022 3:00:00 PM 8.39 47.102 0.09 7.64 42.9 12.56
10/30/2022 3:15:00 PM 8.5 47.3 0.089 7.68 43.79 12.44
10/30/2022 3:30:00 PM 8.59 47.462 0.087 7.66 43.84 12.37
10/30/2022 3:45:00 PM 8.71 47.678 0.086 7.67 45.13 12.33
10/30/2022 4:00:00 PM 8.79 47.822 0.085 7.39 44.43 12.29
10/30/2022 4:15:00 PM 8.84 47.912 0.086 7.39 44.9 12.13
10/30/2022 4:30:00 PM 8.83 47.894 0.089 7.76 44.63 12.07
10/30/2022 4:45:00 PM 8.79 47.822 0.091 7.75 44.4 12
10/30/2022 5:00:00 PM 8.76 47.768 0.091 7.63 44.25 11.94
10/30/2022 5:15:00 PM 8.74 47.732 0.088 7.6 44.19 11.82
10/30/2022 5:30:00 PM 8.71 47.678 0.09 7.63 44.11 11.79
10/30/2022 5:45:00 PM 8.68 47.624 0.091 7.54 44.26 11.69
10/30/2022 6:00:00 PM 8.65 47.57 0.092 7.33 44.55 11.57
10/30/2022 6:15:00 PM 8.61 47.498 0.097 7.58 44.5 11.36
10/30/2022 6:30:00 PM 8.56 47.408 0.096 7.06 44.42 11.42
10/30/2022 6:45:00 PM 8.51 47.318 0.096 7.41 44.76 11.34
10/30/2022 7:00:00 PM 8.46 47.228 0.097 7.36 44.47 11.27
10/30/2022 7:15:00 PM 8.4 47.12 0.097 7.35 44.79 11.21
10/30/2022 7:30:00 PM 8.34 47.012 0.093 7.34 44.5 11.17
10/30/2022 7:45:00 PM 8.26 46.868 0.097 7.38 44.54 11.14
10/30/2022 8:00:00 PM 8.17 46.706 0.092 7.32 42.64 11.16
10/30/2022 8:15:00 PM 8.06 46.508 0.095 7.31 44.37 11.22
10/30/2022 8:30:00 PM 7.95 46.31 0.093 7.31 56.09 11.23
10/30/2022 8:45:00 PM 7.83 46.094 0.094 7.3 54.35 11.3
10/30/2022 9:00:00 PM 7.73 45.914 0.093 7.29 54.63 11.29
10/30/2022 9:15:00 PM 7.64 45.752 0.095 7.27 55.09 11.28
10/30/2022 9:30:00 PM 7.56 45.608 0.095 7.27 55.73 11.3
10/30/2022 9:45:00 PM 7.48 45.464 0.094 7.27 56.88 11.34
10/30/2022 10:00:00 PM 7.41 45.338 0.092 7.26 55.03 11.39
10/30/2022 10:15:00 PM 7.32 45.176 0.085 7.25 55.73 11.42
10/30/2022 10:30:00 PM 7.25 45.05 0.091 7.24 56.14 11.44
10/30/2022 10:45:00 PM 7.19 44.942 0.089 7.27 56.85 11.45
10/30/2022 11:00:00 PM 7.13 44.834 0.094 7.25 54.28 11.43
10/30/2022 11:15:00 PM 7.08 44.744 0.093 7.22 51.5 11.44
10/30/2022 11:30:00 PM 7.02 44.636 0.093 7.23 51.11 11.43
10/30/2022 11:45:00 PM 6.95 44.51 0.094 7.21 51.81 11.46
10/31/2022 12:00:00 AM 6.89 44.402 0.089 7.23 51.23 11.44
10/31/2022 12:15:00 AM 6.82 44.276 0.091 7.17 52.44 11.49
10/31/2022 12:30:00 AM 6.76 44.168 0.093 7.25 51.55 11.57
10/31/2022 12:45:00 AM 6.7 44.06 0.087 7.21 50.68 11.55
10/31/2022 1:00:00 AM 6.64 43.952 0.092 7.2 51 11.59
10/31/2022 1:15:00 AM 6.56 43.808 0.096 7.17 51.54 11.64
10/31/2022 1:30:00 AM 6.5 43.7 0.095 7.24 51.43 11.66
10/31/2022 1:45:00 AM 6.44 43.592 0.092 7.23 50.18 11.68
10/31/2022 2:00:00 AM 6.38 43.484 0.095 7.22 56.4 11.71
10/31/2022 2:15:00 AM 6.33 43.394 0.091 7.2 55.62 11.72
10/31/2022 2:30:00 AM 6.26 43.268 0.092 7.19 54.72 11.74
10/31/2022 2:45:00 AM 6.2 43.16 0.09 7.2 54.86 11.76
10/31/2022 3:00:00 AM 6.17 43.106 0.085 7.2 55.41 11.75
10/31/2022 3:15:00 AM 6.13 43.034 0.087 7.19 55.7 11.77
10/31/2022 3:30:00 AM 6.1 42.98 0.09 7.09 56.87 11.82
10/31/2022 3:45:00 AM 6.07 42.926 0.086 7.2 58.93 11.82
10/31/2022 4:00:00 AM 6.04 42.872 0.094 7.2 58.11 11.84
10/31/2022 4:15:00 AM 6.01 42.818 0.089 7.21 57.28 11.86
10/31/2022 4:30:00 AM 5.98 42.764 0.09 6.91 57.98 11.85
10/31/2022 4:45:00 AM 5.93 42.674 0.094 7.24 56.92 11.88
10/31/2022 5:00:00 AM 5.89 42.602 0.094 7.18 56.81 11.86
10/31/2022 5:15:00 AM 5.83 42.494 0.093 7.19 56.15 11.87
10/31/2022 5:30:00 AM 5.78 42.404 0.095 7.17 56.61 11.92
10/31/2022 5:45:00 AM 5.73 42.314 0.092 7.27 55.92 11.94
10/31/2022 6:00:00 AM 5.69 42.242 0.091 7.12 55.42 11.96
10/31/2022 6:15:00 AM 5.65 42.17 0.089 7.22 58.14 11.97
10/31/2022 6:30:00 AM 5.64 42.152 0.088 7.14 58.32 11.99
10/31/2022 6:45:00 AM 5.63 42.134 0.092 7.21 58.61 12
10/31/2022 7:00:00 AM 5.63 42.134 0.09 7.14 58.69 12.01
10/31/2022 7:15:00 AM 5.63 42.134 0.093 7.2 57.66 12.01
10/31/2022 7:30:00 AM 5.63 42.134 0.089 7.15 57.65 12
10/31/2022 7:45:00 AM 5.62 42.116 0.091 7.2 57.95 12.03
10/31/2022 8:00:00 AM 5.62 42.116 0.089 7.16 55.85 12.08
10/31/2022 8:15:00 AM 5.62 42.116 0.089 7.19 56.58 12.12
10/31/2022 8:30:00 AM 5.64 42.152 0.089 7.2 56.48 12.17
10/31/2022 8:45:00 AM 5.65 42.17 0.091 7.22 56.27 12.19
10/31/2022 9:00:00 AM 5.68 42.224 0.093 7.25 57.8 12.27
10/31/2022 9:15:00 AM 5.72 42.296 0.091 7.26 57.67 12.38
10/31/2022 9:30:00 AM 5.79 42.422 0.094 7.17 57.79 12.49
10/31/2022 9:45:00 AM 5.84 42.512 0.087 7.34 57.79 12.6
10/31/2022 10:00:00 AM 5.92 42.656 0.09 7.35 57.57 12.7
10/31/2022 10:15:00 AM 6.01 42.818 0.092 7.37 57.83 12.75
10/31/2022 10:30:00 AM 6.09 42.962 0.091 7.37 57.43 12.77
10/31/2022 10:45:00 AM 6.18 43.124 0.093 7.45 57.89 12.8
10/31/2022 11:00:00 AM 6.28 43.304 0.087 7.44 57.72 12.81
10/31/2022 11:15:00 AM 6.43 43.574 0.087 7.46 57.82 12.83
10/31/2022 11:30:00 AM 6.59 43.862 0.092 7.53 57.59 12.85
10/31/2022 11:45:00 AM 6.71 44.078 0.089 7.55 57.59 12.86
10/31/2022 12:00:00 PM 6.84 44.312 0.095 7.52 56.23 12.8
10/31/2022 12:15:00 PM 6.97 44.546 0.09 7.51 57.79 12.8
10/31/2022 12:30:00 PM 7.12 44.816 0.095 7.53 57.7 12.79
10/31/2022 12:45:00 PM 7.28 45.104 0.09 7.34 57.81 12.76
10/31/2022 1:00:00 PM 7.44 45.392 0.083 7.63 57.34 12.73
10/31/2022 1:15:00 PM 7.61 45.698 0.091 7.66 57.09 12.67
10/31/2022 1:30:00 PM 7.75 45.95 0.092 7.63 55.98 12.66
10/31/2022 1:45:00 PM 7.91 46.238 0.086 7.65 55.92 12.6
10/31/2022 2:00:00 PM 8.06 46.508 0.089 7.73 56.9 12.57
10/31/2022 2:15:00 PM 8.19 46.742 0.089 7.71 56.3 12.52
10/31/2022 2:30:00 PM 8.31 46.958 0.089 7.73 56.39 12.46
10/31/2022 2:45:00 PM 8.39 47.102 0.088 7.66 55.39 12.37
10/31/2022 3:00:00 PM 8.46 47.228 0.094 7.66 55.49 12.29
10/31/2022 3:15:00 PM 8.52 47.336 0.09 7.64 55.65 12.21
10/31/2022 3:30:00 PM 8.58 47.444 0.089 7.64 55.69 12.15
10/31/2022 3:45:00 PM 8.64 47.552 0.086 7.62 56.12 12.09
10/31/2022 4:00:00 PM 8.68 47.624 0.089 7.63 56.55 12.03
10/31/2022 4:15:00 PM 8.73 47.714 0.086 7.58 56.46 11.97
10/31/2022 4:30:00 PM 8.77 47.786 0.086 7.57 55.5 11.89
10/31/2022 4:45:00 PM 8.81 47.858 0.093 7.54 55.41 11.82
10/31/2022 5:00:00 PM 8.84 47.912 0.089 7.6 56.13 11.72
10/31/2022 5:15:00 PM 8.85 47.93 0.084 7.45 56.97 11.63
10/31/2022 5:30:00 PM 8.86 47.948 0.088 7.52 57.09 11.55
10/31/2022 5:45:00 PM 8.85 47.93 0.088 7.47 57.12 11.43
10/31/2022 6:00:00 PM 8.84 47.912 0.093 7.42 55.89 11.35
10/31/2022 6:15:00 PM 8.84 47.912 0.094 7.44 57.29 11.24
10/31/2022 6:30:00 PM 8.83 47.894 0.091 7.37 54.98 11.19
10/31/2022 6:45:00 PM 8.83 47.894 0.094 7.35 56.22 11.12
10/31/2022 7:00:00 PM 8.83 47.894 0.093 7.34 55.39 11.07
10/31/2022 7:15:00 PM 8.83 47.894 0.092 7.3 55.74 11.04
10/31/2022 7:30:00 PM 8.82 47.876 0.095 7.29 56.41 11.01
10/31/2022 7:45:00 PM 8.82 47.876 0.094 7.29 57.14 10.96
10/31/2022 8:00:00 PM 8.81 47.858 0.093 7.35 57.31 10.94
10/31/2022 8:15:00 PM 8.81 47.858 0.087 7.26 57.38 10.9
10/31/2022 8:30:00 PM 8.81 47.858 0.094 7.25 57.36 10.91
10/31/2022 8:45:00 PM 8.81 47.858 0.091 7.24 57.43 10.88
10/31/2022 9:00:00 PM 8.81 47.858 0.091 7.29 57.13 10.9
10/31/2022 9:15:00 PM 8.82 47.876 0.097 7.11 57.22 10.89
10/31/2022 9:30:00 PM 8.82 47.876 0.087 7.21 56.2 10.91
10/31/2022 9:45:00 PM 8.83 47.894 0.094 7.23 56.14 10.91
10/31/2022 10:00:00 PM 8.83 47.894 0.09 7.24 56.01 10.9
10/31/2022 10:15:00 PM 8.84 47.912 0.091 7.23 56.94 10.91
10/31/2022 10:30:00 PM 8.84 47.912 0.095 7.3 57.5 10.9
10/31/2022 10:45:00 PM 8.85 47.93 0.091 7.19 56.74 10.9
10/31/2022 11:00:00 PM 8.85 47.93 0.092 7.23 55.94 10.9
10/31/2022 11:15:00 PM 8.86 47.948 0.087 7.2 60.75 10.9
10/31/2022 11:30:00 PM 8.87 47.966 0.098 7.18 62.01 10.9
10/31/2022 11:45:00 PM 8.88 47.984 0.088 7.07 62.7 10.9
11/1/2022 12:00:00 AM 8.88 47.984 0.091 7.24 62.04 10.89
11/1/2022 12:15:00 AM 8.89 48.002 0.09 7.22 62.59 10.89
11/1/2022 12:30:00 AM 8.89 48.002 0.094 7.15 62.42 10.87
11/1/2022 12:45:00 AM 8.9 48.02 0.093 7.19 62.55 10.89
11/1/2022 1:00:00 AM 8.91 48.038 0.092 7.18 62.41 10.89
11/1/2022 1:15:00 AM 8.91 48.038 0.09 7.18 62.4 10.89
11/1/2022 1:30:00 AM 8.91 48.038 0.091 7.26 62.54 10.89
11/1/2022 1:45:00 AM 8.92 48.056 0.092 7.23 63.19 10.89
11/1/2022 2:00:00 AM 8.93 48.074 0.095 7.17 62.33 10.88
11/1/2022 2:15:00 AM 8.94 48.092 0.094 7.16 62.28 10.87
11/1/2022 2:30:00 AM 8.94 48.092 0.089 7.16 62.61 10.87
11/1/2022 2:45:00 AM 8.94 48.092 0.091 7.16 60.82 10.88
11/1/2022 3:00:00 AM 8.95 48.11 0.092 7.16 60.8 10.87
11/1/2022 3:15:00 AM 8.95 48.11 0.098 7.14 60.75 10.88
11/1/2022 3:30:00 AM 8.96 48.128 0.094 7.12 60.72 10.87
11/1/2022 3:45:00 AM 8.96 48.128 0.093 7.14 61.65 10.87
11/1/2022 4:00:00 AM 8.97 48.146 0.097 7.12 61.96 10.85
11/1/2022 4:15:00 AM 8.97 48.146 0.094 7.1 61.89 10.87
11/1/2022 4:30:00 AM 8.97 48.146 0.097 7.15 61.79 10.87
11/1/2022 4:45:00 AM 8.98 48.164 0.087 7.15 62.05 10.86
11/1/2022 5:00:00 AM 8.98 48.164 0.095 7.16 61.92 10.87
11/1/2022 5:15:00 AM 9 48.2 0.094 7.28 63.09 10.87
11/1/2022 5:30:00 AM 9.01 48.218 0.095 7.12 61.86 10.84
11/1/2022 5:45:00 AM 9.01 48.218 0.099 7.14 61.85 10.84
11/1/2022 6:00:00 AM 9.01 48.218 0.091 7.13 60.44 10.83
11/1/2022 6:15:00 AM 9.02 48.236 0.096 7.12 60.51 10.81
11/1/2022 6:30:00 AM 9.02 48.236 0.094 7.14 61.14 10.8
11/1/2022 6:45:00 AM 9.02 48.236 0.094 7.16 60.9 10.78
11/1/2022 7:00:00 AM 9.02 48.236 0.095 7.12 60.85 10.8
11/1/2022 7:15:00 AM 9.03 48.254 0.097 7.08 59.59 10.79
11/1/2022 7:30:00 AM 9.03 48.254 0.093 7.12 58.27 10.8
11/1/2022 7:45:00 AM 9.03 48.254 0.099 7.11 58.37 10.8
11/1/2022 8:00:00 AM 9.03 48.254 0.097 7.1 58.55 10.8
11/1/2022 8:15:00 AM 9.04 48.272 0.094 7.08 58.6 10.83
11/1/2022 8:30:00 AM 9.06 48.308 0.092 7.2 59.17 10.85
11/1/2022 8:45:00 AM 9.07 48.326 0.093 7.11 58.89 10.9
11/1/2022 9:00:00 AM 9.09 48.362 0.09 7.16 59.32 10.97
11/1/2022 9:15:00 AM 9.11 48.398 0.09 7.18 58.94 11.04
11/1/2022 9:30:00 AM 9.14 48.452 0.105 7.24 58.6 11.15
11/1/2022 9:45:00 AM 9.19 48.542 0.089 7.19 58.67 11.3
11/1/2022 10:00:00 AM 9.25 48.65 0.089 7.22 58.73 11.43
11/1/2022 10:15:00 AM 9.32 48.776 0.087 7.27 58.73 11.57
11/1/2022 10:30:00 AM 9.42 48.956 0.091 7.42 58.53 11.67
11/1/2022 10:45:00 AM 9.53 49.154 0.092 7.37 58.43 11.8
11/1/2022 11:00:00 AM 9.67 49.406 0.089 7.15 58.51 11.89
11/1/2022 11:15:00 AM 9.92 49.856 0.079 7.03 57.99 11.97
11/1/2022 11:30:00 AM 10.21 50.378 0.088 7.44 56.44 11.99
11/1/2022 11:45:00 AM 10.33 50.594 0.086 7.51 56.45 11.96
11/1/2022 12:00:00 PM 10.39 50.702 0.088 7.51 56.52 11.89
11/1/2022 12:15:00 PM 10.42 50.756 0.081 7.53 56.92 11.82
11/1/2022 12:30:00 PM 10.57 51.026 0.086 7.55 56.75 11.81
11/1/2022 12:45:00 PM 10.72 51.296 0.088 7.37 57.69 11.86
11/1/2022 1:00:00 PM 10.87 51.566 0.086 7.44 57.77 11.84
11/1/2022 1:15:00 PM 10.94 51.692 0.085 7.11 57.55 11.76
11/1/2022 1:30:00 PM 11.09 51.962 0.087 7.67 57.77 11.74
11/1/2022 1:45:00 PM 11.18 52.124 0.087 7.79 64.48 11.71
11/1/2022 2:00:00 PM 11.32 52.376 0.081 7.75 64.75 11.66
11/1/2022 2:15:00 PM 11.4 52.52 0.087 7.74 64.42 11.62
11/1/2022 2:30:00 PM 11.6 52.88 0.084 7.75 64.27 11.63
11/1/2022 2:45:00 PM 11.69 53.042 0.086 7.81 64.09 11.59
11/1/2022 3:00:00 PM 11.72 53.096 0.084 7.74 63.29 11.49
11/1/2022 3:15:00 PM 11.75 53.15 0.086 7.73 63.34 11.45
11/1/2022 3:30:00 PM 11.81 53.258 0.087 7.76 63.42 11.45
11/1/2022 3:45:00 PM 11.86 53.348 0.084 7.8 63.33 11.41
11/1/2022 4:00:00 PM 11.89 53.402 0.081 7.74 62.04 11.37
11/1/2022 4:15:00 PM 11.92 53.456 0.092 7.73 66.4 11.34
11/1/2022 4:30:00 PM 11.94 53.492 0.087 7.73 53.89 11.28
11/1/2022 4:45:00 PM 11.96 53.528 0.087 7.7 53.72 11.19
11/1/2022 5:00:00 PM 11.97 53.546 0.082 7.68 54.2 11.09
11/1/2022 5:15:00 PM 11.98 53.564 0.081 7.67 53.58 10.98
11/1/2022 5:30:00 PM 11.99 53.582 0.087 7.59 53.55 10.88
11/1/2022 5:45:00 PM 11.98 53.564 0.089 7.56 53.18 10.75
11/1/2022 6:00:00 PM 11.96 53.528 0.081 7.46 51.92 10.64
11/1/2022 6:15:00 PM 11.93 53.474 0.083 7.42 52.41 10.53
11/1/2022 6:30:00 PM 11.92 53.456 0.087 7.39 55.43 10.42
11/1/2022 6:45:00 PM 11.91 53.438 0.086 7.36 56.57 10.34
11/1/2022 7:00:00 PM 11.88 53.384 0.083 7.38 56.98 10.27
11/1/2022 7:15:00 PM 11.83 53.294 0.089 7.34 56.52 10.23
11/1/2022 7:30:00 PM 11.77 53.186 0.087 7.34 57.3 10.21
11/1/2022 7:45:00 PM 11.72 53.096 0.093 7.26 57.2 10.18
11/1/2022 8:00:00 PM 11.66 52.988 0.085 7.28 58.78 10.2
11/1/2022 8:15:00 PM 11.61 52.898 0.084 7.27 57.89 10.18
11/1/2022 8:30:00 PM 11.56 52.808 0.087 7.27 58.22 10.18
11/1/2022 8:45:00 PM 11.5 52.7 0.067 7.25 57.08 10.19
11/1/2022 9:00:00 PM 11.45 52.61 0.086 7.26 57.27 10.18
11/1/2022 9:15:00 PM 11.4 52.52 0.086 7.28 57.18 10.21
11/1/2022 9:30:00 PM 11.35 52.43 0.083 7.28 57.09 10.21
11/1/2022 9:45:00 PM 11.28 52.304 0.086 6.88 58.69 10.23
11/1/2022 10:00:00 PM 11.22 52.196 0.089 7.28 58.53 10.25
11/1/2022 10:15:00 PM 11.16 52.088 0.083 7.24 68.82 10.26
11/1/2022 10:30:00 PM 11.1 51.98 0.083 7.19 71.32 10.27
11/1/2022 10:45:00 PM 11.05 51.89 0.087 7.2 71.93 10.31
11/1/2022 11:00:00 PM 11.02 51.836 0.088 7.21 72.06 10.32
11/1/2022 11:15:00 PM 10.99 51.782 0.085 7.32 122.92 10.33
11/1/2022 11:30:00 PM 10.96 51.728 0.087 7.17 101.52 10.35
11/1/2022 11:45:00 PM 10.92 51.656 0.087 7.2 100.94 10.36
11/2/2022 12:00:00 AM 10.88 51.584 0.089 6.66 116.37 10.34
11/2/2022 12:15:00 AM 10.84 51.512 0.089 7.2 115.46 10.37
11/2/2022 12:30:00 AM 10.8 51.44 0.089 6.82 116.69 10.42
11/2/2022 12:45:00 AM 10.75 51.35 0.092 7.27 117.99 10.44
11/2/2022 1:00:00 AM 10.69 51.242 0.091 7.06 117.8 10.44
11/2/2022 1:15:00 AM 10.62 51.116 0.089 6.8 116.05 10.45
11/2/2022 1:30:00 AM 10.55 50.99 0.084 7.2 103.37 10.49
11/2/2022 1:45:00 AM 10.49 50.882 0.084 7.21 101.87 10.51
11/2/2022 2:00:00 AM 10.44 50.792 0.09 7.18 102.68 10.54
11/2/2022 2:15:00 AM 10.4 50.72 0.091 7.18 96.29 10.54
11/2/2022 2:30:00 AM 10.36 50.648 0.092 7.18 93.37 10.57
11/2/2022 2:45:00 AM 10.32 50.576 0.086 7.18 97.07 10.58
11/2/2022 3:00:00 AM 10.28 50.504 0.088 7.18 96.59 10.59
11/2/2022 3:15:00 AM 10.25 50.45 0.092 7.21 96.6 10.6
11/2/2022 3:30:00 AM 10.21 50.378 0.094 7.26 81.62 10.6
11/2/2022 3:45:00 AM 10.18 50.324 0.091 7.19 79.17 10.64
11/2/2022 4:00:00 AM 10.14 50.252 0.09 7.2 78.64 10.65
11/2/2022 4:15:00 AM 10.11 50.198 0.088 7.28 78.7 10.65
11/2/2022 4:30:00 AM 10.07 50.126 0.089 7.21 78.34 10.68
11/2/2022 4:45:00 AM 10.03 50.054 0.09 7.31 78.98 10.68
11/2/2022 5:00:00 AM 10 50 0.091 7.31 78.01 10.7
11/2/2022 5:15:00 AM 9.96 49.928 0.089 7.2 78.38 10.73
11/2/2022 5:30:00 AM 9.92 49.856 0.09 7.19 78.46 10.73
11/2/2022 5:45:00 AM 9.89 49.802 0.089 6.78 78.59 10.74
11/2/2022 6:00:00 AM 9.86 49.748 0.087 7.19 78.77 10.74
11/2/2022 6:15:00 AM 9.83 49.694 0.087 7.23 78.27 10.76
11/2/2022 6:30:00 AM 9.81 49.658 0.09 7.18 78.59 10.76
11/2/2022 6:45:00 AM 9.78 49.604 0.089 7.21 78.1 10.77
11/2/2022 7:00:00 AM 9.76 49.568 0.084 7.19 78.07 10.78
11/2/2022 7:15:00 AM 9.72 49.496 0.093 7.18 77.86 10.8
11/2/2022 7:30:00 AM 9.69 49.442 0.092 7.18 77.64 10.81
11/2/2022 7:45:00 AM 9.64 49.352 0.095 7.18 77.43 10.82
11/2/2022 8:00:00 AM 9.61 49.298 0.088 7.2 76.61 10.87
11/2/2022 8:15:00 AM 9.58 49.244 0.091 7.18 72.38 10.91
11/2/2022 8:30:00 AM 9.56 49.208 0.091 7.2 74.77 10.98
11/2/2022 8:45:00 AM 9.55 49.19 0.092 7.21 75.96 11.05
11/2/2022 9:00:00 AM 9.54 49.172 0.092 7.23 76.88 11.15
11/2/2022 9:15:00 AM 9.54 49.172 0.088 7.25 76.63 11.27
11/2/2022 9:30:00 AM 9.56 49.208 0.087 7.28 76.89 11.37
11/2/2022 9:45:00 AM 9.59 49.262 0.091 7.27 74.97 11.52
11/2/2022 10:00:00 AM 9.63 49.334 0.094 7.34 75.24 11.65
11/2/2022 10:15:00 AM 9.67 49.406 0.093 7.37 77.17 11.74
11/2/2022 10:30:00 AM 9.75 49.55 0.088 7.4 74 11.83
11/2/2022 10:45:00 AM 9.84 49.712 0.087 7.44 58.6 11.93
11/2/2022 11:00:00 AM 9.82 49.676 0.09 8 2.68 11.85
11/2/2022 11:15:00 AM 9.89 49.802 0.09 7.89 2.25 11.9
11/2/2022 11:30:00 AM 10 50 0.09 7.85 2.48 11.93
11/2/2022 11:45:00 AM 10.11 50.198 0.089 7.9 2.35 11.94
11/2/2022 12:00:00 PM 10.27 50.486 0.089 7.87 2.48 11.92
11/2/2022 12:15:00 PM 10.42 50.756 0.089 7.95 2.15 11.97
11/2/2022 12:30:00 PM 10.6 51.08 0.089 7.98 2.3 11.98
11/2/2022 12:45:00 PM 10.77 51.386 0.089 8.03 2.3 11.94
11/2/2022 1:00:00 PM 10.93 51.674 0.089 8.05 2.3 11.91
11/2/2022 1:15:00 PM 11.13 52.034 0.089 8.08 2.2 11.87
11/2/2022 1:30:00 PM 11.34 52.412 0.089 8.08 2.08 11.84
11/2/2022 1:45:00 PM 11.61 52.898 0.089 8.13 2.13 11.78
11/2/2022 2:00:00 PM 11.91 53.438 0.089 8.17 2 11.7
11/2/2022 2:15:00 PM 12.21 53.978 0.089 8.18 2.23 11.63
11/2/2022 2:30:00 PM 12.5 54.5 0.089 8.22 2.09 11.55
11/2/2022 2:45:00 PM 12.81 55.058 0.089 8.26 2.09 11.49
11/2/2022 3:00:00 PM 13.04 55.472 0.089 8.28 2.1 11.41
11/2/2022 3:15:00 PM 13.22 55.796 0.089 8.3 1.94 11.33
11/2/2022 3:30:00 PM 13.34 56.012 0.09 8.29 1.9 11.26
11/2/2022 3:45:00 PM 13.37 56.066 0.09 8.29 2.04 11.17
11/2/2022 4:00:00 PM 13.34 56.012 0.091 8.23 2.03 11.08
11/2/2022 4:15:00 PM 13.25 55.85 0.092 8.18 2.32 10.99
11/2/2022 4:30:00 PM 13.15 55.67 0.092 8.11 1.92 10.9
11/2/2022 4:45:00 PM 13.05 55.49 0.092 8.03 2.03 10.8
11/2/2022 5:00:00 PM 12.93 55.274 0.092 7.95 2.14 10.69
11/2/2022 5:15:00 PM 12.81 55.058 0.092 7.87 2.05 10.56
11/2/2022 5:30:00 PM 12.69 54.842 0.092 7.77 2.09 10.45
11/2/2022 5:45:00 PM 12.58 54.644 0.092 7.73 2.58 10.35
11/2/2022 6:00:00 PM 12.47 54.446 0.092 7.69 2.13 10.27
11/2/2022 6:15:00 PM 12.35 54.23 0.092 7.63 2.22 10.19
11/2/2022 6:30:00 PM 12.23 54.014 0.092 7.61 2.18 10.13
11/2/2022 6:45:00 PM 12.1 53.78 0.093 7.57 2.36 10.1
11/2/2022 7:00:00 PM 11.97 53.546 0.093 7.52 2.38 10.08
11/2/2022 7:15:00 PM 11.83 53.294 0.093 7.52 2.22 10.07
11/2/2022 7:30:00 PM 11.69 53.042 0.093 7.5 2.32 10.09
11/2/2022 7:45:00 PM 11.54 52.772 0.093 7.49 2.36 10.12
11/2/2022 8:00:00 PM 11.4 52.52 0.093 7.46 2.29 10.14
11/2/2022 8:15:00 PM 11.26 52.268 0.093 7.46 2.25 10.17
11/2/2022 8:30:00 PM 11.12 52.016 0.093 7.45 2.27 10.19
11/2/2022 8:45:00 PM 10.99 51.782 0.093 7.43 7.08 10.19
11/2/2022 9:00:00 PM 10.87 51.566 0.093 7.41 2.18 10.26
11/2/2022 9:15:00 PM 10.75 51.35 0.094 7.4 2.18 10.27
11/2/2022 9:30:00 PM 10.64 51.152 0.094 7.37 2.22 10.31
11/2/2022 9:45:00 PM 10.55 50.99 0.094 7.37 2.21 10.33
11/2/2022 10:00:00 PM 10.45 50.81 0.094 7.36 2.16 10.36
11/2/2022 10:15:00 PM 10.36 50.648 0.094 7.32 2.16 10.38
11/2/2022 10:30:00 PM 10.27 50.486 0.094 7.33 2.16 10.41
11/2/2022 10:45:00 PM 10.17 50.306 0.094 7.32 2.2 10.44
11/2/2022 11:00:00 PM 10.08 50.144 0.094 7.32 2.15 10.47
11/2/2022 11:15:00 PM 9.98 49.964 0.094 7.31 2.17 10.49
11/2/2022 11:30:00 PM 9.89 49.802 0.094 7.31 2.22 10.53
11/2/2022 11:45:00 PM 9.79 49.622 0.094 7.3 2.19 10.55
11/3/2022 12:00:00 AM 9.69 49.442 0.094 7.28 2.19 10.59
11/3/2022 12:15:00 AM 9.59 49.262 0.095 7.29 2.12 10.62
11/3/2022 12:30:00 AM 9.49 49.082 0.095 7.29 2.14 10.64
11/3/2022 12:45:00 AM 9.4 48.92 0.095 7.29 2.13 10.67
11/3/2022 1:00:00 AM 9.3 48.74 0.095 7.27 2.18 10.71
11/3/2022 1:15:00 AM 9.2 48.56 0.095 7.27 2.13 10.74
11/3/2022 1:30:00 AM 9.1 48.38 0.095 7.27 2.16 10.78
11/3/2022 1:45:00 AM 9 48.2 0.095 7.26 2.08 10.81
11/3/2022 2:00:00 AM 8.91 48.038 0.095 7.28 2.08 10.84
11/3/2022 2:15:00 AM 8.83 47.894 0.095 7.25 2.05 10.87
11/3/2022 2:30:00 AM 8.75 47.75 0.095 7.26 2.01 10.9
11/3/2022 2:45:00 AM 8.68 47.624 0.095 7.27 2.08 10.91
11/3/2022 3:00:00 AM 8.59 47.462 0.095 7.25 1.99 10.96
11/3/2022 3:15:00 AM 8.52 47.336 0.095 7.26 2.1 10.99
11/3/2022 3:30:00 AM 8.44 47.192 0.095 7.27 1.96 11.02
11/3/2022 3:45:00 AM 8.37 47.066 0.095 7.25 2.02 11.04
11/3/2022 4:00:00 AM 8.29 46.922 0.095 7.26 2 11.07
11/3/2022 4:15:00 AM 8.21 46.778 0.095 7.25 2.03 11.09
11/3/2022 4:30:00 AM 8.13 46.634 0.096 7.25 2.01 11.13
11/3/2022 4:45:00 AM 8.06 46.508 0.096 7.25 1.99 11.16
11/3/2022 5:00:00 AM 7.98 46.364 0.096 7.26 2.03 11.19
11/3/2022 5:15:00 AM 7.91 46.238 0.096 7.27 2.03 11.21
11/3/2022 5:30:00 AM 7.85 46.13 0.096 7.25 2.02 11.23
11/3/2022 5:45:00 AM 7.78 46.004 0.096 7.26 1.97 11.26
11/3/2022 6:00:00 AM 7.73 45.914 0.096 7.26 2.04 11.27
11/3/2022 6:15:00 AM 7.66 45.788 0.096 7.26 2.01 11.31
11/3/2022 6:30:00 AM 7.6 45.68 0.096 7.27 1.96 11.33
11/3/2022 6:45:00 AM 7.54 45.572 0.096 7.27 1.99 11.35
11/3/2022 7:00:00 AM 7.48 45.464 0.096 7.28 1.96 11.38
11/3/2022 7:15:00 AM 7.43 45.374 0.096 7.26 1.98 11.39
11/3/2022 7:30:00 AM 7.37 45.266 0.096 7.28 2 11.41
11/3/2022 7:45:00 AM 7.32 45.176 0.095 7.27 1.99 11.43
11/3/2022 8:00:00 AM 7.27 45.086 0.095 7.28 1.96 11.47
11/3/2022 8:15:00 AM 7.22 44.996 0.095 7.28 2.02 11.52
11/3/2022 8:30:00 AM 7.18 44.924 0.095 7.3 1.99 11.61
11/3/2022 8:45:00 AM 7.14 44.852 0.095 7.32 1.9 11.72
11/3/2022 9:00:00 AM 7.12 44.816 0.095 7.36 1.9 11.86
11/3/2022 9:15:00 AM 7.11 44.798 0.095 7.37 1.93 12
11/3/2022 9:30:00 AM 7.12 44.816 0.095 7.42 1.91 12.14
11/3/2022 9:45:00 AM 7.16 44.888 0.094 7.46 1.92 12.29
11/3/2022 10:00:00 AM 7.21 44.978 0.094 7.51 1.87 12.41
11/3/2022 10:15:00 AM 7.27 45.086 0.094 7.55 1.91 12.51
11/3/2022 10:30:00 AM 7.32 45.176 0.095 7.57 1.89 12.54
11/3/2022 10:45:00 AM 7.43 45.374 0.095 7.63 1.97 12.61
11/3/2022 11:00:00 AM 7.54 45.572 0.096 7.66 1.93 12.61
11/3/2022 11:15:00 AM 7.67 45.806 0.096 7.68 1.93 12.61
11/3/2022 11:30:00 AM 7.83 46.094 0.097 7.7 1.86 12.6
11/3/2022 11:45:00 AM 8.02 46.436 0.096 7.74 1.93 12.59
11/3/2022 12:00:00 PM 8.22 46.796 0.096 7.75 1.9 12.57
11/3/2022 12:15:00 PM 8.43 47.174 0.095 7.78 1.9 12.55
11/3/2022 12:30:00 PM 8.66 47.588 0.094 7.8 1.84 12.51
11/3/2022 12:45:00 PM 8.9 48.02 0.094 7.81 1.9 12.43
11/3/2022 1:00:00 PM 9.15 48.47 0.093 7.86 1.9 12.41
11/3/2022 1:15:00 PM 9.41 48.938 0.092 7.89 1.89 12.36
11/3/2022 1:30:00 PM 9.68 49.424 0.092 7.94 1.89 12.31
11/3/2022 1:45:00 PM 9.96 49.928 0.092 7.98 1.89 12.25
11/3/2022 2:00:00 PM 10.25 50.45 0.091 8 1.84 12.18
11/3/2022 2:15:00 PM 10.54 50.972 0.091 8.04 1.84 12.11
11/3/2022 2:30:00 PM 10.83 51.494 0.091 8.07 1.87 12.03
11/3/2022 2:45:00 PM 11.13 52.034 0.091 8.1 1.92 11.96
11/3/2022 3:00:00 PM 11.41 52.538 0.091 8.13 1.88 11.87
11/3/2022 3:15:00 PM 11.63 52.934 0.091 8.17 1.9 11.78
11/3/2022 3:30:00 PM 11.78 53.204 0.091 8.17 1.98 11.68
11/3/2022 3:45:00 PM 11.86 53.348 0.091 8.18 1.9 11.6
11/3/2022 4:00:00 PM 11.87 53.366 0.091 8.15 1.94 11.51
11/3/2022 4:15:00 PM 11.82 53.276 0.091 8.12 1.95 11.42
11/3/2022 4:30:00 PM 11.73 53.114 0.092 8.07 1.87 11.34
11/3/2022 4:45:00 PM 11.64 52.952 0.092 8.02 1.9 11.25
11/3/2022 5:00:00 PM 11.56 52.808 0.092 7.95 6.29 11.15
11/3/2022 5:15:00 PM 11.47 52.646 0.093 7.89 1.97 11.03
11/3/2022 5:30:00 PM 11.37 52.466 0.093 7.83 1.86 10.91
11/3/2022 5:45:00 PM 11.28 52.304 0.093 7.77 1.95 10.8
11/3/2022 6:00:00 PM 11.2 52.16 0.093 7.72 1.89 10.7
11/3/2022 6:15:00 PM 11.12 52.016 0.094 7.67 1.91 10.62
11/3/2022 6:30:00 PM 11.03 51.854 0.094 7.61 1.92 10.54
11/3/2022 6:45:00 PM 10.92 51.656 0.094 7.59 2.05 10.48
11/3/2022 7:00:00 PM 10.81 51.458 0.094 7.55 2.04 10.45
11/3/2022 7:15:00 PM 10.69 51.242 0.094 7.55 2.04 10.45
11/3/2022 7:30:00 PM 10.57 51.026 0.094 7.5 2.05 10.45
11/3/2022 7:45:00 PM 10.45 50.81 0.094 7.51 2.06 10.46
11/3/2022 8:00:00 PM 10.32 50.576 0.094 7.49 2.05 10.48
11/3/2022 8:15:00 PM 10.19 50.342 0.094 7.45 2.01 10.5
11/3/2022 8:30:00 PM 10.06 50.108 0.094 7.47 1.99 10.53
11/3/2022 8:45:00 PM 9.93 49.874 0.094 7.43 2.01 10.56
11/3/2022 9:00:00 PM 9.81 49.658 0.094 7.45 2.07 10.59
11/3/2022 9:15:00 PM 9.7 49.46 0.094 7.42 2.03 10.62
11/3/2022 9:30:00 PM 9.6 49.28 0.095 7.43 2.05 10.63
11/3/2022 9:45:00 PM 9.5 49.1 0.095 7.41 2.1 10.66
11/3/2022 10:00:00 PM 9.41 48.938 0.095 7.41 2.06 10.68
11/3/2022 10:15:00 PM 9.33 48.794 0.095 7.4 2.05 10.7
11/3/2022 10:30:00 PM 9.25 48.65 0.095 7.41 2.27 10.73
11/3/2022 10:45:00 PM 9.17 48.506 0.095 7.39 1.96 10.76
11/3/2022 11:00:00 PM 9.1 48.38 0.095 7.4 2 10.78
11/3/2022 11:15:00 PM 9.03 48.254 0.095 7.4 2.01 10.8
11/3/2022 11:30:00 PM 8.95 48.11 0.095 7.38 2.08 10.82
11/3/2022 11:45:00 PM 8.88 47.984 0.095 7.39 2.14 10.84
11/4/2022 12:00:00 AM 8.81 47.858 0.095 7.37 2.06 10.86
11/4/2022 12:15:00 AM 8.74 47.732 0.095 7.37 2.03 10.89
11/4/2022 12:30:00 AM 8.67 47.606 0.095 7.38 1.98 10.91
11/4/2022 12:45:00 AM 8.61 47.498 0.095 7.35 2.05 10.93
11/4/2022 1:00:00 AM 8.53 47.354 0.095 7.36 2.06 10.95
11/4/2022 1:15:00 AM 8.46 47.228 0.095 7.34 2.01 10.98
11/4/2022 1:30:00 AM 8.39 47.102 0.095 7.33 2 11
11/4/2022 1:45:00 AM 8.33 46.994 0.095 7.33 1.98 11.02
11/4/2022 2:00:00 AM 8.26 46.868 0.095 7.34 2.03 11.04
11/4/2022 2:15:00 AM 8.19 46.742 0.095 7.31 2.07 11.06
11/4/2022 2:30:00 AM 8.12 46.616 0.095 7.33 2.06 11.08
11/4/2022 2:45:00 AM 8.06 46.508 0.095 7.31 2.05 11.1
11/4/2022 3:00:00 AM 7.99 46.382 0.096 7.3 2.03 11.13
11/4/2022 3:15:00 AM 7.92 46.256 0.096 7.31 1.93 11.15
11/4/2022 3:30:00 AM 7.85 46.13 0.096 7.31 2.04 11.18
11/4/2022 3:45:00 AM 7.78 46.004 0.096 7.3 2.02 11.2
11/4/2022 4:00:00 AM 7.72 45.896 0.096 7.3 2.01 11.22
11/4/2022 4:15:00 AM 7.65 45.77 0.096 7.29 2.06 11.25
11/4/2022 4:30:00 AM 7.58 45.644 0.096 7.28 2 11.27
11/4/2022 4:45:00 AM 7.52 45.536 0.096 7.28 1.99 11.3
11/4/2022 5:00:00 AM 7.45 45.41 0.096 7.29 2.03 11.32
11/4/2022 5:15:00 AM 7.39 45.302 0.096 7.29 1.98 11.34
11/4/2022 5:30:00 AM 7.32 45.176 0.096 7.27 1.98 11.37
11/4/2022 5:45:00 AM 7.26 45.068 0.096 7.29 1.96 11.38
11/4/2022 6:00:00 AM 7.19 44.942 0.096 7.28 2.1 11.41
11/4/2022 6:15:00 AM 7.13 44.834 0.097 7.26 2.01 11.43
11/4/2022 6:30:00 AM 7.07 44.726 0.098 7.27 2.06 11.46
11/4/2022 6:45:00 AM 7 44.6 0.098 7.28 2 11.49
11/4/2022 7:00:00 AM 6.94 44.492 0.099 7.25 2.05 11.51
11/4/2022 7:15:00 AM 6.88 44.384 0.099 7.28 2.09 11.53
11/4/2022 7:30:00 AM 6.82 44.276 0.099 7.27 2.07 11.55
11/4/2022 7:45:00 AM 6.76 44.168 0.098 7.27 2.01 11.58
11/4/2022 8:00:00 AM 6.7 44.06 0.098 7.27 2.03 11.63
11/4/2022 8:15:00 AM 6.66 43.988 0.098 7.29 2 11.69
11/4/2022 8:30:00 AM 6.61 43.898 0.097 7.3 2.03 11.8
11/4/2022 8:45:00 AM 6.58 43.844 0.097 7.3 2.02 11.92
11/4/2022 9:00:00 AM 6.55 43.79 0.096 7.34 1.95 12.05
11/4/2022 9:15:00 AM 6.52 43.736 0.096 7.36 2.01 12.16
11/4/2022 9:30:00 AM 6.51 43.718 0.096 7.39 1.97 12.26
11/4/2022 9:45:00 AM 6.51 43.718 0.096 7.4 1.98 12.36
11/4/2022 10:00:00 AM 6.55 43.79 0.095 7.45 2.01 12.45
11/4/2022 10:15:00 AM 6.61 43.898 0.095 7.47 1.96 12.53
11/4/2022 10:30:00 AM 6.7 44.06 0.095 7.51 2 12.6
11/4/2022 10:45:00 AM 6.83 44.294 0.094 7.54 1.95 12.66
11/4/2022 11:00:00 AM 6.98 44.564 0.094 7.57 1.97 12.69
11/4/2022 11:15:00 AM 7.17 44.906 0.094 7.61 1.93 12.71
11/4/2022 11:30:00 AM 7.38 45.284 0.093 7.64 1.89 12.72
11/4/2022 11:45:00 AM 7.6 45.68 0.093 7.68 1.88 12.71
11/4/2022 12:00:00 PM 7.84 46.112 0.093 7.71 1.92 12.69
11/4/2022 12:15:00 PM 8.09 46.562 0.092 7.74 1.93 12.67
11/4/2022 12:30:00 PM 8.35 47.03 0.092 7.77 1.86 12.63
11/4/2022 12:45:00 PM 8.62 47.516 0.092 7.8 1.88 12.58
11/4/2022 1:00:00 PM 8.9 48.02 0.092 7.85 1.89 12.53
11/4/2022 1:15:00 PM 9.19 48.542 0.092 7.88 1.91 12.47
11/4/2022 1:30:00 PM 9.49 49.082 0.092 7.91 1.9 12.41
11/4/2022 1:45:00 PM 9.78 49.604 0.092 7.95 1.86 12.34
11/4/2022 2:00:00 PM 10.09 50.162 0.092 7.99 1.87 12.27
11/4/2022 2:15:00 PM 10.37 50.666 0.092 8.04 1.85 12.2
11/4/2022 2:30:00 PM 10.68 51.224 0.091 8.09 1.87 12.13
11/4/2022 2:45:00 PM 10.99 51.782 0.091 8.12 1.82 12.05
11/4/2022 3:00:00 PM 11.24 52.232 0.091 8.19 1.88 11.96
11/4/2022 3:15:00 PM 11.45 52.61 0.091 8.2 1.89 11.88
11/4/2022 3:30:00 PM 11.57 52.826 0.091 8.22 1.93 11.79
11/4/2022 3:45:00 PM 11.71 53.078 0.091 8.26 1.88 11.73
11/4/2022 4:00:00 PM 11.77 53.186 0.091 8.26 1.82 11.64
11/4/2022 4:15:00 PM 11.79 53.222 0.092 8.23 1.91 11.55
11/4/2022 4:30:00 PM 11.78 53.204 0.092 8.19 1.89 11.46
11/4/2022 4:45:00 PM 11.76 53.168 0.092 8.15 1.94 11.38
11/4/2022 5:00:00 PM 11.76 53.168 0.092 8.1 1.94 11.27
11/4/2022 5:15:00 PM 11.75 53.15 0.092 8 1.88 11.15
11/4/2022 5:30:00 PM 11.73 53.114 0.092 7.95 2 11.01
11/4/2022 5:45:00 PM 11.71 53.078 0.093 7.87 1.96 10.86
11/4/2022 6:00:00 PM 11.68 53.024 0.093 7.79 1.98 10.71
11/4/2022 6:15:00 PM 11.63 52.934 0.093 7.73 1.94 10.57
11/4/2022 6:30:00 PM 11.58 52.844 0.093 7.64 2.01 10.46
11/4/2022 6:45:00 PM 11.53 52.754 0.094 7.63 1.98 10.37
11/4/2022 7:00:00 PM 11.45 52.61 0.094 7.6 2.02 10.31
11/4/2022 7:15:00 PM 11.38 52.484 0.094 7.53 2.07 10.28
11/4/2022 7:30:00 PM 11.31 52.358 0.094 7.55 2.1 10.25
11/4/2022 7:45:00 PM 11.23 52.214 0.094 7.52 2.02 10.24
11/4/2022 8:00:00 PM 11.15 52.07 0.094 7.49 2.03 10.25
11/4/2022 8:15:00 PM 11.07 51.926 0.095 7.5 2.07 10.25
11/4/2022 8:30:00 PM 11.01 51.818 0.095 7.49 2 10.25
11/4/2022 8:45:00 PM 10.95 51.71 0.095 7.48 2.27 10.25
11/4/2022 9:00:00 PM 10.89 51.602 0.095 7.47 2.06 10.26
11/4/2022 9:15:00 PM 10.84 51.512 0.095 7.47 2.1 10.27
11/4/2022 9:30:00 PM 10.79 51.422 0.095 7.42 2.06 10.28
11/4/2022 9:45:00 PM 10.74 51.332 0.095 7.45 2.11 10.29
11/4/2022 10:00:00 PM 10.71 51.278 0.095 7.43 2.24 10.29
11/4/2022 10:15:00 PM 10.68 51.224 0.095 7.44 2.07 10.29
11/4/2022 10:30:00 PM 10.65 51.17 0.095 7.41 2.07 10.3
11/4/2022 10:45:00 PM 10.62 51.116 0.095 7.43 2.09 10.31
11/4/2022 11:00:00 PM 10.6 51.08 0.095 7.42 2.13 10.32
11/4/2022 11:15:00 PM 10.58 51.044 0.095 7.42 2.05 10.32
11/4/2022 11:30:00 PM 10.56 51.008 0.095 7.41 2.09 10.32
11/4/2022 11:45:00 PM 10.53 50.954 0.095 7.4 2.23 10.33
11/5/2022 12:00:00 AM 10.5 50.9 0.095 7.42 2.04 10.34
11/5/2022 12:15:00 AM 10.47 50.846 0.095 7.42 2.04 10.35
11/5/2022 12:30:00 AM 10.45 50.81 0.095 7.41 2.06 10.35
11/5/2022 12:45:00 AM 10.43 50.774 0.096 7.41 2.02 10.36
11/5/2022 1:00:00 AM 10.39 50.702 0.095 7.39 2.1 10.37
11/5/2022 1:15:00 AM 10.36 50.648 0.095 7.4 2.08 10.37
11/5/2022 1:30:00 AM 10.33 50.594 0.095 7.39 2.07 10.38
11/5/2022 1:45:00 AM 10.29 50.522 0.095 7.39 2.02 10.4
11/5/2022 2:00:00 AM 10.26 50.468 0.095 7.4 1.97 10.41
11/5/2022 2:15:00 AM 10.24 50.432 0.095 7.39 2 10.41
11/5/2022 2:30:00 AM 10.22 50.396 0.095 7.39 2.01 10.42
11/5/2022 2:45:00 AM 10.2 50.36 0.095 7.39 2.11 10.42
11/5/2022 3:00:00 AM 10.17 50.306 0.095 7.4 2.01 10.43
11/5/2022 3:15:00 AM 10.16 50.288 0.095 7.39 1.99 10.44
11/5/2022 3:30:00 AM 10.13 50.234 0.095 7.38 1.98 10.45
11/5/2022 3:45:00 AM 10.08 50.144 0.096 7.39 1.99 10.46
11/5/2022 4:00:00 AM 10.05 50.09 0.096 7.39 2.05 10.47
11/5/2022 4:15:00 AM 10.04 50.072 0.097 7.39 2.11 10.48
11/5/2022 4:30:00 AM 10.03 50.054 0.098 7.39 2.14 10.49
11/5/2022 4:45:00 AM 10.01 50.018 0.098 7.4 2.01 10.5
11/5/2022 5:00:00 AM 9.99 49.982 0.099 7.39 2.11 10.5
11/5/2022 5:15:00 AM 9.94 49.892 0.098 7.39 2.14 10.51
11/5/2022 5:30:00 AM 9.85 49.73 0.098 7.38 2.06 10.53
11/5/2022 5:45:00 AM 9.75 49.55 0.098 7.39 2.07 10.56
11/5/2022 6:00:00 AM 9.66 49.388 0.097 7.36 2.02 10.58
11/5/2022 6:15:00 AM 9.56 49.208 0.097 7.37 2.09 10.6
11/5/2022 6:30:00 AM 9.47 49.046 0.097 7.36 2.03 10.63
11/5/2022 6:45:00 AM 9.38 48.884 0.096 7.38 2.01 10.66
11/5/2022 7:00:00 AM 9.3 48.74 0.096 7.35 2.07 10.69
11/5/2022 7:15:00 AM 9.23 48.614 0.096 7.38 2.07 10.7
11/5/2022 7:30:00 AM 9.16 48.488 0.096 7.36 2.07 10.73
11/5/2022 7:45:00 AM 9.11 48.398 0.096 7.36 2.05 10.75
11/5/2022 8:00:00 AM 9.06 48.308 0.096 7.37 2 10.79
11/5/2022 8:15:00 AM 9.03 48.254 0.096 7.39 2 10.85
11/5/2022 8:30:00 AM 9.01 48.218 0.096 7.4 1.98 10.98
11/5/2022 8:45:00 AM 9 48.2 0.096 7.42 2.03 11.11
11/5/2022 9:00:00 AM 9 48.2 0.095 7.43 1.96 11.26
11/5/2022 9:15:00 AM 9.02 48.236 0.095 7.48 2.2 11.41
11/5/2022 9:30:00 AM 9.05 48.29 0.095 7.51 2.11 11.56
11/5/2022 9:45:00 AM 9.11 48.398 0.095 7.54 2.02 11.68
11/5/2022 10:00:00 AM 9.2 48.56 0.094 7.6 2.02 11.8
11/5/2022 10:15:00 AM 9.34 48.812 0.094 7.62 2.04 11.89
11/5/2022 10:30:00 AM 9.51 49.118 0.094 7.68 1.98 11.93
11/5/2022 10:45:00 AM 9.69 49.442 0.094 7.74 1.98 11.97
11/5/2022 11:00:00 AM 9.88 49.784 0.093 7.77 2 11.98
11/5/2022 11:15:00 AM 10.12 50.216 0.093 7.84 1.99 11.99
11/5/2022 11:30:00 AM 10.35 50.63 0.093 7.87 1.98 12
11/5/2022 11:45:00 AM 10.56 51.008 0.092 7.9 1.98 11.98
11/5/2022 12:00:00 PM 10.77 51.386 0.092 7.95 2 11.93
11/5/2022 12:15:00 PM 11.04 51.872 0.092 8.01 1.97 11.92
11/5/2022 12:30:00 PM 11.28 52.304 0.092 8.05 2.55 11.88
11/5/2022 12:45:00 PM 11.51 52.718 0.092 8.11 2.55 11.85
11/5/2022 1:00:00 PM 11.73 53.114 0.092 8.16 2.55 11.81
11/5/2022 1:15:00 PM 11.95 53.51 0.092 8.21 2.58 11.73
11/5/2022 1:30:00 PM 12.18 53.924 0.092 8.28 2.58 11.68
11/5/2022 1:45:00 PM 12.38 54.284 0.091 8.28 2.49 11.61
11/5/2022 2:00:00 PM 12.6 54.68 0.091 8.36 2.55 11.55
11/5/2022 2:15:00 PM 12.79 55.022 0.091 8.4 2.53 11.52
11/5/2022 2:30:00 PM 12.98 55.364 0.091 8.42 2.6 11.45
11/5/2022 2:45:00 PM 13.18 55.724 0.091 8.48 2.57 11.4
11/5/2022 3:00:00 PM 13.37 56.066 0.091 8.5 2.62 11.33
11/5/2022 3:15:00 PM 13.56 56.408 0.091 8.53 2.51 11.24
11/5/2022 3:30:00 PM 13.74 56.732 0.091 8.54 2.43 11.14
11/5/2022 3:45:00 PM 13.87 56.966 0.091 8.51 2.32 11.01
11/5/2022 4:00:00 PM 13.95 57.11 0.091 8.4 2.09 10.8
11/5/2022 4:15:00 PM 14.01 57.218 0.092 8.24 2.13 10.55
11/5/2022 4:30:00 PM 14.07 57.326 0.092 8.08 2.23 10.33
11/5/2022 4:45:00 PM 14.15 57.47 0.092 7.98 2.09 10.24
11/5/2022 5:00:00 PM 14.21 57.578 0.092 7.91 2.14 10.12
11/5/2022 5:15:00 PM 14.26 57.668 0.092 7.86 2.11 10.05
11/5/2022 5:30:00 PM 14.32 57.776 0.092 7.81 2.02 10
11/5/2022 5:45:00 PM 14.37 57.866 0.092 7.77 2.07 9.92
11/5/2022 6:00:00 PM 14.39 57.902 0.093 7.74 2.08 9.82
11/5/2022 6:15:00 PM 14.4 57.92 0.093 7.67 2.04 9.68
11/5/2022 6:30:00 PM 14.4 57.92 0.093 7.63 2.16 9.55
11/5/2022 6:45:00 PM 14.39 57.902 0.094 7.59 2.26 9.44
11/5/2022 7:00:00 PM 14.39 57.902 0.094 7.55 2.09 9.37
11/5/2022 7:15:00 PM 14.38 57.884 0.094 7.52 2.21 9.3
11/5/2022 7:30:00 PM 14.37 57.866 0.095 7.5 2.34 9.27
11/5/2022 7:45:00 PM 14.37 57.866 0.095 7.49 2.16 9.24
11/5/2022 8:00:00 PM 14.36 57.848 0.095 7.46 2.15 9.22
11/5/2022 8:15:00 PM 14.35 57.83 0.095 7.47 2.15 9.19
11/5/2022 8:30:00 PM 14.34 57.812 0.095 7.43 2.3 9.2
11/5/2022 8:45:00 PM 14.33 57.794 0.095 7.43 2.22 9.16
11/5/2022 9:00:00 PM 14.31 57.758 0.095 7.44 2.19 9.14
11/5/2022 9:15:00 PM 14.31 57.758 0.096 7.43 2.34 9.14
11/5/2022 9:30:00 PM 14.31 57.758 0.096 7.41 2.3 9.13
11/5/2022 9:45:00 PM 14.3 57.74 0.096 7.42 2.23 9.14
11/5/2022 10:00:00 PM 14.31 57.758 0.096 7.39 2.21 9.14
11/5/2022 10:15:00 PM 14.3 57.74 0.096 7.4 2.36 9.16
11/5/2022 10:30:00 PM 14.28 57.704 0.096 7.4 2.39 9.15
11/5/2022 10:45:00 PM 14.27 57.686 0.096 7.4 2.34 9.15
11/5/2022 11:00:00 PM 14.27 57.686 0.096 7.4 2.2 9.15
11/5/2022 11:15:00 PM 14.26 57.668 0.097 7.4 2.29 9.16
11/5/2022 11:30:00 PM 14.25 57.65 0.097 7.4 2.23 9.16
11/5/2022 11:45:00 PM 14.24 57.632 0.097 7.4 2.39 9.15
11/6/2022 12:00:00 AM 14.24 57.632 0.097 7.34 2.2 9.15
11/6/2022 12:15:00 AM 14.23 57.614 0.097 7.39 2.21 9.16
11/6/2022 12:30:00 AM 14.22 57.596 0.097 7.34 2.26 9.16
11/6/2022 12:45:00 AM 14.21 57.578 0.097 7.39 2.19 9.17
11/6/2022 1:00:00 AM 14.19 57.542 0.097 7.36 2.18 9.16
11/6/2022 1:15:00 AM 14.18 57.524 0.097 7.37 2.38 9.17
11/6/2022 1:30:00 AM 14.17 57.506 0.097 7.37 2.28 9.16
11/6/2022 1:45:00 AM 14.14 57.452 0.097 7.38 2.18 9.17
11/6/2022 2:00:00 AM 14.12 57.416 0.097 7.37 2.31 9.18
11/6/2022 2:15:00 AM 14.1 57.38 0.097 7.37 2.23 9.19
11/6/2022 2:30:00 AM 14.09 57.362 0.097 7.38 2.35 9.19
11/6/2022 2:45:00 AM 14.07 57.326 0.097 7.35 2.27 9.2
11/6/2022 3:00:00 AM 14.07 57.326 0.097 7.35 2.29 9.21
11/6/2022 3:15:00 AM 14.06 57.308 0.097 7.38 2.75 9.22
11/6/2022 3:30:00 AM 14.05 57.29 0.097 7.38 2.55 9.22
11/6/2022 3:45:00 AM 14.04 57.272 0.1 7.35 2.27 9.25
11/6/2022 4:00:00 AM 14.02 57.236 0.1 7.35 2.27 9.24
11/6/2022 4:15:00 AM 14.02 57.236 0.1 7.35 2.57 9.25
11/6/2022 4:30:00 AM 14.02 57.236 0.1 7.35 2.11 9.25
11/6/2022 4:45:00 AM 14.02 57.236 0.1 7.36 2.29 9.26
11/6/2022 5:00:00 AM 14.02 57.236 0.099 7.35 2.19 9.26
11/6/2022 5:15:00 AM 14.02 57.236 0.099 7.37 2.16 9.26
11/6/2022 5:30:00 AM 14.02 57.236 0.099 7.35 2.18 9.26
11/6/2022 5:45:00 AM 14.02 57.236 0.099 7.37 2.16 9.27
11/6/2022 6:00:00 AM 14.02 57.236 0.098 7.36 2.24 9.27
11/6/2022 6:15:00 AM 13.99 57.182 0.098 7.36 2.17 9.27
11/6/2022 6:30:00 AM 13.98 57.164 0.098 7.36 2.17 9.28
11/6/2022 6:45:00 AM 13.96 57.128 0.098 7.36 2.34 9.29
11/6/2022 7:00:00 AM 13.94 57.092 0.098 7.37 2.22 9.32
11/6/2022 7:15:00 AM 13.92 57.056 0.098 7.37 2.37 9.39
11/6/2022 7:30:00 AM 13.94 57.092 0.098 7.4 2.41 9.5
11/6/2022 7:45:00 AM 13.96 57.128 0.097 7.4 2.55 9.62
11/6/2022 8:00:00 AM 13.98 57.164 0.097 7.45 2.3 9.75
11/6/2022 8:15:00 AM 13.99 57.182 0.097 7.48 2.16 9.86
11/6/2022 8:30:00 AM 14 57.2 0.097 7.5 2.34 9.92
11/6/2022 8:45:00 AM 13.98 57.164 0.097 7.51 2.29 9.96
11/6/2022 9:00:00 AM 13.95 57.11 0.097 7.49 2.26 9.97
11/6/2022 9:15:00 AM 13.97 57.146 0.097 7.54 2.18 10.08
11/6/2022 9:30:00 AM 14.05 57.29 0.096 7.59 2.22 10.27
11/6/2022 9:45:00 AM 14.13 57.434 0.096 7.63 2.38 10.41
11/6/2022 10:00:00 AM 14.28 57.704 0.095 7.71 3.05 10.6
11/6/2022 10:15:00 AM 14.4 57.92 0.095 7.78 2.88 10.71
11/6/2022 10:30:00 AM 14.61 58.298 0.095 7.84 2.87 10.79
11/6/2022 10:45:00 AM 14.82 58.676 0.094 7.96 2.67 10.89
11/6/2022 11:00:00 AM 15.01 59.018 0.094 8.03 2.66 10.94
11/6/2022 11:15:00 AM 15.2 59.36 0.094 8.12 2.58 10.94
11/6/2022 11:30:00 AM 15.28 59.504 0.093 8.17 2.63 10.9
11/6/2022 11:45:00 AM 15.35 59.63 0.093 8.22 3.38 10.87
11/6/2022 12:00:00 PM 15.44 59.792 0.093 8.29 2.69 10.88
11/6/2022 12:15:00 PM 15.51 59.918 0.093 8.29 2.61 10.82
11/6/2022 12:30:00 PM 15.55 59.99 0.092 8.27 2.74 10.65
11/6/2022 12:45:00 PM 15.62 60.116 0.092 8.23 2.91 10.57
11/6/2022 1:00:00 PM 15.73 60.314 0.092 8.25 3.39 10.57
11/6/2022 1:15:00 PM 15.84 60.512 0.092 8.32 3.38 10.64
11/6/2022 1:30:00 PM 16 60.8 0.092 8.43 3.79 10.69
11/6/2022 1:45:00 PM 16.05 60.89 0.092 8.42 3.42 10.6
11/6/2022 2:00:00 PM 16.05 60.89 0.092 8.38 5.01 10.43
11/6/2022 2:15:00 PM 16.07 60.926 0.092 8.34 2.95 10.36
11/6/2022 2:30:00 PM 16.11 60.998 0.092 8.3 3.03 10.33
11/6/2022 2:45:00 PM 16.14 61.052 0.092 8.33 2.93 10.33
11/6/2022 3:00:00 PM 16.13 61.034 0.092 8.27 2.93 10.21
11/6/2022 3:15:00 PM 16.11 60.998 0.092 8.17 2.94 10.1
11/6/2022 3:30:00 PM 16.09 60.962 0.093 8.11 2.93 10.03
11/6/2022 3:45:00 PM 16.08 60.944 0.093 8.08 2.98 10.03
11/6/2022 4:00:00 PM 16.05 60.89 0.093 8.04 3.03 9.98
11/6/2022 4:15:00 PM 15.99 60.782 0.093 7.95 2.94 9.87
11/6/2022 4:30:00 PM 15.92 60.656 0.093 7.86 2.99 9.73
11/6/2022 4:45:00 PM 15.84 60.512 0.093 7.77 3.18 9.59
11/6/2022 5:00:00 PM 15.77 60.386 0.094 7.7 3.03 9.46
11/6/2022 5:15:00 PM 15.69 60.242 0.094 7.63 2.99 9.32
11/6/2022 5:30:00 PM 15.62 60.116 0.094 7.55 3.11 9.2
11/6/2022 5:45:00 PM 15.55 59.99 0.094 7.53 2.3 9.12
11/6/2022 6:00:00 PM 15.48 59.864 0.095 7.45 2.18 9.07
11/6/2022 6:15:00 PM 15.39 59.702 0.095 7.47 2.29 9.03
11/6/2022 6:30:00 PM 15.3 59.54 0.095 7.43 2.24 9.02
11/6/2022 6:45:00 PM 15.22 59.396 0.095 7.43 2.32 9
11/6/2022 7:00:00 PM 15.14 59.252 0.095 7.41 2.26 9
11/6/2022 7:15:00 PM 15.08 59.144 0.095 7.37 2.29 9
11/6/2022 7:30:00 PM 15.01 59.018 0.095 7.38 2.44 9.01
11/6/2022 7:45:00 PM 14.93 58.874 0.095 7.38 2.36 9.02
11/6/2022 8:00:00 PM 14.84 58.712 0.095 7.37 2.28 9.03
11/6/2022 8:15:00 PM 14.76 58.568 0.096 7.36 2.38 9.05
11/6/2022 8:30:00 PM 14.69 58.442 0.096 7.35 2.32 9.07
11/6/2022 8:45:00 PM 14.62 58.316 0.096 7.33 2.24 9.08
11/6/2022 9:00:00 PM 14.55 58.19 0.096 7.35 2.26 9.1
11/6/2022 9:15:00 PM 14.47 58.046 0.096 7.3 2.24 9.11
11/6/2022 9:30:00 PM 14.38 57.884 0.096 7.32 2.28 9.14
11/6/2022 9:45:00 PM 14.3 57.74 0.096 7.32 2.27 9.16
11/6/2022 10:00:00 PM 14.23 57.614 0.096 7.3 2.28 9.18
11/6/2022 10:15:00 PM 14.16 57.488 0.096 7.32 2.29 9.2
11/6/2022 10:30:00 PM 14.09 57.362 0.096 7.3 2.3 9.22
11/6/2022 10:45:00 PM 14.02 57.236 0.097 7.31 2.38 9.24
11/6/2022 11:00:00 PM 13.95 57.11 0.097 7.3 2.24 9.27
11/6/2022 11:15:00 PM 13.87 56.966 0.097 7.3 2.32 9.29
11/6/2022 11:30:00 PM 13.79 56.822 0.097 7.26 2.43 9.31
11/6/2022 11:45:00 PM 13.73 56.714 0.097 7.3 2.22 9.33
11/7/2022 12:00:00 AM 13.68 56.624 0.096 7.3 2.75 9.35
11/7/2022 12:15:00 AM 13.63 56.534 0.097 7.29 2.32 9.36
11/7/2022 12:30:00 AM 13.57 56.426 0.097 7.29 2.42 9.38
11/7/2022 12:45:00 AM 13.52 56.336 0.098 7.25 2.42 9.4
11/7/2022 1:00:00 AM 13.48 56.264 0.099 7.28 2.26 9.41
11/7/2022 1:15:00 AM 13.44 56.192 0.099 7.28 2.24 9.43
11/7/2022 1:30:00 AM 13.4 56.12 0.1 7.28 2.53 9.44
11/7/2022 1:45:00 AM 13.35 56.03 0.099 7.27 2.34 9.45
11/7/2022 2:00:00 AM 13.3 55.94 0.099 7.28 2.28 9.47
11/7/2022 2:15:00 AM 13.26 55.868 0.099 7.27 2.26 9.49
11/7/2022 2:30:00 AM 13.23 55.814 0.098 7.28 2.15 9.49
11/7/2022 2:45:00 AM 13.18 55.724 0.098 7.28 2.2 9.5
11/7/2022 3:00:00 AM 13.11 55.598 0.098 7.27 2.25 9.52
11/7/2022 3:15:00 AM 13.04 55.472 0.097 7.28 2.27 9.53
11/7/2022 3:30:00 AM 12.96 55.328 0.097 7.28 2.27 9.56
11/7/2022 3:45:00 AM 12.87 55.166 0.097 7.29 2.24 9.58
11/7/2022 4:00:00 AM 12.79 55.022 0.097 7.28 2.26 9.61
11/7/2022 4:15:00 AM 12.71 54.878 0.097 7.25 2.27 9.63
11/7/2022 4:30:00 AM 12.63 54.734 0.097 7.28 2.35 9.66
11/7/2022 4:45:00 AM 12.55 54.59 0.097 7.29 2.21 9.68
11/7/2022 5:00:00 AM 12.47 54.446 0.097 7.28 2.19 9.7
11/7/2022 5:15:00 AM 12.38 54.284 0.097 7.28 2.35 9.73
11/7/2022 5:30:00 AM 12.29 54.122 0.097 7.28 2.16 9.76
11/7/2022 5:45:00 AM 12.2 53.96 0.097 7.27 2.24 9.79
11/7/2022 6:00:00 AM 12.11 53.798 0.097 7.27 2.28 9.82
11/7/2022 6:15:00 AM 12.02 53.636 0.097 7.23 2.23 9.83
11/7/2022 6:30:00 AM 11.92 53.456 0.097 7.24 2.24 9.87
11/7/2022 6:45:00 AM 11.83 53.294 0.096 7.21 2.34 9.9
11/7/2022 7:00:00 AM 11.74 53.132 0.096 7.22 2.23 9.95
11/7/2022 7:15:00 AM 11.65 52.97 0.096 7.24 2.17 10.02
11/7/2022 7:30:00 AM 11.57 52.826 0.096 7.2 2.23 10.11
11/7/2022 7:45:00 AM 11.49 52.682 0.096 7.25 2.11 10.23
11/7/2022 8:00:00 AM 11.42 52.556 0.096 7.26 2.12 10.35
11/7/2022 8:15:00 AM 11.37 52.466 0.096 7.28 2.18 10.49
11/7/2022 8:30:00 AM 11.33 52.394 0.096 7.32 3.24 10.62
11/7/2022 8:45:00 AM 11.31 52.358 0.096 7.35 2.28 10.75
11/7/2022 9:00:00 AM 11.31 52.358 0.095 7.38 2.19 10.88
11/7/2022 9:15:00 AM 11.34 52.412 0.095 7.43 2.17 11
11/7/2022 9:30:00 AM 11.41 52.538 0.095 7.48 2.15 11.14
11/7/2022 9:45:00 AM 11.53 52.754 0.094 7.54 2.19 11.25
11/7/2022 10:00:00 AM 11.65 52.97 0.094 7.6 2.24 11.33
11/7/2022 10:15:00 AM 11.8 53.24 0.094 7.64 2.16 11.4
11/7/2022 10:30:00 AM 11.96 53.528 0.094 7.72 2.18 11.44
11/7/2022 10:45:00 AM 12.11 53.798 0.093 7.78 2.21 11.47
11/7/2022 11:00:00 AM 12.26 54.068 0.093 7.83 2.12 11.49
11/7/2022 11:15:00 AM 12.41 54.338 0.093 7.88 2.17 11.51
11/7/2022 11:30:00 AM 12.54 54.572 0.093 7.92 2.16 11.5
11/7/2022 11:45:00 AM 12.69 54.842 0.093 7.99 2.17 11.5
11/7/2022 12:00:00 PM 12.84 55.112 0.092 8.04 2.09 11.5
11/7/2022 12:15:00 PM 12.99 55.382 0.092 8.1 2.26 11.48
11/7/2022 12:30:00 PM 13.15 55.67 0.092 8.14 2.16 11.46
11/7/2022 12:45:00 PM 13.31 55.958 0.092 8.21 2.18 11.45
11/7/2022 1:00:00 PM 13.48 56.264 0.092 8.24 2.29 11.42
11/7/2022 1:15:00 PM 13.65 56.57 0.092 8.31 2.21 11.38
11/7/2022 1:30:00 PM 13.84 56.912 0.092 8.35 2.3 11.34
11/7/2022 1:45:00 PM 14.02 57.236 0.091 8.4 2.26 11.28
11/7/2022 2:00:00 PM 14.2 57.56 0.091 8.42 2.3 11.25
11/7/2022 2:15:00 PM 14.31 57.758 0.091 8.48 2.24 11.18
11/7/2022 2:30:00 PM 14.38 57.884 0.092 8.48 2.19 11.11
11/7/2022 2:45:00 PM 14.36 57.848 0.092 8.49 2.31 11.02
11/7/2022 3:00:00 PM 14.29 57.722 0.092 8.45 2.36 10.93
11/7/2022 3:15:00 PM 14.16 57.488 0.092 8.38 2.3 10.84
11/7/2022 3:30:00 PM 14.03 57.254 0.092 8.29 2.29 10.74
11/7/2022 3:45:00 PM 13.87 56.966 0.093 8.18 2.22 10.64
11/7/2022 4:00:00 PM 13.7 56.66 0.093 8.09 2.33 10.56
11/7/2022 4:15:00 PM 13.57 56.426 0.093 7.97 2.38 10.42
11/7/2022 4:30:00 PM 13.43 56.174 0.094 7.86 2.35 10.29
11/7/2022 4:45:00 PM 13.29 55.922 0.094 7.79 2.35 10.18
11/7/2022 5:00:00 PM 13.17 55.706 0.094 7.71 2.35 10.08
11/7/2022 5:15:00 PM 13.01 55.418 0.095 7.66 2.47 10
11/7/2022 5:30:00 PM 12.86 55.148 0.095 7.61 2.37 9.94
11/7/2022 5:45:00 PM 12.71 54.878 0.095 7.57 2.33 9.9
11/7/2022 6:00:00 PM 12.56 54.608 0.095 7.54 2.53 9.89
11/7/2022 6:15:00 PM 12.39 54.302 0.096 7.51 2.56 9.9
11/7/2022 6:30:00 PM 12.23 54.014 0.096 7.49 2.5 9.91
11/7/2022 6:45:00 PM 12.05 53.69 0.096 7.48 2.64 9.95
11/7/2022 7:00:00 PM 11.89 53.402 0.096 7.43 2.45 9.98
11/7/2022 7:15:00 PM 11.71 53.078 0.097 7.45 2.5 10.01
11/7/2022 7:30:00 PM 11.54 52.772 0.097 7.44 2.42 10.06
11/7/2022 7:45:00 PM 11.37 52.466 0.097 7.42 2.41 10.1
11/7/2022 8:00:00 PM 11.2 52.16 0.097 7.37 3.45 10.15
11/7/2022 8:15:00 PM 11.06 51.908 0.097 7.36 2.48 10.2
11/7/2022 8:30:00 PM 10.91 51.638 0.097 7.32 2.56 10.24
11/7/2022 8:45:00 PM 10.78 51.404 0.097 7.34 2.49 10.28
11/7/2022 9:00:00 PM 10.65 51.17 0.096 7.32 2.44 10.32
11/7/2022 9:15:00 PM 10.54 50.972 0.096 7.31 2.64 10.35
11/7/2022 9:30:00 PM 10.43 50.774 0.096 7.29 2.47 10.38
11/7/2022 9:45:00 PM 10.32 50.576 0.096 7.27 2.54 10.41
11/7/2022 10:00:00 PM 10.2 50.36 0.096 7.27 2.51 10.45
11/7/2022 10:15:00 PM 10.1 50.18 0.096 7.27 2.51 10.48
11/7/2022 10:30:00 PM 10 50 0.096 7.28 2.44 10.52
11/7/2022 10:45:00 PM 9.9 49.82 0.096 7.26 2.42 10.55
11/7/2022 11:00:00 PM 9.79 49.622 0.096 7.26 2.47 10.59
11/7/2022 11:15:00 PM 9.7 49.46 0.096 7.23 2.41 10.61
11/7/2022 11:30:00 PM 9.6 49.28 0.096 7.24 2.49 10.64
11/7/2022 11:45:00 PM 9.5 49.1 0.097 7.23 2.47 10.68
11/8/2022 12:00:00 AM 9.41 48.938 0.097 7.25 2.55 10.71
11/8/2022 12:15:00 AM 9.31 48.758 0.097 7.23 2.31 10.74
11/8/2022 12:30:00 AM 9.22 48.596 0.097 7.24 2.33 10.76
11/8/2022 12:45:00 AM 9.13 48.434 0.097 7.24 2.58 10.81
11/8/2022 1:00:00 AM 9.04 48.272 0.097 7.23 2.35 10.84
11/8/2022 1:15:00 AM 8.95 48.11 0.097 7.24 2.39 10.87
11/8/2022 1:30:00 AM 8.85 47.93 0.097 7.22 2.48 10.9
11/8/2022 1:45:00 AM 8.77 47.786 0.097 7.2 2.38 10.93
11/8/2022 2:00:00 AM 8.67 47.606 0.097 7.22 2.39 10.96
11/8/2022 2:15:00 AM 8.58 47.444 0.097 7.22 2.39 10.99
11/8/2022 2:30:00 AM 8.49 47.282 0.097 7.19 3.63 11.03
11/8/2022 2:45:00 AM 8.39 47.102 0.097 7.22 2.44 11.06
11/8/2022 3:00:00 AM 8.3 46.94 0.097 7.21 2.38 11.09
11/8/2022 3:15:00 AM 8.21 46.778 0.097 7.21 2.42 11.13
11/8/2022 3:30:00 AM 8.11 46.598 0.097 7.2 2.33 11.15
11/8/2022 3:45:00 AM 8.02 46.436 0.097 7.21 2.46 11.19
11/8/2022 4:00:00 AM 7.93 46.274 0.098 7.21 2.61 11.22
11/8/2022 4:15:00 AM 7.84 46.112 0.098 7.2 2.43 11.25
11/8/2022 4:30:00 AM 7.74 45.932 0.099 7.2 2.36 11.28
11/8/2022 4:45:00 AM 7.65 45.77 0.1 7.21 2.36 11.32
11/8/2022 5:00:00 AM 7.56 45.608 0.1 7.21 2.41 11.35
11/8/2022 5:15:00 AM 7.47 45.446 0.1 7.21 2.33 11.39
11/8/2022 5:30:00 AM 7.38 45.284 0.1 7.21 2.35 11.42
11/8/2022 5:45:00 AM 7.3 45.14 0.1 7.21 2.33 11.45
11/8/2022 6:00:00 AM 7.21 44.978 0.1 7.2 2.37 11.48
11/8/2022 6:15:00 AM 7.12 44.816 0.099 7.21 2.27 11.52
11/8/2022 6:30:00 AM 7.04 44.672 0.099 7.21 2.35 11.55
11/8/2022 6:45:00 AM 6.95 44.51 0.099 7.2 2.34 11.58
11/8/2022 7:00:00 AM 6.88 44.384 0.099 7.22 2.33 11.63
11/8/2022 7:15:00 AM 6.83 44.294 0.098 7.21 2.3 11.7
11/8/2022 7:30:00 AM 6.8 44.24 0.098 7.25 2.35 11.8
11/8/2022 7:45:00 AM 6.78 44.204 0.098 7.26 2.23 11.91
11/8/2022 8:00:00 AM 6.76 44.168 0.098 7.3 2.28 12.06
11/8/2022 8:15:00 AM 6.74 44.132 0.098 7.34 2.32 12.22
11/8/2022 8:30:00 AM 6.72 44.096 0.097 7.35 2.28 12.36
11/8/2022 8:45:00 AM 6.72 44.096 0.097 7.41 2.27 12.46
11/8/2022 9:00:00 AM 6.73 44.114 0.097 7.44 2.26 12.55
11/8/2022 9:15:00 AM 6.76 44.168 0.097 7.48 2.23 12.62
11/8/2022 9:30:00 AM 6.82 44.276 0.096 7.5 2.29 12.69
11/8/2022 9:45:00 AM 6.94 44.492 0.096 7.54 2.31 12.75
11/8/2022 10:00:00 AM 7.09 44.762 0.096 7.58 2.21 12.79
11/8/2022 10:15:00 AM 7.25 45.05 0.095 7.64 2.26 12.81
11/8/2022 10:30:00 AM 7.44 45.392 0.095 7.67 2.18 12.82
11/8/2022 10:45:00 AM 7.62 45.716 0.094 7.7 2.19 12.82
11/8/2022 11:00:00 AM 7.82 46.076 0.094 7.74 2.17 12.81
11/8/2022 11:15:00 AM 8.02 46.436 0.094 7.76 2.29 12.79
11/8/2022 11:30:00 AM 8.21 46.778 0.094 7.81 2.25 12.77
11/8/2022 11:45:00 AM 8.4 47.12 0.093 7.84 2.15 12.74
11/8/2022 12:00:00 PM 8.59 47.462 0.093 7.84 2.17 12.7
11/8/2022 12:15:00 PM 8.78 47.804 0.093 7.9 2.13 12.65
11/8/2022 12:30:00 PM 8.99 48.182 0.093 7.92 2.11 12.61
11/8/2022 12:45:00 PM 9.21 48.578 0.093 7.97 2.16 12.56
11/8/2022 1:00:00 PM 9.43 48.974 0.093 8 2.43 12.51
11/8/2022 1:15:00 PM 9.64 49.352 0.093 8.02 2.21 12.46
11/8/2022 1:30:00 PM 9.88 49.784 0.092 8.05 2.16 12.4
11/8/2022 1:45:00 PM 10.11 50.198 0.092 8.08 2.43 12.35
11/8/2022 2:00:00 PM 10.34 50.612 0.092 8.14 2.21 12.27
11/8/2022 2:15:00 PM 10.52 50.936 0.092 8.14 2.12 12.21
11/8/2022 2:30:00 PM 10.64 51.152 0.092 8.17 2.15 12.12
11/8/2022 2:45:00 PM 10.68 51.224 0.092 8.19 2.24 12.04
11/8/2022 3:00:00 PM 10.66 51.188 0.092 8.16 2.58 11.94
11/8/2022 3:15:00 PM 10.58 51.044 0.092 8.13 2.21 11.88
11/8/2022 3:30:00 PM 10.44 50.792 0.093 8.09 2.47 11.81
11/8/2022 3:45:00 PM 10.3 50.54 0.093 8.03 2.19 11.74
11/8/2022 4:00:00 PM 10.19 50.342 0.093 7.98 2.27 11.67
11/8/2022 4:15:00 PM 10.06 50.108 0.094 7.89 2.3 11.57
11/8/2022 4:30:00 PM 9.94 49.892 0.094 7.82 2.2 11.44
11/8/2022 4:45:00 PM 9.82 49.676 0.095 7.77 2.19 11.33
11/8/2022 5:00:00 PM 9.72 49.496 0.095 7.7 2.42 11.23
11/8/2022 5:15:00 PM 9.62 49.316 0.095 7.67 2.26 11.14
11/8/2022 5:30:00 PM 9.53 49.154 0.095 7.63 2.28 11.06
11/8/2022 5:45:00 PM 9.44 48.992 0.096 7.59 2.32 11
11/8/2022 6:00:00 PM 9.33 48.794 0.096 7.56 2.57 10.97
11/8/2022 6:15:00 PM 9.22 48.596 0.096 7.54 2.34 10.97
11/8/2022 6:30:00 PM 9.11 48.398 0.096 7.53 2.31 10.98
11/8/2022 6:45:00 PM 8.99 48.182 0.096 7.51 2.33 10.99
11/8/2022 7:00:00 PM 8.86 47.948 0.096 7.49 2.3 11.01
11/8/2022 7:15:00 PM 8.72 47.696 0.096 7.47 2.45 11.05
11/8/2022 7:30:00 PM 8.59 47.462 0.097 7.48 2.37 11.08
11/8/2022 7:45:00 PM 8.44 47.192 0.097 7.45 2.57 11.12
11/8/2022 8:00:00 PM 8.3 46.94 0.097 7.45 2.37 11.15
11/8/2022 8:15:00 PM 8.15 46.67 0.097 7.43 2.6 11.2
11/8/2022 8:30:00 PM 8.02 46.436 0.097 7.44 2.72 11.24
11/8/2022 8:45:00 PM 7.89 46.202 0.097 7.4 2.29 11.28
11/8/2022 9:00:00 PM 7.77 45.986 0.097 7.42 2.35 11.31
11/8/2022 9:15:00 PM 7.64 45.752 0.097 7.42 2.67 11.34
11/8/2022 9:30:00 PM 7.54 45.572 0.097 7.41 2.38 11.37
11/8/2022 9:45:00 PM 7.43 45.374 0.097 7.38 2.34 11.42
11/8/2022 10:00:00 PM 7.34 45.212 0.097 7.38 2.3 11.44
11/8/2022 10:15:00 PM 7.24 45.032 0.097 7.38 2.33 11.48
11/8/2022 10:30:00 PM 7.14 44.852 0.097 7.33 2.36 11.51
11/8/2022 10:45:00 PM 7.05 44.69 0.097 7.37 2.35 11.54
11/8/2022 11:00:00 PM 6.96 44.528 0.096 7.35 2.37 11.57
11/8/2022 11:15:00 PM 6.86 44.348 0.097 7.33 2.4 11.61
11/8/2022 11:30:00 PM 6.77 44.186 0.096 7.29 2.33 11.63
11/8/2022 11:45:00 PM 6.68 44.024 0.096 7.3 2.3 11.67
11/9/2022 12:00:00 AM 6.59 43.862 0.097 7.32 2.37 11.71
11/9/2022 12:15:00 AM 6.51 43.718 0.097 7.31 2.41 11.73
11/9/2022 12:30:00 AM 6.43 43.574 0.097 7.3 2.29 11.77
11/9/2022 12:45:00 AM 6.34 43.412 0.097 7.3 2.3 11.8
11/9/2022 1:00:00 AM 6.26 43.268 0.097 7.27 2.32 11.82
11/9/2022 1:15:00 AM 6.17 43.106 0.097 7.28 2.34 11.86
11/9/2022 1:30:00 AM 6.09 42.962 0.097 7.26 2.47 11.89
11/9/2022 1:45:00 AM 6 42.8 0.097 7.27 2.38 11.91
11/9/2022 2:00:00 AM 5.93 42.674 0.097 7.29 2.45 11.93
11/9/2022 2:15:00 AM 5.85 42.53 0.097 7.23 2.34 11.97
11/9/2022 2:30:00 AM 5.77 42.386 0.097 7.28 2.37 11.99
11/9/2022 2:45:00 AM 5.69 42.242 0.097 7.27 2.32 12.03
11/9/2022 3:00:00 AM 5.61 42.098 0.097 7.26 2.39 12.05
11/9/2022 3:15:00 AM 5.53 41.954 0.097 7.25 2.34 12.08
11/9/2022 3:30:00 AM 5.45 41.81 0.097 7.26 2.41 12.11
11/9/2022 3:45:00 AM 5.37 41.666 0.098 7.24 2.25 12.14
11/9/2022 4:00:00 AM 5.3 41.54 0.098 7.26 2.43 12.16
11/9/2022 4:15:00 AM 5.24 41.432 0.098 7.23 2.33 12.18
11/9/2022 4:30:00 AM 5.15 41.27 0.098 7.26 2.3 12.22
11/9/2022 4:45:00 AM 5.08 41.144 0.099 7.22 2.31 12.25
11/9/2022 5:00:00 AM 5.01 41.018 0.1 7.25 2.39 12.27
11/9/2022 5:15:00 AM 4.94 40.892 0.101 7.23 2.38 12.3
11/9/2022 5:30:00 AM 4.87 40.766 0.102 7.26 2.3 12.32
11/9/2022 5:45:00 AM 4.81 40.658 0.102 7.24 2.32 12.34
11/9/2022 6:00:00 AM 4.73 40.514 0.102 7.25 2.27 12.38
11/9/2022 6:15:00 AM 4.66 40.388 0.102 7.25 2.33 12.42
11/9/2022 6:30:00 AM 4.58 40.244 0.101 7.25 2.28 12.45
11/9/2022 6:45:00 AM 4.53 40.154 0.101 7.25 2.34 12.46
11/9/2022 7:00:00 AM 4.44 39.992 0.1 7.24 2.28 12.51
11/9/2022 7:15:00 AM 4.39 39.902 0.1 7.25 2.32 12.56
11/9/2022 7:30:00 AM 4.33 39.794 0.099 7.28 2.29 12.65
11/9/2022 7:45:00 AM 4.27 39.686 0.099 7.27 2.3 12.73
11/9/2022 8:00:00 AM 4.21 39.578 0.098 7.31 2.2 12.87
11/9/2022 8:15:00 AM 4.19 39.542 0.098 7.32 2.22 12.95
11/9/2022 8:30:00 AM 4.16 39.488 0.098 7.35 2.24 13.08
11/9/2022 8:45:00 AM 4.15 39.47 0.097 7.37 2.24 13.17
11/9/2022 9:00:00 AM 4.17 39.506 0.097 7.41 2.31 13.27
11/9/2022 9:15:00 AM 4.22 39.596 0.097 7.44 2.25 13.36
11/9/2022 9:30:00 AM 4.29 39.722 0.097 7.44 2.15 13.4
11/9/2022 9:45:00 AM 4.41 39.938 0.096 7.49 2.19 13.49
11/9/2022 10:00:00 AM 4.57 40.226 0.096 7.52 2.26 13.52
11/9/2022 10:15:00 AM 4.76 40.568 0.096 7.54 2.18 13.53
11/9/2022 10:30:00 AM 4.97 40.946 0.095 7.57 2.2 13.53
11/9/2022 10:45:00 AM 5.19 41.342 0.095 7.6 2.22 13.5
11/9/2022 11:00:00 AM 5.42 41.756 0.095 7.62 2.14 13.48
11/9/2022 11:15:00 AM 5.65 42.17 0.095 7.65 2.09 13.46
11/9/2022 11:30:00 AM 5.85 42.53 0.095 7.68 2.18 13.41
11/9/2022 11:45:00 AM 6.04 42.872 0.094 7.71 2.21 13.38
11/9/2022 12:00:00 PM 6.26 43.268 0.094 7.75 2.11 13.35
11/9/2022 12:15:00 PM 6.45 43.61 0.094 7.77 2.11 13.32
11/9/2022 12:30:00 PM 6.71 44.078 0.094 7.8 2.14 13.26
11/9/2022 12:45:00 PM 6.92 44.456 0.094 7.83 2.09 13.22
11/9/2022 1:00:00 PM 7.13 44.834 0.094 7.87 2.14 13.15
11/9/2022 1:15:00 PM 7.35 45.23 0.093 7.89 2.08 13.1
11/9/2022 1:30:00 PM 7.58 45.644 0.093 7.9 2.05 13.03
11/9/2022 1:45:00 PM 7.76 45.968 0.093 7.95 2.15 12.97
11/9/2022 2:00:00 PM 7.94 46.292 0.093 7.95 2.11 12.87
11/9/2022 2:15:00 PM 8.14 46.652 0.093 8 2.1 12.83
11/9/2022 2:30:00 PM 8.28 46.904 0.093 8.01 2.18 12.76
11/9/2022 2:45:00 PM 8.4 47.12 0.093 8.01 2.22 12.65
11/9/2022 3:00:00 PM 8.44 47.192 0.093 8.02 2.17 12.58
11/9/2022 3:15:00 PM 8.42 47.156 0.093 7.99 2.12 12.48
11/9/2022 3:30:00 PM 8.37 47.066 0.094 8 2.25 12.44
11/9/2022 3:45:00 PM 8.31 46.958 0.094 7.97 2.14 12.38
11/9/2022 4:00:00 PM 8.24 46.832 0.094 7.94 2.21 12.31
11/9/2022 4:15:00 PM 8.15 46.67 0.094 7.89 2.16 12.2
11/9/2022 4:30:00 PM 8.05 46.49 0.095 7.84 2.17 12.08
11/9/2022 4:45:00 PM 7.94 46.292 0.095 7.78 2.13 11.96
11/9/2022 5:00:00 PM 7.86 46.148 0.095 7.71 2.21 11.84
11/9/2022 5:15:00 PM 7.78 46.004 0.096 7.69 2.32 11.74
11/9/2022 5:30:00 PM 7.71 45.878 0.096 7.65 2.26 11.65
11/9/2022 5:45:00 PM 7.65 45.77 0.096 7.58 2.26 11.57
11/9/2022 6:00:00 PM 7.58 45.644 0.096 7.58 2.21 11.52
11/9/2022 6:15:00 PM 7.51 45.518 0.096 7.56 2.31 11.51
11/9/2022 6:30:00 PM 7.42 45.356 0.096 7.54 2.21 11.51
11/9/2022 6:45:00 PM 7.34 45.212 0.097 7.53 2.37 11.5
11/9/2022 7:00:00 PM 7.24 45.032 0.097 7.46 2.31 11.51
11/9/2022 7:15:00 PM 7.14 44.852 0.097 7.48 2.27 11.52
11/9/2022 7:30:00 PM 7.03 44.654 0.097 7.49 2.33 11.55
11/9/2022 7:45:00 PM 6.92 44.456 0.097 7.46 2.33 11.57
11/9/2022 8:00:00 PM 6.81 44.258 0.097 7.47 2.32 11.6
11/9/2022 8:15:00 PM 6.69 44.042 0.097 7.44 2.32 11.64
11/9/2022 8:30:00 PM 6.58 43.844 0.097 7.46 2.3 11.67
11/9/2022 8:45:00 PM 6.48 43.664 0.097 7.45 2.37 11.71
11/9/2022 9:00:00 PM 6.37 43.466 0.097 7.43 2.43 11.74
11/9/2022 9:15:00 PM 6.28 43.304 0.097 7.43 2.35 11.77
11/9/2022 9:30:00 PM 6.18 43.124 0.097 7.41 2.33 11.8
11/9/2022 9:45:00 PM 6.09 42.962 0.097 7.42 2.29 11.83
11/9/2022 10:00:00 PM 6.01 42.818 0.097 7.4 2.38 11.86
11/9/2022 10:15:00 PM 5.93 42.674 0.097 7.42 2.27 11.88
11/9/2022 10:30:00 PM 5.85 42.53 0.097 7.4 2.31 11.91
11/9/2022 10:45:00 PM 5.78 42.404 0.097 7.38 2.34 11.93
11/9/2022 11:00:00 PM 5.71 42.278 0.097 7.39 2.43 11.95
11/9/2022 11:15:00 PM 5.64 42.152 0.097 7.41 2.4 11.97
11/9/2022 11:30:00 PM 5.58 42.044 0.097 7.39 2.24 12
11/9/2022 11:45:00 PM 5.51 41.918 0.097 7.4 2.34 12.02
11/10/2022 12:00:00 AM 5.44 41.792 0.097 7.39 2.3 12.04
11/10/2022 12:15:00 AM 5.38 41.684 0.097 7.38 2.4 12.04
11/10/2022 12:30:00 AM 5.31 41.558 0.097 7.38 2.35 12.08
11/10/2022 12:45:00 AM 5.24 41.432 0.097 7.39 2.34 12.11
11/10/2022 1:00:00 AM 5.17 41.306 0.097 7.38 2.35 12.13
11/10/2022 1:15:00 AM 5.1 41.18 0.097 7.35 2.36 12.16
11/10/2022 1:30:00 AM 5.04 41.072 0.097 7.34 2.28 12.17
11/10/2022 1:45:00 AM 4.97 40.946 0.097 7.34 2.34 12.2
11/10/2022 2:00:00 AM 4.92 40.856 0.097 7.35 2.27 12.21
11/10/2022 2:15:00 AM 4.85 40.73 0.097 7.35 2.31 12.25
11/10/2022 2:30:00 AM 4.79 40.622 0.097 7.33 2.32 12.27
11/10/2022 2:45:00 AM 4.73 40.514 0.097 7.33 2.33 12.29
11/10/2022 3:00:00 AM 4.67 40.406 0.097 7.31 2.25 12.31
11/10/2022 3:15:00 AM 4.61 40.298 0.097 7.32 2.35 12.34
11/10/2022 3:30:00 AM 4.55 40.19 0.097 7.31 2.25 12.36
11/10/2022 3:45:00 AM 4.5 40.1 0.097 7.32 2.31 12.38
11/10/2022 4:00:00 AM 4.44 39.992 0.097 7.32 2.49 12.4
11/10/2022 4:15:00 AM 4.38 39.884 0.097 7.32 2.26 12.43
11/10/2022 4:30:00 AM 4.32 39.776 0.097 7.31 2.25 12.45
11/10/2022 4:45:00 AM 4.27 39.686 0.097 7.3 2.35 12.47
11/10/2022 5:00:00 AM 4.21 39.578 0.097 7.29 2.29 12.48
11/10/2022 5:15:00 AM 4.16 39.488 0.097 7.3 2.24 12.5
11/10/2022 5:30:00 AM 4.1 39.38 0.097 7.29 2.27 12.52
11/10/2022 5:45:00 AM 4.05 39.29 0.098 7.29 2.23 12.56
11/10/2022 6:00:00 AM 3.99 39.182 0.098 7.28 2.27 12.56
11/10/2022 6:15:00 AM 3.94 39.092 0.098 7.28 2.24 12.6
11/10/2022 6:30:00 AM 3.88 38.984 0.098 7.28 2.31 12.61
11/10/2022 6:45:00 AM 3.83 38.894 0.098 7.27 2.22 12.63
11/10/2022 7:00:00 AM 3.78 38.804 0.098 7.27 2.22 12.67
11/10/2022 7:15:00 AM 3.73 38.714 0.098 7.28 2.25 12.72
11/10/2022 7:30:00 AM 3.69 38.642 0.098 7.3 2.23 12.81
11/10/2022 7:45:00 AM 3.65 38.57 0.098 7.3 2.23 12.89
11/10/2022 8:00:00 AM 3.62 38.516